<?xml version='1.0' encoding='UTF-8'?><gpx version="1.1" creator="JPX - https://github.com/jenetics/jpx" xmlns="http://www.topografix.com/GPX/1/1"><trk><trkseg><trkpt lat="45.55930623486792" lon="8.050769642410597"><ele>410.66666666666663</ele><time>2026-05-03T08:43:44.018Z</time></trkpt><trkpt lat="45.55931748929231" lon="8.050866833806811"><ele>411.3333333333333</ele><time>2026-05-03T08:43:48Z</time></trkpt><trkpt lat="45.5593560533909" lon="8.050981263208934"><ele>412.0</ele><time>2026-05-03T08:43:51Z</time></trkpt><trkpt lat="45.55942327707577" lon="8.051008062181047"><ele>412.66666666666663</ele><time>2026-05-03T08:43:53Z</time></trkpt><trkpt lat="45.55948506294417" lon="8.05090702297066"><ele>413.3333333333333</ele><time>2026-05-03T08:43:54Z</time></trkpt><trkpt lat="45.559575073893875" lon="8.050860338734216"><ele>414.0</ele><time>2026-05-03T08:43:56Z</time></trkpt><trkpt lat="45.5596552034569" lon="8.050833344882776"><ele>413.7142857142857</ele><time>2026-05-03T08:43:58Z</time></trkpt><trkpt lat="45.55972427750083" lon="8.050756852198115"><ele>413.42857142857144</ele><time>2026-05-03T08:44:00Z</time></trkpt><trkpt lat="45.559798063397885" lon="8.050721319851252"><ele>413.1428571428571</ele><time>2026-05-03T08:44:02Z</time></trkpt><trkpt lat="45.559859709561906" lon="8.05070207766187"><ele>412.8571428571429</ele><time>2026-05-03T08:44:04Z</time></trkpt><trkpt lat="45.55992365468923" lon="8.050660579764912"><ele>412.57142857142856</ele><time>2026-05-03T08:44:06Z</time></trkpt><trkpt lat="45.55998753828617" lon="8.050620825790796"><ele>412.2857142857143</ele><time>2026-05-03T08:44:08Z</time></trkpt><trkpt lat="45.56004916894542" lon="8.050577735538583"><ele>412.0</ele><time>2026-05-03T08:44:10Z</time></trkpt><trkpt lat="45.56012441875128" lon="8.050541007485087"><ele>412.00000000000006</ele><time>2026-05-03T08:44:13Z</time></trkpt><trkpt lat="45.56018970310532" lon="8.050502216375131"><ele>412.0</ele><time>2026-05-03T08:44:15Z</time></trkpt><trkpt lat="45.560265113824684" lon="8.050470551236103"><ele>412.0</ele><time>2026-05-03T08:44:17Z</time></trkpt><trkpt lat="45.56033322019565" lon="8.050429622438717"><ele>412.0</ele><time>2026-05-03T08:44:19Z</time></trkpt><trkpt lat="45.560406587291894" lon="8.050374082539252"><ele>412.00000000000006</ele><time>2026-05-03T08:44:21Z</time></trkpt><trkpt lat="45.56049790249705" lon="8.050341484989673"><ele>412.0</ele><time>2026-05-03T08:44:23Z</time></trkpt><trkpt lat="45.5605779224557" lon="8.050283307368892"><ele>412.50000000000006</ele><time>2026-05-03T08:44:25Z</time></trkpt><trkpt lat="45.56065343642388" lon="8.0502176753871"><ele>413.0</ele><time>2026-05-03T08:44:27Z</time></trkpt><trkpt lat="45.56073289986322" lon="8.050215726414738"><ele>413.5</ele><time>2026-05-03T08:44:31Z</time></trkpt><trkpt lat="45.560786552667246" lon="8.050334695446685"><ele>414.0</ele><time>2026-05-03T08:44:34Z</time></trkpt><trkpt lat="45.56080953384786" lon="8.050429594872032"><ele>414.50000000000006</ele><time>2026-05-03T08:44:36Z</time></trkpt><trkpt lat="45.560840588921806" lon="8.05054134847191"><ele>415.0</ele><time>2026-05-03T08:44:38Z</time></trkpt><trkpt lat="45.56087217110197" lon="8.050642858704377"><ele>415.00000000000006</ele><time>2026-05-03T08:44:40Z</time></trkpt><trkpt lat="45.560892194424305" lon="8.050730719114775"><ele>415.0</ele><time>2026-05-03T08:44:42Z</time></trkpt><trkpt lat="45.560924630242525" lon="8.050848887475727"><ele>415.0</ele><time>2026-05-03T08:44:45Z</time></trkpt><trkpt lat="45.560957390598716" lon="8.050969598705903"><ele>415.0</ele><time>2026-05-03T08:44:47Z</time></trkpt><trkpt lat="45.561000477661835" lon="8.051093079842083"><ele>415.00000000000006</ele><time>2026-05-03T08:44:49Z</time></trkpt><trkpt lat="45.561039359976135" lon="8.051214709352758"><ele>415.0</ele><time>2026-05-03T08:44:51Z</time></trkpt><trkpt lat="45.561075682691154" lon="8.05134524660036"><ele>415.33333333333337</ele><time>2026-05-03T08:44:53Z</time></trkpt><trkpt lat="45.5610895794492" lon="8.051478543837774"><ele>415.66666666666663</ele><time>2026-05-03T08:44:55Z</time></trkpt><trkpt lat="45.561197311559106" lon="8.051782570564917"><ele>416.0</ele><time>2026-05-03T08:45:03Z</time></trkpt><trkpt lat="45.56125285864596" lon="8.051931055705001"><ele>417.0</ele><time>2026-05-03T08:45:05Z</time></trkpt><trkpt lat="45.561218877698636" lon="8.052038046608683"><ele>418.0</ele><time>2026-05-03T08:45:06Z</time></trkpt><trkpt lat="45.56125739246603" lon="8.052192835651995"><ele>419.0</ele><time>2026-05-03T08:45:08Z</time></trkpt><trkpt lat="45.56129979646868" lon="8.052363255347233"><ele>420.0</ele><time>2026-05-03T08:45:10Z</time></trkpt><trkpt lat="45.56133988812826" lon="8.052526189818693"><ele>421.0</ele><time>2026-05-03T08:45:12Z</time></trkpt><trkpt lat="45.56137656168382" lon="8.052677044486584"><ele>421.0</ele><time>2026-05-03T08:45:14Z</time></trkpt><trkpt lat="45.561397250038084" lon="8.052762024443716"><ele>421.0</ele><time>2026-05-03T08:45:15Z</time></trkpt><trkpt lat="45.56141977075994" lon="8.052854129020945"><ele>421.0</ele><time>2026-05-03T08:45:16Z</time></trkpt><trkpt lat="45.56145945125665" lon="8.053015556914557"><ele>421.0</ele><time>2026-05-03T08:45:18Z</time></trkpt><trkpt lat="45.5615003483376" lon="8.053183175244465"><ele>421.0</ele><time>2026-05-03T08:45:20Z</time></trkpt><trkpt lat="45.561540440590505" lon="8.053347494953108"><ele>420.4</ele><time>2026-05-03T08:45:22Z</time></trkpt><trkpt lat="45.561579873539955" lon="8.053509112481109"><ele>419.8</ele><time>2026-05-03T08:45:24Z</time></trkpt><trkpt lat="45.56160067210004" lon="8.053594356214301"><ele>419.2</ele><time>2026-05-03T08:45:25Z</time></trkpt><trkpt lat="45.56162157817555" lon="8.053680040598847"><ele>418.59999999999997</ele><time>2026-05-03T08:45:26Z</time></trkpt><trkpt lat="45.56167298323061" lon="8.053833978393069"><ele>418.0</ele><time>2026-05-03T08:45:28Z</time></trkpt><trkpt lat="45.561709161033434" lon="8.054008718258931"><ele>417.25</ele><time>2026-05-03T08:45:30Z</time></trkpt><trkpt lat="45.561752321246175" lon="8.054174073523999"><ele>416.5</ele><time>2026-05-03T08:45:32Z</time></trkpt><trkpt lat="45.561789940865395" lon="8.054339393020419"><ele>415.75</ele><time>2026-05-03T08:45:34Z</time></trkpt><trkpt lat="45.56182756261909" lon="8.054510667780454"><ele>415.0</ele><time>2026-05-03T08:45:36Z</time></trkpt><trkpt lat="45.56185869129345" lon="8.054682609182102"><ele>415.0</ele><time>2026-05-03T08:45:38Z</time></trkpt><trkpt lat="45.5618995080618" lon="8.054843869324316"><ele>415.0</ele><time>2026-05-03T08:45:40Z</time></trkpt><trkpt lat="45.561898672447526" lon="8.054935810875847"><ele>415.0</ele><time>2026-05-03T08:45:41Z</time></trkpt><trkpt lat="45.561928812161895" lon="8.055016987181865"><ele>415.0</ele><time>2026-05-03T08:45:42Z</time></trkpt><trkpt lat="45.56198491717194" lon="8.0551717383472"><ele>415.0</ele><time>2026-05-03T08:45:44Z</time></trkpt><trkpt lat="45.562029673383925" lon="8.055332231010212"><ele>415.2</ele><time>2026-05-03T08:45:46Z</time></trkpt><trkpt lat="45.562035460001155" lon="8.055423347033354"><ele>415.4</ele><time>2026-05-03T08:45:47Z</time></trkpt><trkpt lat="45.562080788892835" lon="8.055575485586674"><ele>415.6</ele><time>2026-05-03T08:45:49Z</time></trkpt><trkpt lat="45.562117326128394" lon="8.055734887818703"><ele>415.8</ele><time>2026-05-03T08:45:51Z</time></trkpt><trkpt lat="45.56215495966756" lon="8.055897620705444"><ele>416.0</ele><time>2026-05-03T08:45:53Z</time></trkpt><trkpt lat="45.562193369328824" lon="8.056045097283073"><ele>415.99999999999994</ele><time>2026-05-03T08:45:55Z</time></trkpt><trkpt lat="45.562215845376066" lon="8.056177803006143"><ele>416.0</ele><time>2026-05-03T08:45:57Z</time></trkpt><trkpt lat="45.562228979495146" lon="8.056304601764225"><ele>416.0</ele><time>2026-05-03T08:46:00Z</time></trkpt><trkpt lat="45.562250389658224" lon="8.05642688376146"><ele>416.0</ele><time>2026-05-03T08:46:03Z</time></trkpt><trkpt lat="45.562273203234255" lon="8.056517790321566"><ele>415.99999999999994</ele><time>2026-05-03T08:46:05Z</time></trkpt><trkpt lat="45.562308066269175" lon="8.0566313580002"><ele>416.0</ele><time>2026-05-03T08:46:07Z</time></trkpt><trkpt lat="45.56234104938" lon="8.056762693250732"><ele>416.0</ele><time>2026-05-03T08:46:09Z</time></trkpt><trkpt lat="45.56236918534912" lon="8.056938192522418"><ele>416.0</ele><time>2026-05-03T08:46:11Z</time></trkpt><trkpt lat="45.56240537215226" lon="8.057053823178318"><ele>416.0</ele><time>2026-05-03T08:46:13Z</time></trkpt><trkpt lat="45.56242361275886" lon="8.057187784959766"><ele>416.0</ele><time>2026-05-03T08:46:15Z</time></trkpt><trkpt lat="45.56244044764388" lon="8.057304246670968"><ele>416.0</ele><time>2026-05-03T08:46:19Z</time></trkpt><trkpt lat="45.56246406265494" lon="8.057407999046516"><ele>416.0</ele><time>2026-05-03T08:46:22Z</time></trkpt><trkpt lat="45.56250289679869" lon="8.057549439976524"><ele>416.0</ele><time>2026-05-03T08:46:24Z</time></trkpt><trkpt lat="45.562522716298055" lon="8.057646481288366"><ele>416.0</ele><time>2026-05-03T08:46:25Z</time></trkpt><trkpt lat="45.562556416996856" lon="8.057802400822396"><ele>416.0</ele><time>2026-05-03T08:46:27Z</time></trkpt><trkpt lat="45.5626083981499" lon="8.057945412391042"><ele>416.0</ele><time>2026-05-03T08:46:29Z</time></trkpt><trkpt lat="45.562664771489665" lon="8.058004074338495"><ele>416.0</ele><time>2026-05-03T08:46:30Z</time></trkpt><trkpt lat="45.562687082869004" lon="8.058088269607117"><ele>416.0</ele><time>2026-05-03T08:46:31Z</time></trkpt><trkpt lat="45.56272512598066" lon="8.058168041258593"><ele>416.0</ele><time>2026-05-03T08:46:32Z</time></trkpt><trkpt lat="45.56275894092143" lon="8.058247039691215"><ele>416.0</ele><time>2026-05-03T08:46:33Z</time></trkpt><trkpt lat="45.56279548608792" lon="8.058323323307624"><ele>416.0</ele><time>2026-05-03T08:46:34Z</time></trkpt><trkpt lat="45.562847147439236" lon="8.058381044951258"><ele>416.0</ele><time>2026-05-03T08:46:35Z</time></trkpt><trkpt lat="45.562899782171556" lon="8.058538186976302"><ele>416.0</ele><time>2026-05-03T08:46:37Z</time></trkpt><trkpt lat="45.562960349137185" lon="8.058696926637449"><ele>415.99999999999994</ele><time>2026-05-03T08:46:39Z</time></trkpt><trkpt lat="45.56302434273361" lon="8.058851911795374"><ele>416.0</ele><time>2026-05-03T08:46:41Z</time></trkpt><trkpt lat="45.563047510787996" lon="8.058943951199003"><ele>416.0</ele><time>2026-05-03T08:46:42Z</time></trkpt><trkpt lat="45.56305954570683" lon="8.05903325655716"><ele>416.0</ele><time>2026-05-03T08:46:43Z</time></trkpt><trkpt lat="45.56305230322403" lon="8.059130882819543"><ele>415.99999999999994</ele><time>2026-05-03T08:46:44Z</time></trkpt><trkpt lat="45.56306402265014" lon="8.059220200569492"><ele>416.0</ele><time>2026-05-03T08:46:45Z</time></trkpt><trkpt lat="45.56308452981151" lon="8.059308289834151"><ele>416.0</ele><time>2026-05-03T08:46:46Z</time></trkpt><trkpt lat="45.563123280199854" lon="8.059482171466364"><ele>416.0</ele><time>2026-05-03T08:46:48Z</time></trkpt><trkpt lat="45.56318040468466" lon="8.05955341726205"><ele>416.0</ele><time>2026-05-03T08:46:49Z</time></trkpt><trkpt lat="45.563202430950625" lon="8.059640570379996"><ele>416.0</ele><time>2026-05-03T08:46:50Z</time></trkpt><trkpt lat="45.56325198961614" lon="8.05980363892065"><ele>416.0</ele><time>2026-05-03T08:46:52Z</time></trkpt><trkpt lat="45.56327703227406" lon="8.059888097895358"><ele>416.0</ele><time>2026-05-03T08:46:53Z</time></trkpt><trkpt lat="45.56334886801016" lon="8.06003899555595"><ele>416.0</ele><time>2026-05-03T08:46:55Z</time></trkpt><trkpt lat="45.56341253715289" lon="8.060062839023107"><ele>416.0</ele><time>2026-05-03T08:46:56Z</time></trkpt><trkpt lat="45.56352994975318" lon="8.0600057893012"><ele>416.0</ele><time>2026-05-03T08:46:58Z</time></trkpt><trkpt lat="45.56362582333947" lon="8.05992995513306"><ele>416.0</ele><time>2026-05-03T08:47:00Z</time></trkpt><trkpt lat="45.56373409242009" lon="8.05987575756721"><ele>417.0</ele><time>2026-05-03T08:47:02Z</time></trkpt><trkpt lat="45.56383714107379" lon="8.059800158323577"><ele>418.0</ele><time>2026-05-03T08:47:04Z</time></trkpt><trkpt lat="45.56393493305691" lon="8.059722595980265"><ele>419.0</ele><time>2026-05-03T08:47:06Z</time></trkpt><trkpt lat="45.564036195143245" lon="8.059656935020152"><ele>420.0</ele><time>2026-05-03T08:47:08Z</time></trkpt><trkpt lat="45.564136561318776" lon="8.059596023564342"><ele>421.0</ele><time>2026-05-03T08:47:10Z</time></trkpt><trkpt lat="45.56424146108272" lon="8.059531183719717"><ele>421.0</ele><time>2026-05-03T08:47:12Z</time></trkpt><trkpt lat="45.5643447424359" lon="8.059472511452283"><ele>421.0</ele><time>2026-05-03T08:47:14Z</time></trkpt><trkpt lat="45.56444470474449" lon="8.05941145514614"><ele>421.0</ele><time>2026-05-03T08:47:16Z</time></trkpt><trkpt lat="45.564544383396765" lon="8.059343693854329"><ele>421.0</ele><time>2026-05-03T08:47:18Z</time></trkpt><trkpt lat="45.56463720450183" lon="8.05927347852615"><ele>421.0</ele><time>2026-05-03T08:47:20Z</time></trkpt><trkpt lat="45.56473103356981" lon="8.059220324185548"><ele>421.20000000000005</ele><time>2026-05-03T08:47:22Z</time></trkpt><trkpt lat="45.56483721183325" lon="8.059254635739299"><ele>421.40000000000003</ele><time>2026-05-03T08:47:24Z</time></trkpt><trkpt lat="45.5649421704785" lon="8.05920501080211"><ele>421.6</ele><time>2026-05-03T08:47:26Z</time></trkpt><trkpt lat="45.56501613309412" lon="8.059078888003752"><ele>421.8</ele><time>2026-05-03T08:47:28Z</time></trkpt><trkpt lat="45.56511335670469" lon="8.059000687419482"><ele>422.0</ele><time>2026-05-03T08:47:30Z</time></trkpt><trkpt lat="45.565224230236836" lon="8.058944878388374"><ele>422.5</ele><time>2026-05-03T08:47:32Z</time></trkpt><trkpt lat="45.56533182909306" lon="8.05887653113463"><ele>423.0</ele><time>2026-05-03T08:47:34Z</time></trkpt><trkpt lat="45.56544056024849" lon="8.05882212530645"><ele>423.5</ele><time>2026-05-03T08:47:36Z</time></trkpt><trkpt lat="45.565524014229986" lon="8.058720771704774"><ele>424.0</ele><time>2026-05-03T08:47:38Z</time></trkpt><trkpt lat="45.565620095662325" lon="8.058643001749168"><ele>424.5</ele><time>2026-05-03T08:47:40Z</time></trkpt><trkpt lat="45.56571511495733" lon="8.058556386015278"><ele>425.0</ele><time>2026-05-03T08:47:42Z</time></trkpt><trkpt lat="45.56581021780196" lon="8.05848908246916"><ele>425.5</ele><time>2026-05-03T08:47:44Z</time></trkpt><trkpt lat="45.56591876989937" lon="8.058441748704766"><ele>426.0</ele><time>2026-05-03T08:47:46Z</time></trkpt><trkpt lat="45.56602806985449" lon="8.058379388803337"><ele>426.0</ele><time>2026-05-03T08:47:48Z</time></trkpt><trkpt lat="45.5661248973192" lon="8.058300534965289"><ele>426.0</ele><time>2026-05-03T08:47:50Z</time></trkpt><trkpt lat="45.56622537548108" lon="8.058231218118953"><ele>426.0</ele><time>2026-05-03T08:47:52Z</time></trkpt><trkpt lat="45.56632295186207" lon="8.058151445889743"><ele>426.0</ele><time>2026-05-03T08:47:54Z</time></trkpt><trkpt lat="45.566427515167575" lon="8.058085360240666"><ele>426.5</ele><time>2026-05-03T08:47:56Z</time></trkpt><trkpt lat="45.566531179326155" lon="8.05801377933994"><ele>427.0</ele><time>2026-05-03T08:47:58Z</time></trkpt><trkpt lat="45.566629723966486" lon="8.057950820487742"><ele>427.5</ele><time>2026-05-03T08:48:00Z</time></trkpt><trkpt lat="45.56674491696764" lon="8.057914770943109"><ele>428.0</ele><time>2026-05-03T08:48:02Z</time></trkpt><trkpt lat="45.56684707929396" lon="8.057849012400942"><ele>428.0</ele><time>2026-05-03T08:48:04Z</time></trkpt><trkpt lat="45.5669493932533" lon="8.057790635071873"><ele>427.99999999999994</ele><time>2026-05-03T08:48:06Z</time></trkpt><trkpt lat="45.567047827668056" lon="8.05772746141607"><ele>427.99999999999994</ele><time>2026-05-03T08:48:08Z</time></trkpt><trkpt lat="45.567147949745255" lon="8.057665739363195"><ele>428.0</ele><time>2026-05-03T08:48:10Z</time></trkpt><trkpt lat="45.567264947180085" lon="8.05764648445865"><ele>428.0</ele><time>2026-05-03T08:48:12Z</time></trkpt><trkpt lat="45.56737323922894" lon="8.057577702156914"><ele>428.2</ele><time>2026-05-03T08:48:14Z</time></trkpt><trkpt lat="45.567480297299376" lon="8.057515941586852"><ele>428.4</ele><time>2026-05-03T08:48:16Z</time></trkpt><trkpt lat="45.567587427391736" lon="8.057438442081944"><ele>428.59999999999997</ele><time>2026-05-03T08:48:18Z</time></trkpt><trkpt lat="45.56764722250754" lon="8.057407550773716"><ele>428.79999999999995</ele><time>2026-05-03T08:48:19Z</time></trkpt><trkpt lat="45.567746119816405" lon="8.05733592583335"><ele>429.0</ele><time>2026-05-03T08:48:21Z</time></trkpt><trkpt lat="45.56785202573529" lon="8.057271943088265"><ele>429.5</ele><time>2026-05-03T08:48:23Z</time></trkpt><trkpt lat="45.56796003667929" lon="8.057211491145878"><ele>430.0</ele><time>2026-05-03T08:48:25Z</time></trkpt><trkpt lat="45.568061082212836" lon="8.05713967364655"><ele>430.5</ele><time>2026-05-03T08:48:27Z</time></trkpt><trkpt lat="45.56816012432672" lon="8.057079091504708"><ele>431.0</ele><time>2026-05-03T08:48:29Z</time></trkpt><trkpt lat="45.56826531914588" lon="8.057019781267181"><ele>431.0</ele><time>2026-05-03T08:48:31Z</time></trkpt><trkpt lat="45.568366967692405" lon="8.056963954933188"><ele>431.0</ele><time>2026-05-03T08:48:33Z</time></trkpt><trkpt lat="45.56847182066718" lon="8.056916016962331"><ele>431.0</ele><time>2026-05-03T08:48:35Z</time></trkpt><trkpt lat="45.56857465624158" lon="8.056861121583578"><ele>431.0</ele><time>2026-05-03T08:48:37Z</time></trkpt><trkpt lat="45.568676077778804" lon="8.056800620580292"><ele>431.0</ele><time>2026-05-03T08:48:39Z</time></trkpt><trkpt lat="45.568777438072935" lon="8.056762570342162"><ele>431.0</ele><time>2026-05-03T08:48:41Z</time></trkpt><trkpt lat="45.56887371348544" lon="8.056690939129014"><ele>431.0</ele><time>2026-05-03T08:48:43Z</time></trkpt><trkpt lat="45.56896857996933" lon="8.056612997406683"><ele>431.0</ele><time>2026-05-03T08:48:45Z</time></trkpt><trkpt lat="45.56907771160378" lon="8.056564191969718"><ele>431.0</ele><time>2026-05-03T08:48:47Z</time></trkpt><trkpt lat="45.569177181668145" lon="8.056507347473076"><ele>431.0</ele><time>2026-05-03T08:48:49Z</time></trkpt><trkpt lat="45.569276556789816" lon="8.056448313288874"><ele>431.8</ele><time>2026-05-03T08:48:51Z</time></trkpt><trkpt lat="45.56937325230976" lon="8.056379395317645"><ele>432.6</ele><time>2026-05-03T08:48:53Z</time></trkpt><trkpt lat="45.569465384647394" lon="8.056316561426657"><ele>433.4</ele><time>2026-05-03T08:48:55Z</time></trkpt><trkpt lat="45.56956427425546" lon="8.056251868173106"><ele>434.2</ele><time>2026-05-03T08:48:57Z</time></trkpt><trkpt lat="45.5696607845803" lon="8.056185857944199"><ele>435.0</ele><time>2026-05-03T08:48:59Z</time></trkpt><trkpt lat="45.569760773697155" lon="8.056123721690536"><ele>435.4</ele><time>2026-05-03T08:49:01Z</time></trkpt><trkpt lat="45.569862777831226" lon="8.056076526159554"><ele>435.8</ele><time>2026-05-03T08:49:03Z</time></trkpt><trkpt lat="45.56996920065799" lon="8.056027377452256"><ele>436.20000000000005</ele><time>2026-05-03T08:49:05Z</time></trkpt><trkpt lat="45.57006711480754" lon="8.055947497441288"><ele>436.6</ele><time>2026-05-03T08:49:07Z</time></trkpt><trkpt lat="45.570160721283216" lon="8.05586534262234"><ele>437.0</ele><time>2026-05-03T08:49:09Z</time></trkpt><trkpt lat="45.570257971037734" lon="8.055788712641165"><ele>436.8</ele><time>2026-05-03T08:49:11Z</time></trkpt><trkpt lat="45.570357667357236" lon="8.055721790908777"><ele>436.6</ele><time>2026-05-03T08:49:13Z</time></trkpt><trkpt lat="45.57046490885099" lon="8.055662887783383"><ele>436.40000000000003</ele><time>2026-05-03T08:49:15Z</time></trkpt><trkpt lat="45.57056189318591" lon="8.055589431395058"><ele>436.20000000000005</ele><time>2026-05-03T08:49:17Z</time></trkpt><trkpt lat="45.57065106305238" lon="8.055511061283227"><ele>436.0</ele><time>2026-05-03T08:49:19Z</time></trkpt><trkpt lat="45.57069875030511" lon="8.055370413767196"><ele>435.6</ele><time>2026-05-03T08:49:21Z</time></trkpt><trkpt lat="45.57072448724199" lon="8.055220759980223"><ele>435.20000000000005</ele><time>2026-05-03T08:49:23Z</time></trkpt><trkpt lat="45.57075855605508" lon="8.05506954465013"><ele>434.79999999999995</ele><time>2026-05-03T08:49:25Z</time></trkpt><trkpt lat="45.57079128610742" lon="8.054912995621786"><ele>434.4</ele><time>2026-05-03T08:49:27Z</time></trkpt><trkpt lat="45.57082797106697" lon="8.054757290036417"><ele>434.0</ele><time>2026-05-03T08:49:29Z</time></trkpt><trkpt lat="45.570872021783366" lon="8.054605850083927"><ele>434.0</ele><time>2026-05-03T08:49:31Z</time></trkpt><trkpt lat="45.57088195253994" lon="8.054515386537751"><ele>434.0</ele><time>2026-05-03T08:49:32Z</time></trkpt><trkpt lat="45.570905605629115" lon="8.054358327834725"><ele>434.0</ele><time>2026-05-03T08:49:34Z</time></trkpt><trkpt lat="45.57093736972841" lon="8.054213184012385"><ele>434.0</ele><time>2026-05-03T08:49:36Z</time></trkpt><trkpt lat="45.570943871740276" lon="8.054120691802773"><ele>434.0</ele><time>2026-05-03T08:49:37Z</time></trkpt><trkpt lat="45.5709629453875" lon="8.053955485899728"><ele>435.0</ele><time>2026-05-03T08:49:39Z</time></trkpt><trkpt lat="45.57097821009351" lon="8.053857285749412"><ele>436.0</ele><time>2026-05-03T08:49:40Z</time></trkpt><trkpt lat="45.57098417137922" lon="8.053694714314595"><ele>437.0</ele><time>2026-05-03T08:49:42Z</time></trkpt><trkpt lat="45.57099960388618" lon="8.05353510427332"><ele>438.0</ele><time>2026-05-03T08:49:44Z</time></trkpt><trkpt lat="45.57101865519466" lon="8.053368033354177"><ele>439.0</ele><time>2026-05-03T08:49:46Z</time></trkpt><trkpt lat="45.570999638239" lon="8.053276192148399"><ele>439.0</ele><time>2026-05-03T08:49:47Z</time></trkpt><trkpt lat="45.57098083565541" lon="8.05318420608953"><ele>439.0</ele><time>2026-05-03T08:49:48Z</time></trkpt><trkpt lat="45.57094275911934" lon="8.053036625962308"><ele>439.0</ele><time>2026-05-03T08:49:50Z</time></trkpt><trkpt lat="45.5708890893722" lon="8.052908316087482"><ele>439.0</ele><time>2026-05-03T08:49:52Z</time></trkpt><trkpt lat="45.57085742986308" lon="8.052771656667113"><ele>439.0</ele><time>2026-05-03T08:49:54Z</time></trkpt><trkpt lat="45.57081221597123" lon="8.052657274281513"><ele>439.0</ele><time>2026-05-03T08:49:56Z</time></trkpt><trkpt lat="45.570802725101274" lon="8.052537460420947"><ele>439.0</ele><time>2026-05-03T08:49:58Z</time></trkpt><trkpt lat="45.570851925375955" lon="8.052410197926038"><ele>439.0</ele><time>2026-05-03T08:50:00Z</time></trkpt><trkpt lat="45.57090782945455" lon="8.052306523577435"><ele>439.0</ele><time>2026-05-03T08:50:02Z</time></trkpt><trkpt lat="45.57094962021818" lon="8.052181773557463"><ele>439.0</ele><time>2026-05-03T08:50:04Z</time></trkpt><trkpt lat="45.57099016092729" lon="8.052053493753276"><ele>439.2</ele><time>2026-05-03T08:50:06Z</time></trkpt><trkpt lat="45.57102011768399" lon="8.051920740354308"><ele>439.4</ele><time>2026-05-03T08:50:08Z</time></trkpt><trkpt lat="45.571070680972596" lon="8.0518009594991"><ele>439.6</ele><time>2026-05-03T08:50:10Z</time></trkpt><trkpt lat="45.571113850734406" lon="8.051676103656131"><ele>439.8</ele><time>2026-05-03T08:50:12Z</time></trkpt><trkpt lat="45.57116258087264" lon="8.051556043608333"><ele>440.0</ele><time>2026-05-03T08:50:14Z</time></trkpt><trkpt lat="45.57120449907171" lon="8.051430810997813"><ele>440.8</ele><time>2026-05-03T08:50:16Z</time></trkpt><trkpt lat="45.571249753891436" lon="8.051326192469846"><ele>441.6</ele><time>2026-05-03T08:50:18Z</time></trkpt><trkpt lat="45.57128431123309" lon="8.05119694777879"><ele>442.4</ele><time>2026-05-03T08:50:20Z</time></trkpt><trkpt lat="45.571328967512855" lon="8.051081809303563"><ele>443.2</ele><time>2026-05-03T08:50:22Z</time></trkpt><trkpt lat="45.57136882919885" lon="8.050964489142098"><ele>444.0</ele><time>2026-05-03T08:50:24Z</time></trkpt><trkpt lat="45.57141066646612" lon="8.05084889817934"><ele>444.1666666666667</ele><time>2026-05-03T08:50:26Z</time></trkpt><trkpt lat="45.57145025388802" lon="8.050740953717519"><ele>444.33333333333337</ele><time>2026-05-03T08:50:28Z</time></trkpt><trkpt lat="45.57148597409088" lon="8.050652559723295"><ele>444.5</ele><time>2026-05-03T08:50:30Z</time></trkpt><trkpt lat="45.571539324792894" lon="8.050585251107243"><ele>444.6666666666667</ele><time>2026-05-03T08:50:34Z</time></trkpt><trkpt lat="45.57163872867791" lon="8.05053886946371"><ele>444.83333333333337</ele><time>2026-05-03T08:50:37Z</time></trkpt><trkpt lat="45.57173917631769" lon="8.050538983176098"><ele>445.0</ele><time>2026-05-03T08:50:39Z</time></trkpt><trkpt lat="45.5718335990906" lon="8.05055497586996"><ele>445.00000000000006</ele><time>2026-05-03T08:50:41Z</time></trkpt><trkpt lat="45.571920873630596" lon="8.05056966071695"><ele>445.0</ele><time>2026-05-03T08:50:43Z</time></trkpt><trkpt lat="45.57200442352906" lon="8.05058081173757"><ele>445.0</ele><time>2026-05-03T08:50:45Z</time></trkpt><trkpt lat="45.57208992453341" lon="8.050586681601567"><ele>445.0</ele><time>2026-05-03T08:50:47Z</time></trkpt><trkpt lat="45.57216549099732" lon="8.050599840925498"><ele>445.00000000000006</ele><time>2026-05-03T08:50:49Z</time></trkpt><trkpt lat="45.57224763567545" lon="8.050620683422297"><ele>445.0</ele><time>2026-05-03T08:50:51Z</time></trkpt><trkpt lat="45.57232831655641" lon="8.050632778161052"><ele>445.8571428571429</ele><time>2026-05-03T08:50:53Z</time></trkpt><trkpt lat="45.57240743490536" lon="8.050645486771039"><ele>446.71428571428567</ele><time>2026-05-03T08:50:55Z</time></trkpt><trkpt lat="45.5724774226479" lon="8.050654569133705"><ele>447.57142857142856</ele><time>2026-05-03T08:50:57Z</time></trkpt><trkpt lat="45.572550166162436" lon="8.05065001916716"><ele>448.42857142857144</ele><time>2026-05-03T08:50:59Z</time></trkpt><trkpt lat="45.57262164225815" lon="8.050633081044515"><ele>449.28571428571433</ele><time>2026-05-03T08:51:01Z</time></trkpt><trkpt lat="45.57268651687831" lon="8.05059750869022"><ele>450.1428571428571</ele><time>2026-05-03T08:51:03Z</time></trkpt><trkpt lat="45.5727421634522" lon="8.050539957429544"><ele>451.0</ele><time>2026-05-03T08:51:05Z</time></trkpt><trkpt lat="45.57279149708947" lon="8.050469412929594"><ele>451.0</ele><time>2026-05-03T08:51:07Z</time></trkpt><trkpt lat="45.5728268572381" lon="8.05037815318671"><ele>451.0</ele><time>2026-05-03T08:51:09Z</time></trkpt><trkpt lat="45.5728530801965" lon="8.05028423245518"><ele>451.0</ele><time>2026-05-03T08:51:11Z</time></trkpt><trkpt lat="45.5728586139482" lon="8.050186694385275"><ele>451.0</ele><time>2026-05-03T08:51:13Z</time></trkpt><trkpt lat="45.57285944751466" lon="8.050093776732984"><ele>451.0</ele><time>2026-05-03T08:51:15Z</time></trkpt><trkpt lat="45.57284623943198" lon="8.050003417410501"><ele>451.0</ele><time>2026-05-03T08:51:17Z</time></trkpt><trkpt lat="45.572811700385316" lon="8.049921561354655"><ele>451.0</ele><time>2026-05-03T08:51:19Z</time></trkpt><trkpt lat="45.57276845520278" lon="8.0498446046629"><ele>453.57142857142856</ele><time>2026-05-03T08:51:21Z</time></trkpt><trkpt lat="45.57272248354488" lon="8.049781165714142"><ele>456.14285714285717</ele><time>2026-05-03T08:51:23Z</time></trkpt><trkpt lat="45.572665736388956" lon="8.049728790589853"><ele>458.7142857142857</ele><time>2026-05-03T08:51:25Z</time></trkpt><trkpt lat="45.572612516523684" lon="8.049680134640482"><ele>461.2857142857143</ele><time>2026-05-03T08:51:27Z</time></trkpt><trkpt lat="45.57256145120065" lon="8.049627320171238"><ele>463.8571428571429</ele><time>2026-05-03T08:51:29Z</time></trkpt><trkpt lat="45.572507139315555" lon="8.049581592076608"><ele>466.42857142857144</ele><time>2026-05-03T08:51:31Z</time></trkpt><trkpt lat="45.572452757926726" lon="8.049533332180426"><ele>469.0</ele><time>2026-05-03T08:51:33Z</time></trkpt><trkpt lat="45.57237479946125" lon="8.049468735216468"><ele>469.00000000000006</ele><time>2026-05-03T08:51:36Z</time></trkpt><trkpt lat="45.572321597742096" lon="8.049416303251256"><ele>469.0</ele><time>2026-05-03T08:51:38Z</time></trkpt><trkpt lat="45.572242748595336" lon="8.049350385126385"><ele>469.0</ele><time>2026-05-03T08:51:41Z</time></trkpt><trkpt lat="45.572165923941164" lon="8.049278911727901"><ele>469.0</ele><time>2026-05-03T08:51:44Z</time></trkpt><trkpt lat="45.57208888790006" lon="8.04921163437272"><ele>469.00000000000006</ele><time>2026-05-03T08:51:47Z</time></trkpt><trkpt lat="45.57201641135678" lon="8.049142222277872"><ele>469.0</ele><time>2026-05-03T08:51:50Z</time></trkpt><trkpt lat="45.57194061127493" lon="8.049076164341924"><ele>469.4</ele><time>2026-05-03T08:51:53Z</time></trkpt><trkpt lat="45.57186208953614" lon="8.049007869143159"><ele>469.79999999999995</ele><time>2026-05-03T08:51:56Z</time></trkpt><trkpt lat="45.57178443454093" lon="8.04894387284248"><ele>470.20000000000005</ele><time>2026-05-03T08:51:59Z</time></trkpt><trkpt lat="45.57171131839263" lon="8.048862659806357"><ele>470.6</ele><time>2026-05-03T08:52:02Z</time></trkpt><trkpt lat="45.5716457731038" lon="8.048771895336168"><ele>471.0</ele><time>2026-05-03T08:52:05Z</time></trkpt><trkpt lat="45.57158846441356" lon="8.048667737303889"><ele>471.0</ele><time>2026-05-03T08:52:08Z</time></trkpt><trkpt lat="45.57154831278475" lon="8.04859363929986"><ele>471.0</ele><time>2026-05-03T08:52:10Z</time></trkpt><trkpt lat="45.57148997685485" lon="8.048495703688207"><ele>471.0</ele><time>2026-05-03T08:52:13Z</time></trkpt><trkpt lat="45.5714301723617" lon="8.048402242128619"><ele>471.0</ele><time>2026-05-03T08:52:16Z</time></trkpt><trkpt lat="45.57137177833405" lon="8.048294642604318"><ele>471.0</ele><time>2026-05-03T08:52:19Z</time></trkpt><trkpt lat="45.571317840290945" lon="8.048186303240772"><ele>471.0</ele><time>2026-05-03T08:52:22Z</time></trkpt><trkpt lat="45.571281354485166" lon="8.048111824358621"><ele>473.6666666666667</ele><time>2026-05-03T08:52:24Z</time></trkpt><trkpt lat="45.57123886373579" lon="8.047995583133243"><ele>476.33333333333337</ele><time>2026-05-03T08:52:27Z</time></trkpt><trkpt lat="45.57122181515336" lon="8.047857301971638"><ele>479.0</ele><time>2026-05-03T08:52:30Z</time></trkpt><trkpt lat="45.57122291413938" lon="8.047723663562659"><ele>481.6666666666667</ele><time>2026-05-03T08:52:33Z</time></trkpt><trkpt lat="45.57122343327604" lon="8.047592901282075"><ele>484.33333333333337</ele><time>2026-05-03T08:52:36Z</time></trkpt><trkpt lat="45.57121845842131" lon="8.04750323000806"><ele>487.0</ele><time>2026-05-03T08:52:38Z</time></trkpt><trkpt lat="45.5712236106328" lon="8.047375928506074"><ele>488.1666666666667</ele><time>2026-05-03T08:52:41Z</time></trkpt><trkpt lat="45.57122161674865" lon="8.047247242633931"><ele>489.33333333333337</ele><time>2026-05-03T08:52:44Z</time></trkpt><trkpt lat="45.57121871447816" lon="8.047119289751056"><ele>490.5</ele><time>2026-05-03T08:52:47Z</time></trkpt><trkpt lat="45.571218432026974" lon="8.046997766128802"><ele>491.66666666666663</ele><time>2026-05-03T08:52:50Z</time></trkpt><trkpt lat="45.57122563474088" lon="8.04687684687199"><ele>492.8333333333333</ele><time>2026-05-03T08:52:53Z</time></trkpt><trkpt lat="45.571262695724236" lon="8.046759822303441"><ele>494.0</ele><time>2026-05-03T08:52:56Z</time></trkpt><trkpt lat="45.57131699171669" lon="8.046666707814294"><ele>493.16666666666663</ele><time>2026-05-03T08:52:59Z</time></trkpt><trkpt lat="45.57138896078505" lon="8.046586236019506"><ele>492.3333333333333</ele><time>2026-05-03T08:53:02Z</time></trkpt><trkpt lat="45.57145081233562" lon="8.046497337905793"><ele>491.5</ele><time>2026-05-03T08:53:05Z</time></trkpt><trkpt lat="45.57150345182763" lon="8.046399708306618"><ele>490.66666666666663</ele><time>2026-05-03T08:53:08Z</time></trkpt><trkpt lat="45.57155627090138" lon="8.046289150418264"><ele>489.8333333333333</ele><time>2026-05-03T08:53:11Z</time></trkpt><trkpt lat="45.57160515636009" lon="8.04618613928983"><ele>489.0</ele><time>2026-05-03T08:53:14Z</time></trkpt><trkpt lat="45.57166502200582" lon="8.046093727387653"><ele>489.0</ele><time>2026-05-03T08:53:17Z</time></trkpt><trkpt lat="45.57169669015808" lon="8.045967104785904"><ele>489.0</ele><time>2026-05-03T08:53:20Z</time></trkpt><trkpt lat="45.57173437555992" lon="8.045852858238035"><ele>489.0</ele><time>2026-05-03T08:53:23Z</time></trkpt><trkpt lat="45.57177410781627" lon="8.045739485456728"><ele>489.0</ele><time>2026-05-03T08:53:26Z</time></trkpt><trkpt lat="45.57180575580654" lon="8.045656774402575"><ele>489.0</ele><time>2026-05-03T08:53:28Z</time></trkpt><trkpt lat="45.57183819041253" lon="8.045535461080163"><ele>489.0</ele><time>2026-05-03T08:53:31Z</time></trkpt><trkpt lat="45.571862795057385" lon="8.045443719607047"><ele>488.3333333333333</ele><time>2026-05-03T08:53:33Z</time></trkpt><trkpt lat="45.57185467508044" lon="8.045341854365317"><ele>487.66666666666663</ele><time>2026-05-03T08:53:35Z</time></trkpt><trkpt lat="45.57187053434651" lon="8.045244138745174"><ele>487.0</ele><time>2026-05-03T08:53:37Z</time></trkpt><trkpt lat="45.57186860031781" lon="8.045149856568267"><ele>486.3333333333333</ele><time>2026-05-03T08:53:39Z</time></trkpt><trkpt lat="45.571855320904774" lon="8.045040021426946"><ele>485.66666666666663</ele><time>2026-05-03T08:53:41Z</time></trkpt><trkpt lat="45.57188735812572" lon="8.044908417664855"><ele>485.0</ele><time>2026-05-03T08:53:44Z</time></trkpt><trkpt lat="45.571895278925275" lon="8.044810514103357"><ele>485.00000000000006</ele><time>2026-05-03T08:53:46Z</time></trkpt><trkpt lat="45.57191038234221" lon="8.044717386239729"><ele>485.0</ele><time>2026-05-03T08:53:48Z</time></trkpt><trkpt lat="45.571929006126545" lon="8.04461690307757"><ele>485.00000000000006</ele><time>2026-05-03T08:53:50Z</time></trkpt><trkpt lat="45.57195904050085" lon="8.044528638352721"><ele>485.00000000000006</ele><time>2026-05-03T08:53:52Z</time></trkpt><trkpt lat="45.57197051475499" lon="8.044433695690211"><ele>485.0</ele><time>2026-05-03T08:53:54Z</time></trkpt><trkpt lat="45.57197252999802" lon="8.044336761742805"><ele>485.00000000000006</ele><time>2026-05-03T08:53:56Z</time></trkpt><trkpt lat="45.57194731060053" lon="8.044199818892555"><ele>485.00000000000006</ele><time>2026-05-03T08:53:59Z</time></trkpt><trkpt lat="45.571911524571" lon="8.044102135704241"><ele>485.8571428571429</ele><time>2026-05-03T08:54:01Z</time></trkpt><trkpt lat="45.57186147183226" lon="8.044017630450082"><ele>486.7142857142857</ele><time>2026-05-03T08:54:03Z</time></trkpt><trkpt lat="45.57179433040371" lon="8.043923693678034"><ele>487.57142857142856</ele><time>2026-05-03T08:54:06Z</time></trkpt><trkpt lat="45.5717336627379" lon="8.043875717655684"><ele>488.42857142857144</ele><time>2026-05-03T08:54:08Z</time></trkpt><trkpt lat="45.57167972677632" lon="8.043818408373596"><ele>489.2857142857142</ele><time>2026-05-03T08:54:10Z</time></trkpt><trkpt lat="45.571629036522694" lon="8.043763212653639"><ele>490.1428571428571</ele><time>2026-05-03T08:54:12Z</time></trkpt><trkpt lat="45.57157364186398" lon="8.04371052971051"><ele>491.0</ele><time>2026-05-03T08:54:14Z</time></trkpt><trkpt lat="45.5714900913127" lon="8.043649814481212"><ele>490.99999999999994</ele><time>2026-05-03T08:54:17Z</time></trkpt><trkpt lat="45.57143037084301" lon="8.043615265425995"><ele>491.0</ele><time>2026-05-03T08:54:19Z</time></trkpt><trkpt lat="45.57135027381163" lon="8.043551016937025"><ele>491.0</ele><time>2026-05-03T08:54:22Z</time></trkpt><trkpt lat="45.571282457445044" lon="8.043465626516886"><ele>491.0</ele><time>2026-05-03T08:54:25Z</time></trkpt><trkpt lat="45.571220392969266" lon="8.043369292414129"><ele>490.99999999999994</ele><time>2026-05-03T08:54:28Z</time></trkpt><trkpt lat="45.57118962398074" lon="8.043243033580831"><ele>491.0</ele><time>2026-05-03T08:54:31Z</time></trkpt><trkpt lat="45.571176629674945" lon="8.043150924650707"><ele>492.16666666666663</ele><time>2026-05-03T08:54:33Z</time></trkpt><trkpt lat="45.57116623467599" lon="8.043049547935912"><ele>493.3333333333333</ele><time>2026-05-03T08:54:35Z</time></trkpt><trkpt lat="45.57117200812178" lon="8.04294987350619"><ele>494.5</ele><time>2026-05-03T08:54:37Z</time></trkpt><trkpt lat="45.5711818965195" lon="8.042857866941654"><ele>495.66666666666663</ele><time>2026-05-03T08:54:39Z</time></trkpt><trkpt lat="45.57119640048819" lon="8.04272307668506"><ele>496.8333333333333</ele><time>2026-05-03T08:54:42Z</time></trkpt><trkpt lat="45.571158993901626" lon="8.042612809437165"><ele>498.0</ele><time>2026-05-03T08:54:45Z</time></trkpt><trkpt lat="45.571168497737894" lon="8.042510040087725"><ele>498.1428571428571</ele><time>2026-05-03T08:54:47Z</time></trkpt><trkpt lat="45.57117948215534" lon="8.042396608935945"><ele>498.2857142857142</ele><time>2026-05-03T08:54:49Z</time></trkpt><trkpt lat="45.571178687756536" lon="8.042292106942146"><ele>498.42857142857144</ele><time>2026-05-03T08:54:51Z</time></trkpt><trkpt lat="45.57117375335894" lon="8.042193502022155"><ele>498.57142857142856</ele><time>2026-05-03T08:54:53Z</time></trkpt><trkpt lat="45.57116719292118" lon="8.042098308818057"><ele>498.7142857142857</ele><time>2026-05-03T08:54:55Z</time></trkpt><trkpt lat="45.57116106637386" lon="8.041990594814157"><ele>498.8571428571429</ele><time>2026-05-03T08:54:57Z</time></trkpt><trkpt lat="45.5711699763416" lon="8.041894632055582"><ele>499.00000000000006</ele><time>2026-05-03T08:54:59Z</time></trkpt><trkpt lat="45.5711685721533" lon="8.041788507536772"><ele>499.00000000000006</ele><time>2026-05-03T08:55:01Z</time></trkpt><trkpt lat="45.57115757714227" lon="8.041689725476399"><ele>499.0</ele><time>2026-05-03T08:55:03Z</time></trkpt><trkpt lat="45.57115002663003" lon="8.041588641185"><ele>499.00000000000006</ele><time>2026-05-03T08:55:05Z</time></trkpt><trkpt lat="45.57113679566559" lon="8.041487522474295"><ele>499.00000000000006</ele><time>2026-05-03T08:55:07Z</time></trkpt><trkpt lat="45.571138105113604" lon="8.041391933057364"><ele>499.0</ele><time>2026-05-03T08:55:09Z</time></trkpt><trkpt lat="45.571168578923725" lon="8.04130765611996"><ele>499.00000000000006</ele><time>2026-05-03T08:55:11Z</time></trkpt><trkpt lat="45.57124339020161" lon="8.041309836820965"><ele>499.00000000000006</ele><time>2026-05-03T08:55:13Z</time></trkpt><trkpt lat="45.57131674035549" lon="8.041317695037696"><ele>499.4285714285715</ele><time>2026-05-03T08:55:15Z</time></trkpt><trkpt lat="45.57138330821071" lon="8.04130588783259"><ele>499.8571428571429</ele><time>2026-05-03T08:55:17Z</time></trkpt><trkpt lat="45.57144923016158" lon="8.04129328400512"><ele>500.2857142857143</ele><time>2026-05-03T08:55:19Z</time></trkpt><trkpt lat="45.5715182777798" lon="8.041278026618174"><ele>500.7142857142857</ele><time>2026-05-03T08:55:21Z</time></trkpt><trkpt lat="45.57158909166322" lon="8.041273605447842"><ele>501.1428571428571</ele><time>2026-05-03T08:55:23Z</time></trkpt><trkpt lat="45.57166013793381" lon="8.041268613955229"><ele>501.5714285714285</ele><time>2026-05-03T08:55:25Z</time></trkpt><trkpt lat="45.57172615009115" lon="8.041262455696758"><ele>501.99999999999994</ele><time>2026-05-03T08:55:27Z</time></trkpt><trkpt lat="45.57179563373005" lon="8.041251792323528"><ele>502.00000000000006</ele><time>2026-05-03T08:55:29Z</time></trkpt><trkpt lat="45.57189969196244" lon="8.041250417404013"><ele>502.0</ele><time>2026-05-03T08:55:32Z</time></trkpt><trkpt lat="45.57197033157535" lon="8.041228800380647"><ele>502.0</ele><time>2026-05-03T08:55:34Z</time></trkpt><trkpt lat="45.57204107162463" lon="8.041219441566458"><ele>502.0</ele><time>2026-05-03T08:55:36Z</time></trkpt><trkpt lat="45.57211264480443" lon="8.041215406979788"><ele>502.00000000000006</ele><time>2026-05-03T08:55:38Z</time></trkpt><trkpt lat="45.57222355615178" lon="8.041215083161218"><ele>502.0</ele><time>2026-05-03T08:55:41Z</time></trkpt><trkpt lat="45.57232747651298" lon="8.041201386802925"><ele>502.8</ele><time>2026-05-03T08:55:44Z</time></trkpt><trkpt lat="45.57239796743851" lon="8.041185918275783"><ele>503.6</ele><time>2026-05-03T08:55:46Z</time></trkpt><trkpt lat="45.572469215696565" lon="8.04117270647515"><ele>504.40000000000003</ele><time>2026-05-03T08:55:48Z</time></trkpt><trkpt lat="45.57254002180369" lon="8.041161371200992"><ele>505.20000000000005</ele><time>2026-05-03T08:55:50Z</time></trkpt><trkpt lat="45.572729511758695" lon="8.041159937740257"><ele>506.0</ele><time>2026-05-03T08:55:55Z</time></trkpt><trkpt lat="45.57287236767685" lon="8.04115976240078"><ele>506.1428571428572</ele><time>2026-05-03T08:55:59Z</time></trkpt><trkpt lat="45.57294405929996" lon="8.041149330553734"><ele>506.28571428571433</ele><time>2026-05-03T08:56:01Z</time></trkpt><trkpt lat="45.57301672692789" lon="8.041140013534003"><ele>506.42857142857144</ele><time>2026-05-03T08:56:03Z</time></trkpt><trkpt lat="45.573087325792564" lon="8.041111550988873"><ele>506.5714285714286</ele><time>2026-05-03T08:56:05Z</time></trkpt><trkpt lat="45.57314738666532" lon="8.041040580223449"><ele>506.7142857142858</ele><time>2026-05-03T08:56:07Z</time></trkpt><trkpt lat="45.57320405251964" lon="8.040972658460543"><ele>506.85714285714283</ele><time>2026-05-03T08:56:09Z</time></trkpt><trkpt lat="45.57325935696847" lon="8.040894771579428"><ele>507.0</ele><time>2026-05-03T08:56:11Z</time></trkpt><trkpt lat="45.573313633253925" lon="8.040819006448018"><ele>507.1666666666667</ele><time>2026-05-03T08:56:13Z</time></trkpt><trkpt lat="45.573364605714836" lon="8.040741006017909"><ele>507.33333333333337</ele><time>2026-05-03T08:56:15Z</time></trkpt><trkpt lat="45.573418383183665" lon="8.040661917369437"><ele>507.5</ele><time>2026-05-03T08:56:17Z</time></trkpt><trkpt lat="45.573475877163425" lon="8.040582007274843"><ele>507.6666666666667</ele><time>2026-05-03T08:56:19Z</time></trkpt><trkpt lat="45.57353960335591" lon="8.040503037233163"><ele>507.83333333333337</ele><time>2026-05-03T08:56:21Z</time></trkpt><trkpt lat="45.57360024967916" lon="8.040416607928034"><ele>508.0</ele><time>2026-05-03T08:56:23Z</time></trkpt><trkpt lat="45.57366964781162" lon="8.04034566216952"><ele>508.50000000000006</ele><time>2026-05-03T08:56:25Z</time></trkpt><trkpt lat="45.573738199992455" lon="8.040280380778382"><ele>509.0</ele><time>2026-05-03T08:56:27Z</time></trkpt><trkpt lat="45.57381134494699" lon="8.040213806813785"><ele>509.5</ele><time>2026-05-03T08:56:29Z</time></trkpt><trkpt lat="45.57387739737633" lon="8.040134322463441"><ele>510.0</ele><time>2026-05-03T08:56:31Z</time></trkpt><trkpt lat="45.57394944717867" lon="8.040065703218938"><ele>510.50000000000006</ele><time>2026-05-03T08:56:33Z</time></trkpt><trkpt lat="45.57402055900183" lon="8.04000059386838"><ele>511.0</ele><time>2026-05-03T08:56:35Z</time></trkpt><trkpt lat="45.574092152491346" lon="8.039930767765922"><ele>511.00000000000006</ele><time>2026-05-03T08:56:37Z</time></trkpt><trkpt lat="45.5741627607511" lon="8.039860421080622"><ele>511.0</ele><time>2026-05-03T08:56:39Z</time></trkpt><trkpt lat="45.5742361232209" lon="8.039791525277353"><ele>511.0</ele><time>2026-05-03T08:56:41Z</time></trkpt><trkpt lat="45.57431043921335" lon="8.039718984586782"><ele>511.0</ele><time>2026-05-03T08:56:43Z</time></trkpt><trkpt lat="45.57438279543666" lon="8.039642990992975"><ele>511.00000000000006</ele><time>2026-05-03T08:56:45Z</time></trkpt><trkpt lat="45.57445597769314" lon="8.039569676500461"><ele>511.0</ele><time>2026-05-03T08:56:47Z</time></trkpt><trkpt lat="45.57452856546144" lon="8.039502021318059"><ele>511.50000000000006</ele><time>2026-05-03T08:56:49Z</time></trkpt><trkpt lat="45.574602305108854" lon="8.039435892716815"><ele>512.0</ele><time>2026-05-03T08:56:51Z</time></trkpt><trkpt lat="45.57467833656041" lon="8.03938109840499"><ele>512.5</ele><time>2026-05-03T08:56:53Z</time></trkpt><trkpt lat="45.57474933223318" lon="8.039315371040395"><ele>513.0</ele><time>2026-05-03T08:56:55Z</time></trkpt><trkpt lat="45.57482178905382" lon="8.039251184892128"><ele>513.5</ele><time>2026-05-03T08:56:57Z</time></trkpt><trkpt lat="45.5748951187361" lon="8.03919111444675"><ele>514.0</ele><time>2026-05-03T08:56:59Z</time></trkpt><trkpt lat="45.574967196975706" lon="8.03913100656172"><ele>514.0</ele><time>2026-05-03T08:57:01Z</time></trkpt><trkpt lat="45.575045257381284" lon="8.039089116755777"><ele>514.0</ele><time>2026-05-03T08:57:03Z</time></trkpt><trkpt lat="45.57512378846896" lon="8.039086236618369"><ele>514.0</ele><time>2026-05-03T08:57:05Z</time></trkpt><trkpt lat="45.575192925854395" lon="8.039128050151769"><ele>514.0</ele><time>2026-05-03T08:57:07Z</time></trkpt><trkpt lat="45.57527463049111" lon="8.03917308730406"><ele>514.0</ele><time>2026-05-03T08:57:10Z</time></trkpt><trkpt lat="45.575337250834245" lon="8.03922059558762"><ele>514.0</ele><time>2026-05-03T08:57:15Z</time></trkpt><trkpt lat="45.57539907839933" lon="8.03926032317949"><ele>514.1666666666667</ele><time>2026-05-03T08:57:19Z</time></trkpt><trkpt lat="45.575462807581864" lon="8.039316218313994"><ele>514.3333333333334</ele><time>2026-05-03T08:57:23Z</time></trkpt><trkpt lat="45.57549112310051" lon="8.03923437609448"><ele>514.5</ele><time>2026-05-03T08:57:27Z</time></trkpt><trkpt lat="45.575450335216196" lon="8.039154835748116"><ele>514.6666666666666</ele><time>2026-05-03T08:58:13Z</time></trkpt><trkpt lat="45.57549736888762" lon="8.038998392051598"><ele>514.8333333333333</ele><time>2026-05-03T08:58:15Z</time></trkpt><trkpt lat="45.575569723484676" lon="8.038893857496278"><ele>515.0</ele><time>2026-05-03T08:58:17Z</time></trkpt><trkpt lat="45.575663240267524" lon="8.038812447248617"><ele>513.6666666666666</ele><time>2026-05-03T08:58:19Z</time></trkpt><trkpt lat="45.57571889250981" lon="8.038744396572687"><ele>512.3333333333333</ele><time>2026-05-03T08:58:21Z</time></trkpt><trkpt lat="45.57579944060648" lon="8.038666384798532"><ele>511.0</ele><time>2026-05-03T08:58:23Z</time></trkpt><trkpt lat="45.57586466002185" lon="8.038580609873787"><ele>509.66666666666663</ele><time>2026-05-03T08:58:25Z</time></trkpt><trkpt lat="45.575931453322006" lon="8.038505590486691"><ele>508.3333333333333</ele><time>2026-05-03T08:58:27Z</time></trkpt><trkpt lat="45.57598560827006" lon="8.03840884005487"><ele>507.0</ele><time>2026-05-03T08:58:29Z</time></trkpt><trkpt lat="45.57600555494416" lon="8.038277251367951"><ele>503.40000000000003</ele><time>2026-05-03T08:58:31Z</time></trkpt><trkpt lat="45.57604223485858" lon="8.038130950087798"><ele>499.80000000000007</ele><time>2026-05-03T08:58:33Z</time></trkpt><trkpt lat="45.57605952246845" lon="8.037962722001435"><ele>496.2</ele><time>2026-05-03T08:58:35Z</time></trkpt><trkpt lat="45.5760519644012" lon="8.037862554330049"><ele>492.6</ele><time>2026-05-03T08:58:36Z</time></trkpt><trkpt lat="45.576051036526515" lon="8.037710542872636"><ele>489.0</ele><time>2026-05-03T08:58:38Z</time></trkpt><trkpt lat="45.57604118258488" lon="8.037586553463973"><ele>489.0</ele><time>2026-05-03T08:58:40Z</time></trkpt><trkpt lat="45.57604898404767" lon="8.037492481519317"><ele>489.0</ele><time>2026-05-03T08:58:43Z</time></trkpt><trkpt lat="45.57610930941111" lon="8.037408297413313"><ele>489.0</ele><time>2026-05-03T08:58:46Z</time></trkpt><trkpt lat="45.576403919723276" lon="8.037333583263424"><ele>488.5</ele><time>2026-05-03T08:58:48Z</time></trkpt><trkpt lat="45.57648104685656" lon="8.037250241446447"><ele>488.0</ele><time>2026-05-03T08:58:50Z</time></trkpt><trkpt lat="45.576542659419054" lon="8.03721810971122"><ele>487.5</ele><time>2026-05-03T08:58:51Z</time></trkpt><trkpt lat="45.57662703949045" lon="8.037173384991465"><ele>487.0</ele><time>2026-05-03T08:58:53Z</time></trkpt><trkpt lat="45.576701641334445" lon="8.037124258233526"><ele>486.5</ele><time>2026-05-03T08:58:56Z</time></trkpt><trkpt lat="45.57679858778513" lon="8.037083589715417"><ele>486.0</ele><time>2026-05-03T08:58:58Z</time></trkpt><trkpt lat="45.57687348662302" lon="8.03708702104937"><ele>486.0</ele><time>2026-05-03T08:59:00Z</time></trkpt><trkpt lat="45.576925910957456" lon="8.037143936183247"><ele>486.0</ele><time>2026-05-03T08:59:03Z</time></trkpt><trkpt lat="45.57711181642913" lon="8.037115256784649"><ele>486.0</ele><time>2026-05-03T08:59:09Z</time></trkpt><trkpt lat="45.57720832415396" lon="8.037066898815088"><ele>486.0</ele><time>2026-05-03T08:59:28Z</time></trkpt><trkpt lat="45.577274066966616" lon="8.037106984054464"><ele>486.0</ele><time>2026-05-03T08:59:31Z</time></trkpt><trkpt lat="45.57736378942157" lon="8.037125631414929"><ele>486.25</ele><time>2026-05-03T08:59:33Z</time></trkpt><trkpt lat="45.577527165282504" lon="8.037048503510801"><ele>486.5</ele><time>2026-05-03T08:59:57Z</time></trkpt><trkpt lat="45.577591869267785" lon="8.036940951749926"><ele>486.75</ele><time>2026-05-03T09:00:00Z</time></trkpt><trkpt lat="45.57765961955188" lon="8.036856254491626"><ele>487.0</ele><time>2026-05-03T09:00:02Z</time></trkpt><trkpt lat="45.57772896963749" lon="8.036765373677053"><ele>487.00000000000006</ele><time>2026-05-03T09:00:05Z</time></trkpt><trkpt lat="45.57780768192822" lon="8.036699415255093"><ele>487.0</ele><time>2026-05-03T09:00:07Z</time></trkpt><trkpt lat="45.57786944034962" lon="8.03660620003974"><ele>487.0</ele><time>2026-05-03T09:00:09Z</time></trkpt><trkpt lat="45.577905165358494" lon="8.03651525082982"><ele>487.0</ele><time>2026-05-03T09:00:13Z</time></trkpt><trkpt lat="45.57793359479224" lon="8.036391359140126"><ele>487.00000000000006</ele><time>2026-05-03T09:00:15Z</time></trkpt><trkpt lat="45.57798299908024" lon="8.036295866548743"><ele>487.0</ele><time>2026-05-03T09:00:17Z</time></trkpt><trkpt lat="45.5780378537357" lon="8.036235123152963"><ele>487.6666666666667</ele><time>2026-05-03T09:00:19Z</time></trkpt><trkpt lat="45.5780077522635" lon="8.03613764513273"><ele>488.33333333333337</ele><time>2026-05-03T09:00:34Z</time></trkpt><trkpt lat="45.578047576998294" lon="8.03606616714358"><ele>489.0</ele><time>2026-05-03T09:00:37Z</time></trkpt><trkpt lat="45.57815817736758" lon="8.035984808297576"><ele>489.66666666666663</ele><time>2026-05-03T09:01:16Z</time></trkpt><trkpt lat="45.57822385999197" lon="8.036050222909582"><ele>490.3333333333333</ele><time>2026-05-03T09:01:32Z</time></trkpt><trkpt lat="45.578307664027655" lon="8.036111105759872"><ele>491.0</ele><time>2026-05-03T09:01:35Z</time></trkpt><trkpt lat="45.57836511075407" lon="8.036198337939437"><ele>490.99999999999994</ele><time>2026-05-03T09:01:38Z</time></trkpt><trkpt lat="45.57842168399944" lon="8.036257008573926"><ele>491.0</ele><time>2026-05-03T09:01:41Z</time></trkpt><trkpt lat="45.578499377546024" lon="8.036310740063012"><ele>491.0</ele><time>2026-05-03T09:01:45Z</time></trkpt><trkpt lat="45.57862889447976" lon="8.036359016183393"><ele>491.0</ele><time>2026-05-03T09:01:49Z</time></trkpt><trkpt lat="45.578698231975295" lon="8.036373364902591"><ele>490.99999999999994</ele><time>2026-05-03T09:01:53Z</time></trkpt><trkpt lat="45.57875653057311" lon="8.036315712109102"><ele>491.0</ele><time>2026-05-03T09:01:56Z</time></trkpt><trkpt lat="45.578829090536445" lon="8.036270149216913"><ele>492.20000000000005</ele><time>2026-05-03T09:01:59Z</time></trkpt><trkpt lat="45.57892988090328" lon="8.036240095986594"><ele>493.40000000000003</ele><time>2026-05-03T09:02:04Z</time></trkpt><trkpt lat="45.57905978145872" lon="8.036252579848787"><ele>494.6</ele><time>2026-05-03T09:02:09Z</time></trkpt><trkpt lat="45.57916272219689" lon="8.036281848264013"><ele>495.8</ele><time>2026-05-03T09:02:13Z</time></trkpt><trkpt lat="45.57923848615672" lon="8.036266568997286"><ele>497.0</ele><time>2026-05-03T09:02:15Z</time></trkpt><trkpt lat="45.57929144694295" lon="8.036193656821988"><ele>497.0</ele><time>2026-05-03T09:02:19Z</time></trkpt><trkpt lat="45.57934516501221" lon="8.036138726031988"><ele>497.0</ele><time>2026-05-03T09:02:22Z</time></trkpt><trkpt lat="45.57940994177715" lon="8.03607237618309"><ele>497.0</ele><time>2026-05-03T09:02:25Z</time></trkpt><trkpt lat="45.57949529127959" lon="8.036024804536439"><ele>497.0</ele><time>2026-05-03T09:02:27Z</time></trkpt><trkpt lat="45.579554539636064" lon="8.035988983631663"><ele>497.0</ele><time>2026-05-03T09:02:28Z</time></trkpt><trkpt lat="45.579615959014596" lon="8.035941363232743"><ele>497.0</ele><time>2026-05-03T09:02:30Z</time></trkpt><trkpt lat="45.579677910729025" lon="8.035907460042592"><ele>497.0</ele><time>2026-05-03T09:02:33Z</time></trkpt><trkpt lat="45.57974965490952" lon="8.03586739025944"><ele>497.16666666666663</ele><time>2026-05-03T09:02:35Z</time></trkpt><trkpt lat="45.579812206046334" lon="8.035852413209831"><ele>497.3333333333333</ele><time>2026-05-03T09:02:39Z</time></trkpt><trkpt lat="45.579879922626084" lon="8.035878541936253"><ele>497.5</ele><time>2026-05-03T09:02:41Z</time></trkpt><trkpt lat="45.57994181254827" lon="8.035931402120523"><ele>497.66666666666663</ele><time>2026-05-03T09:02:43Z</time></trkpt><trkpt lat="45.58000421881159" lon="8.03600486450321"><ele>497.8333333333333</ele><time>2026-05-03T09:02:45Z</time></trkpt><trkpt lat="45.58006186205887" lon="8.036057741906099"><ele>498.0</ele><time>2026-05-03T09:02:47Z</time></trkpt><trkpt lat="45.580157454439615" lon="8.036060793612307"><ele>498.0</ele><time>2026-05-03T09:02:50Z</time></trkpt><trkpt lat="45.58022875517376" lon="8.035971697691455"><ele>498.0</ele><time>2026-05-03T09:02:55Z</time></trkpt><trkpt lat="45.580284196008144" lon="8.035911107353211"><ele>498.0</ele><time>2026-05-03T09:02:58Z</time></trkpt><trkpt lat="45.58036884718519" lon="8.035884267180338"><ele>498.0</ele><time>2026-05-03T09:03:04Z</time></trkpt><trkpt lat="45.580446340972784" lon="8.035921623811847"><ele>498.0</ele><time>2026-05-03T09:03:07Z</time></trkpt><trkpt lat="45.580528096979904" lon="8.035917714657762"><ele>498.0</ele><time>2026-05-03T09:03:11Z</time></trkpt><trkpt lat="45.58059433926904" lon="8.035918643371186"><ele>498.1428571428571</ele><time>2026-05-03T09:03:14Z</time></trkpt><trkpt lat="45.5806819176213" lon="8.035937894744638"><ele>498.2857142857142</ele><time>2026-05-03T09:03:18Z</time></trkpt><trkpt lat="45.58075284651294" lon="8.035974770390652"><ele>498.42857142857144</ele><time>2026-05-03T09:03:21Z</time></trkpt><trkpt lat="45.58082684802804" lon="8.035976084036575"><ele>498.57142857142856</ele><time>2026-05-03T09:03:24Z</time></trkpt><trkpt lat="45.580890724094886" lon="8.035939396005556"><ele>498.7142857142857</ele><time>2026-05-03T09:03:27Z</time></trkpt><trkpt lat="45.58096083120906" lon="8.035961824290204"><ele>498.8571428571429</ele><time>2026-05-03T09:03:30Z</time></trkpt><trkpt lat="45.58102027425222" lon="8.035993267616423"><ele>499.00000000000006</ele><time>2026-05-03T09:03:32Z</time></trkpt><trkpt lat="45.581094524778464" lon="8.036024308410756"><ele>499.00000000000006</ele><time>2026-05-03T09:03:34Z</time></trkpt><trkpt lat="45.58117967292571" lon="8.036011846981879"><ele>499.0</ele><time>2026-05-03T09:03:36Z</time></trkpt><trkpt lat="45.5812682317655" lon="8.035992881996906"><ele>499.0</ele><time>2026-05-03T09:03:38Z</time></trkpt><trkpt lat="45.58132824345085" lon="8.03595188235578"><ele>499.0</ele><time>2026-05-03T09:03:40Z</time></trkpt><trkpt lat="45.5813910697377" lon="8.035891422857183"><ele>499.00000000000006</ele><time>2026-05-03T09:03:44Z</time></trkpt><trkpt lat="45.58145455853092" lon="8.035823450104953"><ele>499.0</ele><time>2026-05-03T09:03:47Z</time></trkpt><trkpt lat="45.5815595076761" lon="8.035786656616638"><ele>501.28571428571433</ele><time>2026-05-03T09:03:52Z</time></trkpt><trkpt lat="45.581624768357315" lon="8.0357324145052"><ele>503.57142857142856</ele><time>2026-05-03T09:03:56Z</time></trkpt><trkpt lat="45.58166198551195" lon="8.035640361202432"><ele>505.8571428571429</ele><time>2026-05-03T09:04:00Z</time></trkpt><trkpt lat="45.58172454790963" lon="8.035667117839312"><ele>508.14285714285717</ele><time>2026-05-03T09:04:02Z</time></trkpt><trkpt lat="45.58179153754863" lon="8.03569440629192"><ele>510.42857142857144</ele><time>2026-05-03T09:04:06Z</time></trkpt><trkpt lat="45.58185690056361" lon="8.035695416448648"><ele>512.7142857142858</ele><time>2026-05-03T09:04:11Z</time></trkpt><trkpt lat="45.58184673254817" lon="8.035588675118477"><ele>515.0</ele><time>2026-05-03T09:04:15Z</time></trkpt><trkpt lat="45.58184871534406" lon="8.035494056705277"><ele>515.0</ele><time>2026-05-03T09:04:19Z</time></trkpt><trkpt lat="45.581895533634004" lon="8.035416900620463"><ele>515.0</ele><time>2026-05-03T09:04:22Z</time></trkpt><trkpt lat="45.581933405324435" lon="8.035318149964358"><ele>515.0</ele><time>2026-05-03T09:04:26Z</time></trkpt><trkpt lat="45.582014366699255" lon="8.035310085781596"><ele>515.0</ele><time>2026-05-03T09:04:29Z</time></trkpt><trkpt lat="45.582064470578274" lon="8.035239680993273"><ele>515.0</ele><time>2026-05-03T09:04:32Z</time></trkpt><trkpt lat="45.58212983743797" lon="8.035191160116982"><ele>515.0</ele><time>2026-05-03T09:04:35Z</time></trkpt><trkpt lat="45.58221146748437" lon="8.035220777307135"><ele>515.1666666666666</ele><time>2026-05-03T09:04:37Z</time></trkpt><trkpt lat="45.582284877194525" lon="8.035180602169378"><ele>515.3333333333333</ele><time>2026-05-03T09:04:41Z</time></trkpt><trkpt lat="45.58235171832575" lon="8.035179040355564"><ele>515.5</ele><time>2026-05-03T09:04:44Z</time></trkpt><trkpt lat="45.58241952680087" lon="8.035114802396901"><ele>515.6666666666666</ele><time>2026-05-03T09:04:48Z</time></trkpt><trkpt lat="45.58245685335529" lon="8.035019059997769"><ele>515.8333333333334</ele><time>2026-05-03T09:04:58Z</time></trkpt><trkpt lat="45.58257134806712" lon="8.03496812150134"><ele>516.0</ele><time>2026-05-03T09:05:37Z</time></trkpt><trkpt lat="45.5826355183875" lon="8.034891635335853"><ele>517.6666666666666</ele><time>2026-05-03T09:05:41Z</time></trkpt><trkpt lat="45.58268621197428" lon="8.034835438394403"><ele>519.3333333333334</ele><time>2026-05-03T09:05:46Z</time></trkpt><trkpt lat="45.582770186160744" lon="8.034794514390232"><ele>521.0</ele><time>2026-05-03T09:06:01Z</time></trkpt><trkpt lat="45.58281504448481" lon="8.034701517717592"><ele>522.6666666666667</ele><time>2026-05-03T09:06:17Z</time></trkpt><trkpt lat="45.58288084725695" lon="8.034658761861477"><ele>524.3333333333334</ele><time>2026-05-03T09:06:21Z</time></trkpt><trkpt lat="45.58294149403362" lon="8.0345939858297"><ele>526.0</ele><time>2026-05-03T09:06:25Z</time></trkpt><trkpt lat="45.58302001745739" lon="8.03457436539568"><ele>526.0</ele><time>2026-05-03T09:06:28Z</time></trkpt><trkpt lat="45.58306678538992" lon="8.0345102109863"><ele>526.0</ele><time>2026-05-03T09:06:31Z</time></trkpt><trkpt lat="45.583101829035144" lon="8.034426484635716"><ele>526.0</ele><time>2026-05-03T09:06:35Z</time></trkpt><trkpt lat="45.5832327335673" lon="8.034405581934111"><ele>526.0</ele><time>2026-05-03T09:06:40Z</time></trkpt><trkpt lat="45.58328666760279" lon="8.034343728394735"><ele>526.0</ele><time>2026-05-03T09:06:43Z</time></trkpt><trkpt lat="45.58334980590166" lon="8.034293810131066"><ele>526.0</ele><time>2026-05-03T09:06:46Z</time></trkpt><trkpt lat="45.583428568942225" lon="8.034253395482024"><ele>526.0</ele><time>2026-05-03T09:06:49Z</time></trkpt><trkpt lat="45.583486582534576" lon="8.034207011737882"><ele>526.0</ele><time>2026-05-03T09:06:51Z</time></trkpt><trkpt lat="45.58352235914614" lon="8.034107888083689"><ele>526.0</ele><time>2026-05-03T09:06:55Z</time></trkpt><trkpt lat="45.58356316615221" lon="8.034028317077185"><ele>526.0</ele><time>2026-05-03T09:06:58Z</time></trkpt><trkpt lat="45.583562280724315" lon="8.03393301673066"><ele>526.0</ele><time>2026-05-03T09:07:01Z</time></trkpt><trkpt lat="45.58355866559583" lon="8.0338147523815"><ele>526.0</ele><time>2026-05-03T09:07:04Z</time></trkpt><trkpt lat="45.583580461948436" lon="8.03370478803209"><ele>526.0</ele><time>2026-05-03T09:07:07Z</time></trkpt><trkpt lat="45.58358906330931" lon="8.03359038944017"><ele>526.5</ele><time>2026-05-03T09:07:11Z</time></trkpt><trkpt lat="45.5836523211625" lon="8.033487522412019"><ele>527.0</ele><time>2026-05-03T09:07:13Z</time></trkpt><trkpt lat="45.583678744450886" lon="8.03339919936912"><ele>527.5</ele><time>2026-05-03T09:07:15Z</time></trkpt><trkpt lat="45.58373976303911" lon="8.033322735377885"><ele>528.0</ele><time>2026-05-03T09:07:18Z</time></trkpt><trkpt lat="45.58381815588209" lon="8.033272528689242"><ele>528.5</ele><time>2026-05-03T09:07:57Z</time></trkpt><trkpt lat="45.58389112462373" lon="8.033249445505298"><ele>529.0</ele><time>2026-05-03T09:08:00Z</time></trkpt><trkpt lat="45.583959600262" lon="8.033209207527852"><ele>531.8</ele><time>2026-05-03T09:08:04Z</time></trkpt><trkpt lat="45.58406103082776" lon="8.033142081905313"><ele>534.5999999999999</ele><time>2026-05-03T09:08:11Z</time></trkpt><trkpt lat="45.58411062366147" lon="8.033065180511546"><ele>537.4</ele><time>2026-05-03T09:08:19Z</time></trkpt><trkpt lat="45.58418177398411" lon="8.033037404676024"><ele>540.1999999999999</ele><time>2026-05-03T09:08:23Z</time></trkpt><trkpt lat="45.584315115842074" lon="8.033033226121995"><ele>543.0</ele><time>2026-05-03T09:08:28Z</time></trkpt><trkpt lat="45.58442439884416" lon="8.033029634175298"><ele>543.0</ele><time>2026-05-03T09:08:32Z</time></trkpt><trkpt lat="45.58449371185368" lon="8.033053539867261"><ele>543.0</ele><time>2026-05-03T09:08:35Z</time></trkpt><trkpt lat="45.5845620354155" lon="8.033125830488222"><ele>543.0</ele><time>2026-05-03T09:08:38Z</time></trkpt><trkpt lat="45.58457733005357" lon="8.03303664438283"><ele>543.0</ele><time>2026-05-03T09:08:50Z</time></trkpt><trkpt lat="45.58459788925983" lon="8.032947165486608"><ele>543.0</ele><time>2026-05-03T09:08:53Z</time></trkpt><trkpt lat="45.584622490726694" lon="8.032848501813001"><ele>543.0</ele><time>2026-05-03T09:08:58Z</time></trkpt><trkpt lat="45.584645063530715" lon="8.032754823757006"><ele>543.0</ele><time>2026-05-03T09:09:02Z</time></trkpt><trkpt lat="45.58467489462367" lon="8.032668562084533"><ele>542.5714285714286</ele><time>2026-05-03T09:09:05Z</time></trkpt><trkpt lat="45.58470819306172" lon="8.032566633187562"><ele>542.1428571428571</ele><time>2026-05-03T09:09:10Z</time></trkpt><trkpt lat="45.584772037039485" lon="8.032557670535951"><ele>541.7142857142857</ele><time>2026-05-03T09:09:13Z</time></trkpt><trkpt lat="45.584831807957784" lon="8.032502894213435"><ele>541.2857142857142</ele><time>2026-05-03T09:09:17Z</time></trkpt><trkpt lat="45.58486804024566" lon="8.032418850203932"><ele>540.8571428571428</ele><time>2026-05-03T09:09:20Z</time></trkpt><trkpt lat="45.5849230949831" lon="8.032374014048552"><ele>540.4285714285714</ele><time>2026-05-03T09:09:23Z</time></trkpt><trkpt lat="45.58497033520415" lon="8.032309542882304"><ele>540.0</ele><time>2026-05-03T09:09:26Z</time></trkpt><trkpt lat="45.58503239751497" lon="8.03224782813827"><ele>540.5714285714286</ele><time>2026-05-03T09:09:30Z</time></trkpt><trkpt lat="45.58509433952819" lon="8.032170051381161"><ele>541.1428571428571</ele><time>2026-05-03T09:09:33Z</time></trkpt><trkpt lat="45.585141427210466" lon="8.032098765126754"><ele>541.7142857142857</ele><time>2026-05-03T09:09:36Z</time></trkpt><trkpt lat="45.58515163225449" lon="8.032000502701608"><ele>542.2857142857142</ele><time>2026-05-03T09:09:39Z</time></trkpt><trkpt lat="45.58518643790264" lon="8.031894691133099"><ele>542.8571428571429</ele><time>2026-05-03T09:09:43Z</time></trkpt><trkpt lat="45.58523845926425" lon="8.031814686835997"><ele>543.4285714285713</ele><time>2026-05-03T09:09:48Z</time></trkpt><trkpt lat="45.58526546489591" lon="8.031732872652208"><ele>544.0</ele><time>2026-05-03T09:09:51Z</time></trkpt><trkpt lat="45.58538656572326" lon="8.031644354854313"><ele>545.1666666666667</ele><time>2026-05-03T09:10:00Z</time></trkpt><trkpt lat="45.58531875490191" lon="8.031664387665465"><ele>546.3333333333334</ele><time>2026-05-03T09:10:11Z</time></trkpt><trkpt lat="45.585328918805615" lon="8.031754318308057"><ele>547.5</ele><time>2026-05-03T09:10:15Z</time></trkpt><trkpt lat="45.585246684784025" lon="8.031683509343651"><ele>548.6666666666666</ele><time>2026-05-03T09:10:43Z</time></trkpt><trkpt lat="45.58525119153679" lon="8.0315625992749"><ele>549.8333333333333</ele><time>2026-05-03T09:10:48Z</time></trkpt><trkpt lat="45.58529503801042" lon="8.031476977593158"><ele>551.0</ele><time>2026-05-03T09:10:50Z</time></trkpt><trkpt lat="45.585327433577454" lon="8.031395858813715"><ele>550.2857142857142</ele><time>2026-05-03T09:10:55Z</time></trkpt><trkpt lat="45.5853950252364" lon="8.031330965787003"><ele>549.5714285714286</ele><time>2026-05-03T09:10:59Z</time></trkpt><trkpt lat="45.58544785221794" lon="8.03126813308271"><ele>548.8571428571429</ele><time>2026-05-03T09:11:03Z</time></trkpt><trkpt lat="45.585477507517886" lon="8.031184589845866"><ele>548.1428571428571</ele><time>2026-05-03T09:11:11Z</time></trkpt><trkpt lat="45.58545480133669" lon="8.03107844802217"><ele>547.4285714285714</ele><time>2026-05-03T09:11:16Z</time></trkpt><trkpt lat="45.58548759055296" lon="8.031000207821112"><ele>546.7142857142857</ele><time>2026-05-03T09:11:22Z</time></trkpt><trkpt lat="45.58549928419551" lon="8.030892930842425"><ele>546.0</ele><time>2026-05-03T09:11:27Z</time></trkpt><trkpt lat="45.58552006510188" lon="8.030778819961482"><ele>546.0</ele><time>2026-05-03T09:11:35Z</time></trkpt><trkpt lat="45.58549379958993" lon="8.030680411309602"><ele>546.0</ele><time>2026-05-03T09:11:47Z</time></trkpt><trkpt lat="45.58547400997393" lon="8.030586070305988"><ele>546.0</ele><time>2026-05-03T09:11:57Z</time></trkpt><trkpt lat="45.585423915605425" lon="8.030505595119036"><ele>546.0</ele><time>2026-05-03T09:13:51Z</time></trkpt><trkpt lat="45.58541328687175" lon="8.030354855248666"><ele>546.0</ele><time>2026-05-03T09:13:56Z</time></trkpt><trkpt lat="45.58541570143013" lon="8.030254592245035"><ele>546.0</ele><time>2026-05-03T09:14:00Z</time></trkpt><trkpt lat="45.585400730092864" lon="8.030166655078048"><ele>549.6666666666666</ele><time>2026-05-03T09:14:16Z</time></trkpt><trkpt lat="45.585332918737706" lon="8.030103749982437"><ele>553.3333333333334</ele><time>2026-05-03T09:14:22Z</time></trkpt><trkpt lat="45.585329671310184" lon="8.029942063670521"><ele>557.0</ele><time>2026-05-03T09:14:38Z</time></trkpt><trkpt lat="45.58528086886873" lon="8.029880107010987"><ele>560.6666666666667</ele><time>2026-05-03T09:14:52Z</time></trkpt><trkpt lat="45.58522491572845" lon="8.029814604614323"><ele>564.3333333333334</ele><time>2026-05-03T09:14:57Z</time></trkpt><trkpt lat="45.58520478132548" lon="8.029708700688772"><ele>568.0</ele><time>2026-05-03T09:15:01Z</time></trkpt><trkpt lat="45.58521767706216" lon="8.029619241673238"><ele>568.7142857142857</ele><time>2026-05-03T09:15:04Z</time></trkpt><trkpt lat="45.58524807482279" lon="8.029521817082056"><ele>569.4285714285713</ele><time>2026-05-03T09:15:07Z</time></trkpt><trkpt lat="45.585272175348905" lon="8.029418310301148"><ele>570.1428571428571</ele><time>2026-05-03T09:15:11Z</time></trkpt><trkpt lat="45.58530940148702" lon="8.029324124064761"><ele>570.8571428571429</ele><time>2026-05-03T09:15:15Z</time></trkpt><trkpt lat="45.58534428216871" lon="8.029228805851238"><ele>571.5714285714287</ele><time>2026-05-03T09:15:19Z</time></trkpt><trkpt lat="45.58534826898497" lon="8.029119455810312"><ele>572.2857142857143</ele><time>2026-05-03T09:15:23Z</time></trkpt><trkpt lat="45.585322547486086" lon="8.029027421940857"><ele>573.0</ele><time>2026-05-03T09:15:27Z</time></trkpt><trkpt lat="45.58528878511205" lon="8.028934553235812"><ele>573.0</ele><time>2026-05-03T09:15:32Z</time></trkpt><trkpt lat="45.5852416672189" lon="8.028870547992911"><ele>573.0</ele><time>2026-05-03T09:15:36Z</time></trkpt><trkpt lat="45.585199274710156" lon="8.028792144914139"><ele>573.0</ele><time>2026-05-03T09:15:40Z</time></trkpt><trkpt lat="45.58514212799334" lon="8.028736220066502"><ele>573.0</ele><time>2026-05-03T09:15:44Z</time></trkpt><trkpt lat="45.58510522804931" lon="8.028654064859088"><ele>573.0</ele><time>2026-05-03T09:15:47Z</time></trkpt><trkpt lat="45.585092147311315" lon="8.028552971951003"><ele>573.0</ele><time>2026-05-03T09:15:49Z</time></trkpt><trkpt lat="45.58501566626386" lon="8.028532238600267"><ele>573.0</ele><time>2026-05-03T09:15:52Z</time></trkpt><trkpt lat="45.58494458413864" lon="8.02851726708927"><ele>573.0</ele><time>2026-05-03T09:15:54Z</time></trkpt><trkpt lat="45.58487950010889" lon="8.028523926734996"><ele>573.0</ele><time>2026-05-03T09:15:57Z</time></trkpt><trkpt lat="45.58481376756265" lon="8.028465269885112"><ele>573.0</ele><time>2026-05-03T09:16:00Z</time></trkpt><trkpt lat="45.58480354112436" lon="8.028349092428304"><ele>573.0</ele><time>2026-05-03T09:16:03Z</time></trkpt><trkpt lat="45.584816240829156" lon="8.028245633634016"><ele>573.0</ele><time>2026-05-03T09:16:06Z</time></trkpt><trkpt lat="45.58483548976726" lon="8.028151441126692"><ele>573.0</ele><time>2026-05-03T09:16:09Z</time></trkpt><trkpt lat="45.584852409993026" lon="8.028048547329588"><ele>573.0</ele><time>2026-05-03T09:16:13Z</time></trkpt><trkpt lat="45.5848662607896" lon="8.02795438724447"><ele>572.5714285714286</ele><time>2026-05-03T09:16:16Z</time></trkpt><trkpt lat="45.5848872072639" lon="8.027864475411263"><ele>572.1428571428572</ele><time>2026-05-03T09:16:20Z</time></trkpt><trkpt lat="45.584901414824735" lon="8.027775713541214"><ele>571.7142857142858</ele><time>2026-05-03T09:16:24Z</time></trkpt><trkpt lat="45.58483788230812" lon="8.027748362114766"><ele>571.2857142857143</ele><time>2026-05-03T09:16:33Z</time></trkpt><trkpt lat="45.58481413933986" lon="8.027852984000361"><ele>570.8571428571429</ele><time>2026-05-03T09:16:37Z</time></trkpt><trkpt lat="45.584881372578174" lon="8.027829781617232"><ele>570.4285714285714</ele><time>2026-05-03T09:16:43Z</time></trkpt><trkpt lat="45.584899883997075" lon="8.027742718741342"><ele>570.0</ele><time>2026-05-03T09:16:48Z</time></trkpt><trkpt lat="45.5848473163953" lon="8.027804159901224"><ele>570.0</ele><time>2026-05-03T09:16:53Z</time></trkpt><trkpt lat="45.58491423117556" lon="8.0277603551521"><ele>570.0</ele><time>2026-05-03T09:16:59Z</time></trkpt><trkpt lat="45.584984752815586" lon="8.027714445255121"><ele>570.0</ele><time>2026-05-03T09:17:04Z</time></trkpt><trkpt lat="45.58504175805134" lon="8.027646211048506"><ele>570.0</ele><time>2026-05-03T09:17:08Z</time></trkpt><trkpt lat="45.58509744566133" lon="8.027587723977792"><ele>570.0</ele><time>2026-05-03T09:17:12Z</time></trkpt><trkpt lat="45.58512908309033" lon="8.027483431704272"><ele>570.0</ele><time>2026-05-03T09:17:16Z</time></trkpt><trkpt lat="45.58514308055312" lon="8.027371948353455"><ele>570.2857142857142</ele><time>2026-05-03T09:17:20Z</time></trkpt><trkpt lat="45.58518995714725" lon="8.027279921391823"><ele>570.5714285714286</ele><time>2026-05-03T09:17:24Z</time></trkpt><trkpt lat="45.58524811254047" lon="8.027209286388715"><ele>570.8571428571429</ele><time>2026-05-03T09:17:28Z</time></trkpt><trkpt lat="45.585293404095246" lon="8.027129660991745"><ele>571.1428571428571</ele><time>2026-05-03T09:17:32Z</time></trkpt><trkpt lat="45.5853369789611" lon="8.027059395923335"><ele>571.4285714285714</ele><time>2026-05-03T09:17:35Z</time></trkpt><trkpt lat="45.585380503620335" lon="8.02696766423936"><ele>571.7142857142857</ele><time>2026-05-03T09:17:40Z</time></trkpt><trkpt lat="45.585413430025525" lon="8.026890607824592"><ele>572.0</ele><time>2026-05-03T09:17:44Z</time></trkpt><trkpt lat="45.58546727825884" lon="8.026823450926749"><ele>572.7142857142857</ele><time>2026-05-03T09:17:49Z</time></trkpt><trkpt lat="45.5855029158738" lon="8.026730533355483"><ele>573.4285714285714</ele><time>2026-05-03T09:17:55Z</time></trkpt><trkpt lat="45.58554683685655" lon="8.02666486511633"><ele>574.1428571428571</ele><time>2026-05-03T09:18:00Z</time></trkpt><trkpt lat="45.585597895570466" lon="8.026585565577147"><ele>574.8571428571429</ele><time>2026-05-03T09:18:05Z</time></trkpt><trkpt lat="45.58564859515275" lon="8.026511834979681"><ele>575.5714285714286</ele><time>2026-05-03T09:18:10Z</time></trkpt><trkpt lat="45.58567678198537" lon="8.026428989227199"><ele>576.2857142857142</ele><time>2026-05-03T09:18:14Z</time></trkpt><trkpt lat="45.5857195978636" lon="8.026358680966203"><ele>577.0</ele><time>2026-05-03T09:18:18Z</time></trkpt><trkpt lat="45.58576218263431" lon="8.026290992911823"><ele>578.0</ele><time>2026-05-03T09:18:22Z</time></trkpt><trkpt lat="45.58580340420246" lon="8.026218872833779"><ele>579.0</ele><time>2026-05-03T09:18:26Z</time></trkpt><trkpt lat="45.58583927335446" lon="8.026140457702322"><ele>580.0</ele><time>2026-05-03T09:18:30Z</time></trkpt><trkpt lat="45.58587637411694" lon="8.02604100274504"><ele>581.0</ele><time>2026-05-03T09:18:34Z</time></trkpt><trkpt lat="45.585905320355536" lon="8.025949412620477"><ele>582.0</ele><time>2026-05-03T09:18:37Z</time></trkpt><trkpt lat="45.58594194657331" lon="8.025848826812927"><ele>583.0</ele><time>2026-05-03T09:18:41Z</time></trkpt><trkpt lat="45.586000676900355" lon="8.025760316206986"><ele>584.0</ele><time>2026-05-03T09:18:45Z</time></trkpt><trkpt lat="45.58606272626824" lon="8.02569060972574"><ele>584.1666666666666</ele><time>2026-05-03T09:18:48Z</time></trkpt><trkpt lat="45.58610964218676" lon="8.025611723502022"><ele>584.3333333333333</ele><time>2026-05-03T09:18:50Z</time></trkpt><trkpt lat="45.586147315126574" lon="8.025529050862144"><ele>584.5</ele><time>2026-05-03T09:18:52Z</time></trkpt><trkpt lat="45.58619002296052" lon="8.025436163430374"><ele>584.6666666666666</ele><time>2026-05-03T09:18:55Z</time></trkpt><trkpt lat="45.586246148047216" lon="8.025334389411485"><ele>584.8333333333334</ele><time>2026-05-03T09:19:00Z</time></trkpt><trkpt lat="45.58629255412647" lon="8.025258228347322"><ele>585.0</ele><time>2026-05-03T09:19:04Z</time></trkpt><trkpt lat="45.586322145010406" lon="8.025139138060435"><ele>587.4285714285714</ele><time>2026-05-03T09:19:07Z</time></trkpt><trkpt lat="45.58636146756987" lon="8.025048419417022"><ele>589.8571428571429</ele><time>2026-05-03T09:19:11Z</time></trkpt><trkpt lat="45.586393503328736" lon="8.024949866039615"><ele>592.2857142857142</ele><time>2026-05-03T09:19:16Z</time></trkpt><trkpt lat="45.58637942162814" lon="8.024857429753665"><ele>594.7142857142858</ele><time>2026-05-03T09:19:20Z</time></trkpt><trkpt lat="45.586371779734634" lon="8.024761330835393"><ele>597.1428571428571</ele><time>2026-05-03T09:19:24Z</time></trkpt><trkpt lat="45.586384548429855" lon="8.024665810952794"><ele>599.5714285714286</ele><time>2026-05-03T09:19:29Z</time></trkpt><trkpt lat="45.58638558771109" lon="8.024568084834007"><ele>602.0</ele><time>2026-05-03T09:19:34Z</time></trkpt><trkpt lat="45.5863849689307" lon="8.02447743767711"><ele>604.0</ele><time>2026-05-03T09:19:39Z</time></trkpt><trkpt lat="45.58636182078763" lon="8.02439306235755"><ele>606.0</ele><time>2026-05-03T09:19:55Z</time></trkpt><trkpt lat="45.586342316203755" lon="8.024301827873872"><ele>608.0</ele><time>2026-05-03T09:20:01Z</time></trkpt><trkpt lat="45.586311586621136" lon="8.024213072297607"><ele>610.0</ele><time>2026-05-03T09:20:06Z</time></trkpt><trkpt lat="45.58627108657399" lon="8.02413114170202"><ele>612.0</ele><time>2026-05-03T09:20:11Z</time></trkpt><trkpt lat="45.586245154373024" lon="8.024033636173979"><ele>614.0</ele><time>2026-05-03T09:20:17Z</time></trkpt><trkpt lat="45.58621043522183" lon="8.023946438408219"><ele>616.0</ele><time>2026-05-03T09:20:22Z</time></trkpt><trkpt lat="45.58617128716998" lon="8.023858978949866"><ele>616.0</ele><time>2026-05-03T09:20:27Z</time></trkpt><trkpt lat="45.5861332427481" lon="8.02377193356214"><ele>616.0</ele><time>2026-05-03T09:20:32Z</time></trkpt><trkpt lat="45.58610525610973" lon="8.02368084929607"><ele>616.0</ele><time>2026-05-03T09:20:37Z</time></trkpt><trkpt lat="45.58608021587427" lon="8.023584437109538"><ele>616.0</ele><time>2026-05-03T09:20:42Z</time></trkpt><trkpt lat="45.586045155481635" lon="8.023504662847149"><ele>616.0</ele><time>2026-05-03T09:20:47Z</time></trkpt><trkpt lat="45.58602874989804" lon="8.023407554052294"><ele>616.0</ele><time>2026-05-03T09:20:52Z</time></trkpt><trkpt lat="45.58600947189784" lon="8.023308117934308"><ele>616.0</ele><time>2026-05-03T09:20:57Z</time></trkpt><trkpt lat="45.586001084219035" lon="8.023203576138437"><ele>617.5714285714286</ele><time>2026-05-03T09:21:02Z</time></trkpt><trkpt lat="45.58597710658152" lon="8.023104405076834"><ele>619.1428571428571</ele><time>2026-05-03T09:21:07Z</time></trkpt><trkpt lat="45.58596036252387" lon="8.02300859278"><ele>620.7142857142858</ele><time>2026-05-03T09:21:12Z</time></trkpt><trkpt lat="45.58594260704332" lon="8.022914205493146"><ele>622.2857142857142</ele><time>2026-05-03T09:21:18Z</time></trkpt><trkpt lat="45.58590039717879" lon="8.022839376377902"><ele>623.8571428571429</ele><time>2026-05-03T09:21:24Z</time></trkpt><trkpt lat="45.58591284117823" lon="8.022749016373755"><ele>625.4285714285714</ele><time>2026-05-03T09:21:28Z</time></trkpt><trkpt lat="45.585871981522075" lon="8.022655975389554"><ele>627.0</ele><time>2026-05-03T09:21:33Z</time></trkpt><trkpt lat="45.585874325407836" lon="8.022556827996667"><ele>625.8571428571429</ele><time>2026-05-03T09:21:37Z</time></trkpt><trkpt lat="45.58589463814641" lon="8.022464353716003"><ele>624.7142857142857</ele><time>2026-05-03T09:21:41Z</time></trkpt><trkpt lat="45.58590563748501" lon="8.022368387690685"><ele>623.5714285714286</ele><time>2026-05-03T09:21:46Z</time></trkpt><trkpt lat="45.58591088157607" lon="8.022471809419756"><ele>622.4285714285714</ele><time>2026-05-03T09:21:58Z</time></trkpt><trkpt lat="45.585975901785936" lon="8.022445306744395"><ele>621.2857142857143</ele><time>2026-05-03T09:22:41Z</time></trkpt><trkpt lat="45.586043219252296" lon="8.022388724312048"><ele>620.1428571428571</ele><time>2026-05-03T09:22:45Z</time></trkpt><trkpt lat="45.58608434246929" lon="8.022300286295787"><ele>619.0</ele><time>2026-05-03T09:22:49Z</time></trkpt><trkpt lat="45.58614286081726" lon="8.02226079938085"><ele>624.0</ele><time>2026-05-03T09:22:53Z</time></trkpt><trkpt lat="45.58622182285285" lon="8.022248092201442"><ele>629.0</ele><time>2026-05-03T09:22:58Z</time></trkpt><trkpt lat="45.586289312550896" lon="8.022202580972523"><ele>634.0</ele><time>2026-05-03T09:23:02Z</time></trkpt><trkpt lat="45.5863395955007" lon="8.022115751990897"><ele>639.0</ele><time>2026-05-03T09:23:06Z</time></trkpt><trkpt lat="45.586371785922466" lon="8.022034215825414"><ele>644.0</ele><time>2026-05-03T09:23:09Z</time></trkpt><trkpt lat="45.5864376656255" lon="8.021975191863241"><ele>649.0</ele><time>2026-05-03T09:23:13Z</time></trkpt><trkpt lat="45.58649379221967" lon="8.021907453560571"><ele>648.9999999999999</ele><time>2026-05-03T09:23:17Z</time></trkpt><trkpt lat="45.58654662841345" lon="8.021835979781194"><ele>649.0</ele><time>2026-05-03T09:23:22Z</time></trkpt><trkpt lat="45.58661118801137" lon="8.021790488272845"><ele>649.0</ele><time>2026-05-03T09:23:27Z</time></trkpt><trkpt lat="45.586662976444515" lon="8.021726075534588"><ele>649.0</ele><time>2026-05-03T09:23:32Z</time></trkpt><trkpt lat="45.586693179416194" lon="8.021645706543005"><ele>649.0</ele><time>2026-05-03T09:23:36Z</time></trkpt><trkpt lat="45.58673612818817" lon="8.021543839850667"><ele>648.9999999999999</ele><time>2026-05-03T09:23:40Z</time></trkpt><trkpt lat="45.586709331677774" lon="8.021433429613953"><ele>649.0</ele><time>2026-05-03T09:23:43Z</time></trkpt><trkpt lat="45.5867049110738" lon="8.021333933191361"><ele>649.1428571428571</ele><time>2026-05-03T09:23:47Z</time></trkpt><trkpt lat="45.5867011988719" lon="8.021234855528096"><ele>649.2857142857142</ele><time>2026-05-03T09:23:51Z</time></trkpt><trkpt lat="45.58667268993262" lon="8.021131411103632"><ele>649.4285714285713</ele><time>2026-05-03T09:23:55Z</time></trkpt><trkpt lat="45.586615301022604" lon="8.021094301551559"><ele>649.5714285714286</ele><time>2026-05-03T09:23:58Z</time></trkpt><trkpt lat="45.586542343393575" lon="8.021051197779475"><ele>649.7142857142858</ele><time>2026-05-03T09:24:03Z</time></trkpt><trkpt lat="45.58649355170327" lon="8.020973174349933"><ele>649.8571428571428</ele><time>2026-05-03T09:24:08Z</time></trkpt><trkpt lat="45.58645868432344" lon="8.020896916444222"><ele>650.0</ele><time>2026-05-03T09:24:11Z</time></trkpt><trkpt lat="45.58642653954386" lon="8.020792446873763"><ele>650.5714285714286</ele><time>2026-05-03T09:24:15Z</time></trkpt><trkpt lat="45.586386477845586" lon="8.020705853620566"><ele>651.1428571428572</ele><time>2026-05-03T09:24:19Z</time></trkpt><trkpt lat="45.58634147287033" lon="8.020635700283782"><ele>651.7142857142858</ele><time>2026-05-03T09:24:24Z</time></trkpt><trkpt lat="45.58632926987862" lon="8.020544133293422"><ele>652.2857142857142</ele><time>2026-05-03T09:24:29Z</time></trkpt><trkpt lat="45.58630476677457" lon="8.020458285642215"><ele>652.8571428571429</ele><time>2026-05-03T09:24:32Z</time></trkpt><trkpt lat="45.58632980218603" lon="8.020361757641712"><ele>653.4285714285714</ele><time>2026-05-03T09:24:36Z</time></trkpt><trkpt lat="45.58636221406516" lon="8.020273316744051"><ele>654.0</ele><time>2026-05-03T09:24:39Z</time></trkpt><trkpt lat="45.58635635203545" lon="8.020160568531686"><ele>654.0</ele><time>2026-05-03T09:24:43Z</time></trkpt><trkpt lat="45.5863879515839" lon="8.020067233184507"><ele>654.0</ele><time>2026-05-03T09:24:48Z</time></trkpt><trkpt lat="45.58641769386865" lon="8.01997621152588"><ele>654.0</ele><time>2026-05-03T09:24:52Z</time></trkpt><trkpt lat="45.586522739660765" lon="8.019907272502383"><ele>654.0</ele><time>2026-05-03T09:25:03Z</time></trkpt><trkpt lat="45.58657572086099" lon="8.01985136922178"><ele>654.0</ele><time>2026-05-03T09:25:08Z</time></trkpt><trkpt lat="45.58664804017339" lon="8.019846977773144"><ele>654.0</ele><time>2026-05-03T09:25:12Z</time></trkpt><trkpt lat="45.586718004523775" lon="8.019883455125614"><ele>654.0</ele><time>2026-05-03T09:25:16Z</time></trkpt><trkpt lat="45.5868029543913" lon="8.019913747117164"><ele>654.0</ele><time>2026-05-03T09:25:22Z</time></trkpt><trkpt lat="45.58684665507634" lon="8.019986767708223"><ele>654.0</ele><time>2026-05-03T09:25:26Z</time></trkpt><trkpt lat="45.586904302825005" lon="8.020040130498968"><ele>654.0</ele><time>2026-05-03T09:25:29Z</time></trkpt><trkpt lat="45.58696868196915" lon="8.02007861679782"><ele>654.0</ele><time>2026-05-03T09:25:33Z</time></trkpt><trkpt lat="45.58703822577149" lon="8.020081724833501"><ele>654.0</ele><time>2026-05-03T09:25:37Z</time></trkpt><trkpt lat="45.58710488576252" lon="8.02004592629079"><ele>654.0</ele><time>2026-05-03T09:25:41Z</time></trkpt><trkpt lat="45.58717075769439" lon="8.019990667411918"><ele>657.3333333333334</ele><time>2026-05-03T09:25:45Z</time></trkpt><trkpt lat="45.587240831094185" lon="8.01993333254466"><ele>660.6666666666666</ele><time>2026-05-03T09:25:49Z</time></trkpt><trkpt lat="45.587315375291595" lon="8.019884348110915"><ele>664.0</ele><time>2026-05-03T09:25:53Z</time></trkpt><trkpt lat="45.58738402461069" lon="8.019833396755306"><ele>667.3333333333333</ele><time>2026-05-03T09:25:57Z</time></trkpt><trkpt lat="45.587449808116155" lon="8.019781830152896"><ele>670.6666666666666</ele><time>2026-05-03T09:26:01Z</time></trkpt><trkpt lat="45.58750046915947" lon="8.019706771920225"><ele>674.0</ele><time>2026-05-03T09:26:05Z</time></trkpt><trkpt lat="45.5875242954116" lon="8.019602364332131"><ele>674.0000000000001</ele><time>2026-05-03T09:26:09Z</time></trkpt><trkpt lat="45.58752759693719" lon="8.0194990408376"><ele>674.0</ele><time>2026-05-03T09:26:13Z</time></trkpt><trkpt lat="45.58752490786723" lon="8.019391914539183"><ele>674.0</ele><time>2026-05-03T09:26:17Z</time></trkpt><trkpt lat="45.58756762904069" lon="8.019302006594502"><ele>674.0</ele><time>2026-05-03T09:26:21Z</time></trkpt><trkpt lat="45.58761573189668" lon="8.019411308921635"><ele>674.0</ele><time>2026-05-03T09:26:25Z</time></trkpt><trkpt lat="45.587559225592145" lon="8.019466729390194"><ele>674.0000000000001</ele><time>2026-05-03T09:26:27Z</time></trkpt><trkpt lat="45.58750176948978" lon="8.019426099798624"><ele>674.0</ele><time>2026-05-03T09:26:43Z</time></trkpt><trkpt lat="45.58748739925231" lon="8.019317157016175"><ele>674.0000000000001</ele><time>2026-05-03T09:26:50Z</time></trkpt><trkpt lat="45.587539973482784" lon="8.019391914968232"><ele>674.0</ele><time>2026-05-03T09:27:02Z</time></trkpt><trkpt lat="45.58761182859824" lon="8.019427113070138"><ele>674.0</ele><time>2026-05-03T09:27:06Z</time></trkpt><trkpt lat="45.58758702147339" lon="8.019519461399021"><ele>674.0</ele><time>2026-05-03T09:27:08Z</time></trkpt><trkpt lat="45.587540265345744" lon="8.019450408238624"><ele>674.0</ele><time>2026-05-03T09:27:11Z</time></trkpt><trkpt lat="45.587501635415926" lon="8.019379153231691"><ele>674.0000000000001</ele><time>2026-05-03T09:27:17Z</time></trkpt><trkpt lat="45.58752977258229" lon="8.019469042108385"><ele>674.0</ele><time>2026-05-03T09:27:30Z</time></trkpt><trkpt lat="45.58760279002054" lon="8.019541760214809"><ele>674.0000000000001</ele><time>2026-05-03T09:27:52Z</time></trkpt><trkpt lat="45.58764932799884" lon="8.01963048755623"><ele>674.0</ele><time>2026-05-03T09:27:55Z</time></trkpt><trkpt lat="45.58765840890967" lon="8.019739940038743"><ele>674.0</ele><time>2026-05-03T09:27:59Z</time></trkpt><trkpt lat="45.58764695329389" lon="8.019834142768847"><ele>674.0</ele><time>2026-05-03T09:28:03Z</time></trkpt><trkpt lat="45.58758598508631" lon="8.019881396068282"><ele>674.0</ele><time>2026-05-03T09:28:06Z</time></trkpt><trkpt lat="45.58753177040664" lon="8.019940999670895"><ele>674.0000000000001</ele><time>2026-05-03T09:28:10Z</time></trkpt><trkpt lat="45.58748033281648" lon="8.019994352891539"><ele>674.0</ele><time>2026-05-03T09:28:14Z</time></trkpt><trkpt lat="45.58744932262705" lon="8.020077399921952"><ele>674.0</ele><time>2026-05-03T09:28:18Z</time></trkpt><trkpt lat="45.587421870664045" lon="8.020187976803879"><ele>674.0</ele><time>2026-05-03T09:28:22Z</time></trkpt><trkpt lat="45.587404145499534" lon="8.020290864239948"><ele>674.0</ele><time>2026-05-03T09:28:27Z</time></trkpt><trkpt lat="45.587386799608296" lon="8.020390256325491"><ele>674.0</ele><time>2026-05-03T09:28:32Z</time></trkpt><trkpt lat="45.587363757007445" lon="8.020483549627713"><ele>674.0</ele><time>2026-05-03T09:28:35Z</time></trkpt><trkpt lat="45.58732788423018" lon="8.020578111364761"><ele>674.0</ele><time>2026-05-03T09:28:40Z</time></trkpt><trkpt lat="45.58729638796272" lon="8.02068009040877"><ele>674.0000000000001</ele><time>2026-05-03T09:28:44Z</time></trkpt><trkpt lat="45.58730350203567" lon="8.020773056972452"><ele>674.0</ele><time>2026-05-03T09:28:49Z</time></trkpt><trkpt lat="45.58729230367749" lon="8.02086351530869"><ele>674.0</ele><time>2026-05-03T09:28:53Z</time></trkpt><trkpt lat="45.58729343241616" lon="8.020962025407721"><ele>674.0</ele><time>2026-05-03T09:28:57Z</time></trkpt><trkpt lat="45.58734462484097" lon="8.021034043289585"><ele>674.0</ele><time>2026-05-03T09:29:02Z</time></trkpt><trkpt lat="45.587355076819925" lon="8.021140661481683"><ele>674.0000000000001</ele><time>2026-05-03T09:29:06Z</time></trkpt><trkpt lat="45.58737199053827" lon="8.021244765168463"><ele>674.0</ele><time>2026-05-03T09:29:10Z</time></trkpt><trkpt lat="45.587405860438885" lon="8.021338609818592"><ele>676.1428571428572</ele><time>2026-05-03T09:29:15Z</time></trkpt><trkpt lat="45.58741889918376" lon="8.021449633702737"><ele>678.2857142857143</ele><time>2026-05-03T09:29:19Z</time></trkpt><trkpt lat="45.58741136186202" lon="8.021540996721457"><ele>680.4285714285714</ele><time>2026-05-03T09:29:22Z</time></trkpt><trkpt lat="45.5874341928148" lon="8.021628769955525"><ele>682.5714285714287</ele><time>2026-05-03T09:29:27Z</time></trkpt><trkpt lat="45.58748385668495" lon="8.021700125534325"><ele>684.7142857142858</ele><time>2026-05-03T09:29:31Z</time></trkpt><trkpt lat="45.58748207307589" lon="8.021799956668627"><ele>686.8571428571429</ele><time>2026-05-03T09:29:35Z</time></trkpt><trkpt lat="45.58752494327741" lon="8.021882448700886"><ele>689.0</ele><time>2026-05-03T09:29:39Z</time></trkpt><trkpt lat="45.58756810954863" lon="8.021970013931794"><ele>689.3333333333333</ele><time>2026-05-03T09:29:44Z</time></trkpt><trkpt lat="45.58763838695138" lon="8.022002079615348"><ele>689.6666666666666</ele><time>2026-05-03T09:29:49Z</time></trkpt><trkpt lat="45.58769876285527" lon="8.022029155611717"><ele>690.0</ele><time>2026-05-03T09:29:54Z</time></trkpt><trkpt lat="45.58778795786824" lon="8.022044163390731"><ele>690.3333333333334</ele><time>2026-05-03T09:29:59Z</time></trkpt><trkpt lat="45.587854122170405" lon="8.02203813474781"><ele>690.6666666666667</ele><time>2026-05-03T09:30:04Z</time></trkpt><trkpt lat="45.58792749167087" lon="8.022030804236183"><ele>691.0</ele><time>2026-05-03T09:30:08Z</time></trkpt><trkpt lat="45.58802119171982" lon="8.022055538668997"><ele>693.8333333333334</ele><time>2026-05-03T09:30:13Z</time></trkpt><trkpt lat="45.588083005394445" lon="8.022018609379291"><ele>696.6666666666667</ele><time>2026-05-03T09:30:16Z</time></trkpt><trkpt lat="45.588134655749066" lon="8.021953785939244"><ele>699.5</ele><time>2026-05-03T09:30:20Z</time></trkpt><trkpt lat="45.58823407225773" lon="8.02194740410629"><ele>702.3333333333334</ele><time>2026-05-03T09:30:24Z</time></trkpt><trkpt lat="45.588314180102294" lon="8.021883599531881"><ele>705.1666666666666</ele><time>2026-05-03T09:30:28Z</time></trkpt><trkpt lat="45.58835956001124" lon="8.021796752766322"><ele>708.0</ele><time>2026-05-03T09:30:31Z</time></trkpt><trkpt lat="45.58842819105075" lon="8.02168744787555"><ele>709.5999999999999</ele><time>2026-05-03T09:30:34Z</time></trkpt><trkpt lat="45.58848787511128" lon="8.02157399760412"><ele>711.1999999999999</ele><time>2026-05-03T09:30:36Z</time></trkpt><trkpt lat="45.58858807550494" lon="8.02145753496284"><ele>712.8</ele><time>2026-05-03T09:30:38Z</time></trkpt><trkpt lat="45.58864943827368" lon="8.021328534895217"><ele>714.4</ele><time>2026-05-03T09:30:40Z</time></trkpt><trkpt lat="45.58870644834524" lon="8.02124620546497"><ele>716.0</ele><time>2026-05-03T09:30:42Z</time></trkpt><trkpt lat="45.58875017250555" lon="8.021158887987687"><ele>715.5</ele><time>2026-05-03T09:30:45Z</time></trkpt><trkpt lat="45.588779618506315" lon="8.021045345964431"><ele>715.0</ele><time>2026-05-03T09:30:48Z</time></trkpt><trkpt lat="45.58880634316478" lon="8.020938374017721"><ele>714.5</ele><time>2026-05-03T09:30:51Z</time></trkpt><trkpt lat="45.5888074546673" lon="8.020824526574938"><ele>714.0</ele><time>2026-05-03T09:30:53Z</time></trkpt><trkpt lat="45.588857813444584" lon="8.020746485707043"><ele>713.5</ele><time>2026-05-03T09:30:55Z</time></trkpt><trkpt lat="45.588913015053386" lon="8.02065314273819"><ele>713.0</ele><time>2026-05-03T09:30:58Z</time></trkpt><trkpt lat="45.58894908289852" lon="8.020520206511792"><ele>713.0</ele><time>2026-05-03T09:31:01Z</time></trkpt><trkpt lat="45.58900199994728" lon="8.020438104156915"><ele>713.0</ele><time>2026-05-03T09:31:03Z</time></trkpt><trkpt lat="45.589045142698225" lon="8.020348438812109"><ele>713.0</ele><time>2026-05-03T09:31:05Z</time></trkpt><trkpt lat="45.589068773970624" lon="8.02024546495442"><ele>713.0</ele><time>2026-05-03T09:31:07Z</time></trkpt><trkpt lat="45.58912156399126" lon="8.020142031672966"><ele>713.0</ele><time>2026-05-03T09:31:10Z</time></trkpt><trkpt lat="45.58913557727404" lon="8.020034091906101"><ele>713.0</ele><time>2026-05-03T09:31:14Z</time></trkpt><trkpt lat="45.58916627720939" lon="8.019933119900244"><ele>713.0</ele><time>2026-05-03T09:31:18Z</time></trkpt><trkpt lat="45.58921684282689" lon="8.019839686071432"><ele>713.0</ele><time>2026-05-03T09:31:21Z</time></trkpt><trkpt lat="45.58926002224233" lon="8.019755414675682"><ele>713.0</ele><time>2026-05-03T09:31:25Z</time></trkpt><trkpt lat="45.58930614382565" lon="8.01969133049107"><ele>713.0</ele><time>2026-05-03T09:31:30Z</time></trkpt><trkpt lat="45.58937294563561" lon="8.019706407105103"><ele>713.0</ele><time>2026-05-03T09:31:40Z</time></trkpt><trkpt lat="45.58931776188231" lon="8.019806288176003"><ele>713.0</ele><time>2026-05-03T09:31:43Z</time></trkpt><trkpt lat="45.58931557015685" lon="8.01990128401496"><ele>713.0</ele><time>2026-05-03T09:31:46Z</time></trkpt><trkpt lat="45.58934535741641" lon="8.020007333323496"><ele>713.0</ele><time>2026-05-03T09:31:50Z</time></trkpt><trkpt lat="45.58936202295074" lon="8.020116587861587"><ele>713.0</ele><time>2026-05-03T09:31:53Z</time></trkpt><trkpt lat="45.58928048970818" lon="8.020267221449748"><ele>713.0</ele><time>2026-05-03T09:31:55Z</time></trkpt><trkpt lat="45.58925379288019" lon="8.020361365195827"><ele>713.0</ele><time>2026-05-03T09:31:57Z</time></trkpt><trkpt lat="45.58924912244524" lon="8.020491316302815"><ele>713.0</ele><time>2026-05-03T09:32:01Z</time></trkpt><trkpt lat="45.589249530792024" lon="8.020584556926051"><ele>713.0</ele><time>2026-05-03T09:32:03Z</time></trkpt><trkpt lat="45.58928429292962" lon="8.02073048398347"><ele>710.4</ele><time>2026-05-03T09:32:05Z</time></trkpt><trkpt lat="45.58928087822339" lon="8.02082597366291"><ele>707.8</ele><time>2026-05-03T09:32:06Z</time></trkpt><trkpt lat="45.589282127068714" lon="8.02095796547039"><ele>705.2</ele><time>2026-05-03T09:32:08Z</time></trkpt><trkpt lat="45.58927645867215" lon="8.021100144945521"><ele>702.6</ele><time>2026-05-03T09:32:10Z</time></trkpt><trkpt lat="45.58932175284147" lon="8.021228579236853"><ele>700.0</ele><time>2026-05-03T09:32:12Z</time></trkpt><trkpt lat="45.589261419983806" lon="8.021363372901703"><ele>700.0</ele><time>2026-05-03T09:32:14Z</time></trkpt><trkpt lat="45.58927824827069" lon="8.021458744803914"><ele>700.0</ele><time>2026-05-03T09:32:17Z</time></trkpt><trkpt lat="45.589342582016286" lon="8.021556118944464"><ele>700.0</ele><time>2026-05-03T09:32:21Z</time></trkpt><trkpt lat="45.58937744865806" lon="8.021640135886194"><ele>700.0</ele><time>2026-05-03T09:32:23Z</time></trkpt><trkpt lat="45.58934671910066" lon="8.021798970446497"><ele>700.0</ele><time>2026-05-03T09:32:25Z</time></trkpt><trkpt lat="45.58932142030061" lon="8.021916859206431"><ele>700.0</ele><time>2026-05-03T09:32:27Z</time></trkpt><trkpt lat="45.58933304234407" lon="8.02207787303982"><ele>697.3333333333334</ele><time>2026-05-03T09:32:29Z</time></trkpt><trkpt lat="45.58934633252534" lon="8.022173064681496"><ele>694.6666666666667</ele><time>2026-05-03T09:32:30Z</time></trkpt><trkpt lat="45.58935331650814" lon="8.022313840104578"><ele>692.0</ele><time>2026-05-03T09:32:32Z</time></trkpt><trkpt lat="45.589371077134544" lon="8.022434129624349"><ele>689.3333333333334</ele><time>2026-05-03T09:32:34Z</time></trkpt><trkpt lat="45.58937398484786" lon="8.02255641437357"><ele>686.6666666666666</ele><time>2026-05-03T09:32:36Z</time></trkpt><trkpt lat="45.58942459069793" lon="8.02267836780308"><ele>684.0</ele><time>2026-05-03T09:32:38Z</time></trkpt><trkpt lat="45.58945796324192" lon="8.022799892653975"><ele>682.0</ele><time>2026-05-03T09:32:42Z</time></trkpt><trkpt lat="45.58947693812373" lon="8.022918790538785"><ele>680.0</ele><time>2026-05-03T09:32:45Z</time></trkpt><trkpt lat="45.58949152385645" lon="8.02302726675474"><ele>678.0</ele><time>2026-05-03T09:32:48Z</time></trkpt><trkpt lat="45.58948173076482" lon="8.02314933244767"><ele>676.0</ele><time>2026-05-03T09:32:51Z</time></trkpt><trkpt lat="45.589425604539414" lon="8.023200018004665"><ele>674.0</ele><time>2026-05-03T09:32:52Z</time></trkpt><trkpt lat="45.589387117393656" lon="8.023329220575441"><ele>672.0</ele><time>2026-05-03T09:32:54Z</time></trkpt><trkpt lat="45.58936623111836" lon="8.023435321898452"><ele>670.1666666666666</ele><time>2026-05-03T09:32:56Z</time></trkpt><trkpt lat="45.5893749401078" lon="8.023578498979994"><ele>668.3333333333334</ele><time>2026-05-03T09:33:00Z</time></trkpt><trkpt lat="45.58937881542735" lon="8.023677658640459"><ele>666.5</ele><time>2026-05-03T09:33:02Z</time></trkpt><trkpt lat="45.58936911445081" lon="8.023774040665625"><ele>664.6666666666667</ele><time>2026-05-03T09:33:03Z</time></trkpt><trkpt lat="45.58931355706557" lon="8.023856644893929"><ele>662.8333333333334</ele><time>2026-05-03T09:33:05Z</time></trkpt><trkpt lat="45.58933395547029" lon="8.02395378056055"><ele>661.0</ele><time>2026-05-03T09:33:07Z</time></trkpt><trkpt lat="45.58933442275965" lon="8.024083387956358"><ele>658.0</ele><time>2026-05-03T09:33:09Z</time></trkpt><trkpt lat="45.58933370725679" lon="8.024178187548403"><ele>655.0</ele><time>2026-05-03T09:33:11Z</time></trkpt><trkpt lat="45.58936542302406" lon="8.024257758513713"><ele>652.0</ele><time>2026-05-03T09:33:12Z</time></trkpt><trkpt lat="45.58932246631905" lon="8.024356349476662"><ele>649.0</ele><time>2026-05-03T09:33:14Z</time></trkpt><trkpt lat="45.589309531416355" lon="8.024461041629248"><ele>646.0</ele><time>2026-05-03T09:33:16Z</time></trkpt><trkpt lat="45.58918733715399" lon="8.024548405879925"><ele>643.0</ele><time>2026-05-03T09:33:18Z</time></trkpt><trkpt lat="45.589125953473804" lon="8.024589545749548"><ele>643.0</ele><time>2026-05-03T09:33:19Z</time></trkpt><trkpt lat="45.58908675870821" lon="8.024670358784295"><ele>643.0</ele><time>2026-05-03T09:33:20Z</time></trkpt><trkpt lat="45.588979026247756" lon="8.02474609322846"><ele>643.0</ele><time>2026-05-03T09:33:22Z</time></trkpt><trkpt lat="45.588913475875756" lon="8.024787965405562"><ele>643.0</ele><time>2026-05-03T09:33:23Z</time></trkpt><trkpt lat="45.58881048477513" lon="8.024797672739776"><ele>643.0</ele><time>2026-05-03T09:33:25Z</time></trkpt><trkpt lat="45.5887459411926" lon="8.024809375798718"><ele>643.0</ele><time>2026-05-03T09:33:27Z</time></trkpt><trkpt lat="45.58872116292844" lon="8.02491750096556"><ele>642.4285714285714</ele><time>2026-05-03T09:33:29Z</time></trkpt><trkpt lat="45.58870130413111" lon="8.025032014319134"><ele>641.8571428571429</ele><time>2026-05-03T09:33:32Z</time></trkpt><trkpt lat="45.58864601272333" lon="8.025133214261231"><ele>641.2857142857143</ele><time>2026-05-03T09:33:35Z</time></trkpt><trkpt lat="45.58860349001472" lon="8.025220984225168"><ele>640.7142857142858</ele><time>2026-05-03T09:33:37Z</time></trkpt><trkpt lat="45.58855339314512" lon="8.025290254627006"><ele>640.1428571428571</ele><time>2026-05-03T09:33:38Z</time></trkpt><trkpt lat="45.58850213369064" lon="8.025355304430413"><ele>639.5714285714287</ele><time>2026-05-03T09:33:41Z</time></trkpt><trkpt lat="45.5885186552633" lon="8.025442958147664"><ele>639.0</ele><time>2026-05-03T09:33:44Z</time></trkpt><trkpt lat="45.588619483966646" lon="8.025522577292783"><ele>639.0</ele><time>2026-05-03T09:33:47Z</time></trkpt><trkpt lat="45.58855173930048" lon="8.025506129107217"><ele>639.0</ele><time>2026-05-03T09:33:52Z</time></trkpt><trkpt lat="45.58848593694919" lon="8.025455138105457"><ele>639.0</ele><time>2026-05-03T09:33:54Z</time></trkpt><trkpt lat="45.58843959638002" lon="8.025377064483425"><ele>639.0</ele><time>2026-05-03T09:33:59Z</time></trkpt><trkpt lat="45.588352895379636" lon="8.02539627199693"><ele>639.0</ele><time>2026-05-03T09:34:05Z</time></trkpt><trkpt lat="45.58828419833844" lon="8.025386856891087"><ele>639.0</ele><time>2026-05-03T09:34:08Z</time></trkpt><trkpt lat="45.58820821976001" lon="8.025348688102856"><ele>639.0</ele><time>2026-05-03T09:34:10Z</time></trkpt><trkpt lat="45.58813994249652" lon="8.025331008703287"><ele>639.0</ele><time>2026-05-03T09:34:13Z</time></trkpt><trkpt lat="45.58806555860485" lon="8.025369316245436"><ele>639.0</ele><time>2026-05-03T09:34:15Z</time></trkpt><trkpt lat="45.58796453369447" lon="8.025461212120433"><ele>639.0</ele><time>2026-05-03T09:34:18Z</time></trkpt><trkpt lat="45.58788436391442" lon="8.025501384023409"><ele>639.0</ele><time>2026-05-03T09:34:20Z</time></trkpt><trkpt lat="45.5877801428317" lon="8.025535794427473"><ele>636.6666666666666</ele><time>2026-05-03T09:34:22Z</time></trkpt><trkpt lat="45.587709282774426" lon="8.025526223915477"><ele>634.3333333333334</ele><time>2026-05-03T09:34:23Z</time></trkpt><trkpt lat="45.587639654096236" lon="8.02550453618864"><ele>632.0</ele><time>2026-05-03T09:34:25Z</time></trkpt><trkpt lat="45.587550170636725" lon="8.025471896543296"><ele>629.6666666666667</ele><time>2026-05-03T09:34:27Z</time></trkpt><trkpt lat="45.58747287549391" lon="8.02540441537243"><ele>627.3333333333334</ele><time>2026-05-03T09:34:29Z</time></trkpt><trkpt lat="45.58741039797132" lon="8.025371441265044"><ele>625.0</ele><time>2026-05-03T09:34:31Z</time></trkpt><trkpt lat="45.587347469126826" lon="8.025295688386139"><ele>625.0</ele><time>2026-05-03T09:34:34Z</time></trkpt><trkpt lat="45.58724295048557" lon="8.025314079681404"><ele>625.0</ele><time>2026-05-03T09:34:36Z</time></trkpt><trkpt lat="45.587177992577466" lon="8.025319904790287"><ele>625.0</ele><time>2026-05-03T09:34:38Z</time></trkpt><trkpt lat="45.58724124311996" lon="8.025261687834654"><ele>625.0</ele><time>2026-05-03T09:34:45Z</time></trkpt><trkpt lat="45.5873216512976" lon="8.025251034895222"><ele>625.0</ele><time>2026-05-03T09:34:47Z</time></trkpt><trkpt lat="45.5873956620166" lon="8.02528274554444"><ele>625.0</ele><time>2026-05-03T09:34:49Z</time></trkpt><trkpt lat="45.587437864668175" lon="8.02536037215978"><ele>625.0</ele><time>2026-05-03T09:34:51Z</time></trkpt><trkpt lat="45.58748647683737" lon="8.025442300270706"><ele>625.0</ele><time>2026-05-03T09:34:53Z</time></trkpt><trkpt lat="45.58754911192074" lon="8.025555418219545"><ele>625.0</ele><time>2026-05-03T09:34:55Z</time></trkpt><trkpt lat="45.58758599115991" lon="8.025640512312492"><ele>625.0</ele><time>2026-05-03T09:34:56Z</time></trkpt><trkpt lat="45.587617010740175" lon="8.025782842296548"><ele>625.0</ele><time>2026-05-03T09:34:59Z</time></trkpt><trkpt lat="45.587672182626754" lon="8.025854636580801"><ele>625.0</ele><time>2026-05-03T09:35:01Z</time></trkpt><trkpt lat="45.587893475549876" lon="8.02582137762279"><ele>624.0</ele><time>2026-05-03T09:35:08Z</time></trkpt><trkpt lat="45.58798400024064" lon="8.025801408178591"><ele>623.0</ele><time>2026-05-03T09:35:09Z</time></trkpt><trkpt lat="45.588059798990614" lon="8.025785537023964"><ele>622.0</ele><time>2026-05-03T09:35:12Z</time></trkpt><trkpt lat="45.58809717550803" lon="8.02590443767181"><ele>621.0</ele><time>2026-05-03T09:35:15Z</time></trkpt><trkpt lat="45.588113748199774" lon="8.026021916714965"><ele>620.0</ele><time>2026-05-03T09:35:19Z</time></trkpt><trkpt lat="45.588167352266154" lon="8.026107906560084"><ele>619.0</ele><time>2026-05-03T09:35:21Z</time></trkpt><trkpt lat="45.58820446269412" lon="8.026216585698172"><ele>619.0</ele><time>2026-05-03T09:35:23Z</time></trkpt><trkpt lat="45.588251834321014" lon="8.02637127957988"><ele>619.0</ele><time>2026-05-03T09:35:25Z</time></trkpt><trkpt lat="45.58833074189408" lon="8.026441375296923"><ele>619.0</ele><time>2026-05-03T09:35:27Z</time></trkpt><trkpt lat="45.588358305049994" lon="8.026579390588365"><ele>619.0</ele><time>2026-05-03T09:35:29Z</time></trkpt><trkpt lat="45.588357758875794" lon="8.026699300222585"><ele>619.0</ele><time>2026-05-03T09:35:31Z</time></trkpt><trkpt lat="45.588326574139515" lon="8.026850053848714"><ele>615.8333333333334</ele><time>2026-05-03T09:35:32Z</time></trkpt><trkpt lat="45.588308776706334" lon="8.027001989412438"><ele>612.6666666666667</ele><time>2026-05-03T09:35:34Z</time></trkpt><trkpt lat="45.588302560347884" lon="8.02709276080669"><ele>609.5</ele><time>2026-05-03T09:35:35Z</time></trkpt><trkpt lat="45.58833023471891" lon="8.027182082032944"><ele>606.3333333333334</ele><time>2026-05-03T09:35:36Z</time></trkpt><trkpt lat="45.58837556803948" lon="8.027302439155285"><ele>603.1666666666666</ele><time>2026-05-03T09:35:38Z</time></trkpt><trkpt lat="45.58840735478636" lon="8.027422589683148"><ele>600.0</ele><time>2026-05-03T09:35:40Z</time></trkpt><trkpt lat="45.588414124121144" lon="8.027524114498267"><ele>598.0</ele><time>2026-05-03T09:35:41Z</time></trkpt><trkpt lat="45.588390065573584" lon="8.027671964396943"><ele>596.0</ele><time>2026-05-03T09:35:43Z</time></trkpt><trkpt lat="45.58833771328479" lon="8.027756814397057"><ele>594.0</ele><time>2026-05-03T09:35:44Z</time></trkpt><trkpt lat="45.588356979366786" lon="8.027902563624929"><ele>592.0</ele><time>2026-05-03T09:35:46Z</time></trkpt><trkpt lat="45.588512301698465" lon="8.02793676703242"><ele>590.0</ele><time>2026-05-03T09:35:52Z</time></trkpt><trkpt lat="45.5885897159592" lon="8.027982583055337"><ele>589.8333333333333</ele><time>2026-05-03T09:35:53Z</time></trkpt><trkpt lat="45.58868582442595" lon="8.027999519066105"><ele>589.6666666666666</ele><time>2026-05-03T09:35:55Z</time></trkpt><trkpt lat="45.58875568322439" lon="8.028007855107438"><ele>589.5</ele><time>2026-05-03T09:35:57Z</time></trkpt><trkpt lat="45.58882722152891" lon="8.027993057229446"><ele>589.3333333333334</ele><time>2026-05-03T09:35:59Z</time></trkpt><trkpt lat="45.58891232067252" lon="8.027997834668701"><ele>589.1666666666667</ele><time>2026-05-03T09:36:02Z</time></trkpt><trkpt lat="45.58894333081363" lon="8.02815137498228"><ele>589.0</ele><time>2026-05-03T09:36:04Z</time></trkpt><trkpt lat="45.58884996854362" lon="8.02825105807361"><ele>587.5</ele><time>2026-05-03T09:36:06Z</time></trkpt><trkpt lat="45.588748360427125" lon="8.028325514433877"><ele>586.0</ele><time>2026-05-03T09:36:08Z</time></trkpt><trkpt lat="45.588677859152966" lon="8.028339459622888"><ele>584.5</ele><time>2026-05-03T09:36:09Z</time></trkpt><trkpt lat="45.588609210822476" lon="8.028375240417125"><ele>583.0</ele><time>2026-05-03T09:36:13Z</time></trkpt><trkpt lat="45.58852330695987" lon="8.02837648128192"><ele>581.5</ele><time>2026-05-03T09:36:15Z</time></trkpt><trkpt lat="45.588603952153555" lon="8.028355741105734"><ele>580.0</ele><time>2026-05-03T09:36:22Z</time></trkpt><trkpt lat="45.588743768854236" lon="8.028315457475085"><ele>581.8</ele><time>2026-05-03T09:36:28Z</time></trkpt><trkpt lat="45.58881005372003" lon="8.028291475005547"><ele>583.6</ele><time>2026-05-03T09:36:30Z</time></trkpt><trkpt lat="45.58891577558812" lon="8.028275373121295"><ele>585.4</ele><time>2026-05-03T09:36:33Z</time></trkpt><trkpt lat="45.589038666093714" lon="8.028202088670197"><ele>587.2</ele><time>2026-05-03T09:36:35Z</time></trkpt><trkpt lat="45.58913501375081" lon="8.028138168837325"><ele>589.0</ele><time>2026-05-03T09:36:37Z</time></trkpt><trkpt lat="45.58919941023398" lon="8.028062493685042"><ele>589.0</ele><time>2026-05-03T09:36:38Z</time></trkpt><trkpt lat="45.58925546954316" lon="8.027986915124947"><ele>589.0</ele><time>2026-05-03T09:36:39Z</time></trkpt><trkpt lat="45.58931630281992" lon="8.027930256336516"><ele>589.0</ele><time>2026-05-03T09:36:40Z</time></trkpt><trkpt lat="45.58936974462572" lon="8.027860735551654"><ele>589.0</ele><time>2026-05-03T09:36:41Z</time></trkpt><trkpt lat="45.589417116642935" lon="8.027789010922241"><ele>589.0</ele><time>2026-05-03T09:36:42Z</time></trkpt><trkpt lat="45.58946006207234" lon="8.02771243585472"><ele>589.0</ele><time>2026-05-03T09:36:43Z</time></trkpt><trkpt lat="45.589522069178756" lon="8.027642841110403"><ele>589.0</ele><time>2026-05-03T09:36:44Z</time></trkpt><trkpt lat="45.58959191811959" lon="8.02757335495983"><ele>587.1428571428571</ele><time>2026-05-03T09:36:45Z</time></trkpt><trkpt lat="45.58966195882448" lon="8.027535931483312"><ele>585.2857142857142</ele><time>2026-05-03T09:36:46Z</time></trkpt><trkpt lat="45.589729968439606" lon="8.027500390461134"><ele>583.4285714285714</ele><time>2026-05-03T09:36:47Z</time></trkpt><trkpt lat="45.58980917766628" lon="8.027462592606232"><ele>581.5714285714286</ele><time>2026-05-03T09:36:48Z</time></trkpt><trkpt lat="45.589878684548665" lon="8.027430212865367"><ele>579.7142857142858</ele><time>2026-05-03T09:36:49Z</time></trkpt><trkpt lat="45.58994620588871" lon="8.027398758076421"><ele>577.8571428571429</ele><time>2026-05-03T09:36:50Z</time></trkpt><trkpt lat="45.59001558752555" lon="8.027366436724535"><ele>576.0</ele><time>2026-05-03T09:36:51Z</time></trkpt><trkpt lat="45.59008424656007" lon="8.027334451937802"><ele>576.0</ele><time>2026-05-03T09:36:52Z</time></trkpt><trkpt lat="45.59015178469567" lon="8.027301723110515"><ele>576.0</ele><time>2026-05-03T09:36:53Z</time></trkpt><trkpt lat="45.59021341829102" lon="8.02727174850362"><ele>576.0</ele><time>2026-05-03T09:36:54Z</time></trkpt><trkpt lat="45.59034315266008" lon="8.027206692003361"><ele>576.0</ele><time>2026-05-03T09:36:56Z</time></trkpt><trkpt lat="45.59040743718179" lon="8.027173715439606"><ele>576.0</ele><time>2026-05-03T09:36:57Z</time></trkpt><trkpt lat="45.590483876839656" lon="8.027137198206564"><ele>576.0</ele><time>2026-05-03T09:36:58Z</time></trkpt><trkpt lat="45.590555618494854" lon="8.027103237924035"><ele>574.8333333333334</ele><time>2026-05-03T09:36:59Z</time></trkpt><trkpt lat="45.590629182265495" lon="8.02707167400564"><ele>573.6666666666666</ele><time>2026-05-03T09:37:00Z</time></trkpt><trkpt lat="45.59070441757204" lon="8.027049619485352"><ele>572.5</ele><time>2026-05-03T09:37:01Z</time></trkpt><trkpt lat="45.59076992999156" lon="8.027046266624852"><ele>571.3333333333333</ele><time>2026-05-03T09:37:02Z</time></trkpt><trkpt lat="45.59083497225844" lon="8.027075750239828"><ele>570.1666666666666</ele><time>2026-05-03T09:37:03Z</time></trkpt><trkpt lat="45.59090392017522" lon="8.027206933312856"><ele>569.0</ele><time>2026-05-03T09:37:04Z</time></trkpt><trkpt lat="45.5908797420412" lon="8.027312971886234"><ele>569.0</ele><time>2026-05-03T09:37:05Z</time></trkpt><trkpt lat="45.59082425921501" lon="8.027442688011902"><ele>569.0</ele><time>2026-05-03T09:37:07Z</time></trkpt><trkpt lat="45.590754788182856" lon="8.027511707101555"><ele>569.0</ele><time>2026-05-03T09:37:09Z</time></trkpt><trkpt lat="45.59069885765439" lon="8.027590451678261"><ele>569.0</ele><time>2026-05-03T09:37:11Z</time></trkpt><trkpt lat="45.59063425095608" lon="8.027707375508486"><ele>569.0</ele><time>2026-05-03T09:37:14Z</time></trkpt><trkpt lat="45.59055099451281" lon="8.027794351664959"><ele>568.8</ele><time>2026-05-03T09:37:16Z</time></trkpt><trkpt lat="45.59048333910115" lon="8.02789789680374"><ele>568.5999999999999</ele><time>2026-05-03T09:37:18Z</time></trkpt><trkpt lat="45.59041950637422" lon="8.027989690556293"><ele>568.4</ele><time>2026-05-03T09:37:20Z</time></trkpt><trkpt lat="45.590354252962754" lon="8.028082894489398"><ele>568.1999999999999</ele><time>2026-05-03T09:37:22Z</time></trkpt><trkpt lat="45.5902838541176" lon="8.028183236027383"><ele>568.0</ele><time>2026-05-03T09:37:24Z</time></trkpt><trkpt lat="45.59021175969901" lon="8.028285965713538"><ele>567.6</ele><time>2026-05-03T09:37:26Z</time></trkpt><trkpt lat="45.590136599411814" lon="8.028393063987407"><ele>567.1999999999999</ele><time>2026-05-03T09:37:28Z</time></trkpt><trkpt lat="45.59006345752988" lon="8.028497286178625"><ele>566.8</ele><time>2026-05-03T09:37:30Z</time></trkpt><trkpt lat="45.58998923949329" lon="8.028603041810326"><ele>566.4</ele><time>2026-05-03T09:37:32Z</time></trkpt><trkpt lat="45.58992178657278" lon="8.028722552491883"><ele>566.0</ele><time>2026-05-03T09:37:34Z</time></trkpt><trkpt lat="45.5898464703319" lon="8.02881937813321"><ele>566.0</ele><time>2026-05-03T09:37:36Z</time></trkpt><trkpt lat="45.58977770594582" lon="8.028925521311292"><ele>566.0</ele><time>2026-05-03T09:37:38Z</time></trkpt><trkpt lat="45.589711471115244" lon="8.029030169997375"><ele>566.0</ele><time>2026-05-03T09:37:40Z</time></trkpt><trkpt lat="45.5896386765079" lon="8.02912609999108"><ele>566.0</ele><time>2026-05-03T09:37:42Z</time></trkpt><trkpt lat="45.58957270640514" lon="8.029222059282382"><ele>566.0</ele><time>2026-05-03T09:37:44Z</time></trkpt><trkpt lat="45.589511092060356" lon="8.029330711461125"><ele>564.8</ele><time>2026-05-03T09:37:46Z</time></trkpt><trkpt lat="45.589453746089596" lon="8.029441742219227"><ele>563.6</ele><time>2026-05-03T09:37:48Z</time></trkpt><trkpt lat="45.58941117702703" lon="8.029575610087193"><ele>562.4</ele><time>2026-05-03T09:37:50Z</time></trkpt><trkpt lat="45.58936998492462" lon="8.029691284640275"><ele>561.2</ele><time>2026-05-03T09:37:52Z</time></trkpt><trkpt lat="45.58933214420253" lon="8.029795951403774"><ele>560.0</ele><time>2026-05-03T09:37:54Z</time></trkpt><trkpt lat="45.589293186492576" lon="8.029897959555806"><ele>560.8333333333333</ele><time>2026-05-03T09:37:56Z</time></trkpt><trkpt lat="45.589282083784646" lon="8.029997109272943"><ele>561.6666666666666</ele><time>2026-05-03T09:37:58Z</time></trkpt><trkpt lat="45.589298788330105" lon="8.03008558735963"><ele>562.5</ele><time>2026-05-03T09:38:00Z</time></trkpt><trkpt lat="45.589302347477926" lon="8.030183149820584"><ele>563.3333333333334</ele><time>2026-05-03T09:38:04Z</time></trkpt><trkpt lat="45.589217485578416" lon="8.030242008683317"><ele>564.1666666666667</ele><time>2026-05-03T09:38:06Z</time></trkpt><trkpt lat="45.58913001875328" lon="8.030317808826512"><ele>565.0</ele><time>2026-05-03T09:38:08Z</time></trkpt><trkpt lat="45.58904564505136" lon="8.030420885274017"><ele>565.0</ele><time>2026-05-03T09:38:10Z</time></trkpt><trkpt lat="45.58895623046771" lon="8.030540267821628"><ele>565.0</ele><time>2026-05-03T09:38:12Z</time></trkpt><trkpt lat="45.588865922492126" lon="8.030652605933899"><ele>565.0</ele><time>2026-05-03T09:38:14Z</time></trkpt><trkpt lat="45.58877553577026" lon="8.030764501021087"><ele>565.0</ele><time>2026-05-03T09:38:16Z</time></trkpt><trkpt lat="45.588683535024245" lon="8.030863115578727"><ele>563.75</ele><time>2026-05-03T09:38:18Z</time></trkpt><trkpt lat="45.58858848065883" lon="8.03094786051692"><ele>562.5</ele><time>2026-05-03T09:38:20Z</time></trkpt><trkpt lat="45.58848957241" lon="8.031028906675726"><ele>561.25</ele><time>2026-05-03T09:38:22Z</time></trkpt><trkpt lat="45.58839390216118" lon="8.031127722058491"><ele>560.0</ele><time>2026-05-03T09:38:24Z</time></trkpt><trkpt lat="45.588303244232996" lon="8.031222510329625"><ele>560.0</ele><time>2026-05-03T09:38:26Z</time></trkpt><trkpt lat="45.58821571427053" lon="8.03132851508896"><ele>560.0</ele><time>2026-05-03T09:38:28Z</time></trkpt><trkpt lat="45.588121220522964" lon="8.031432325125909"><ele>560.0</ele><time>2026-05-03T09:38:30Z</time></trkpt><trkpt lat="45.58803127300705" lon="8.031536224742625"><ele>560.0</ele><time>2026-05-03T09:38:32Z</time></trkpt><trkpt lat="45.587924947642115" lon="8.031612076813836"><ele>561.0</ele><time>2026-05-03T09:38:34Z</time></trkpt><trkpt lat="45.587810727661" lon="8.031674839944607"><ele>562.0</ele><time>2026-05-03T09:38:36Z</time></trkpt><trkpt lat="45.58774895455672" lon="8.031708544093414"><ele>563.0</ele><time>2026-05-03T09:38:37Z</time></trkpt><trkpt lat="45.58763064775255" lon="8.031777325851726"><ele>564.0</ele><time>2026-05-03T09:38:39Z</time></trkpt><trkpt lat="45.58756724739682" lon="8.031822143582088"><ele>565.0</ele><time>2026-05-03T09:38:40Z</time></trkpt><trkpt lat="45.58750283871556" lon="8.031890338932703"><ele>565.0</ele><time>2026-05-03T09:38:41Z</time></trkpt><trkpt lat="45.58744042244446" lon="8.03193206325862"><ele>565.0</ele><time>2026-05-03T09:38:42Z</time></trkpt><trkpt lat="45.587381300101306" lon="8.031974754224285"><ele>565.0</ele><time>2026-05-03T09:38:43Z</time></trkpt><trkpt lat="45.58730459172752" lon="8.032040992802488"><ele>565.0</ele><time>2026-05-03T09:38:44Z</time></trkpt><trkpt lat="45.587235582304956" lon="8.032085148179064"><ele>565.0</ele><time>2026-05-03T09:38:45Z</time></trkpt><trkpt lat="45.587166519315524" lon="8.032130492805537"><ele>565.0</ele><time>2026-05-03T09:38:46Z</time></trkpt><trkpt lat="45.58709784544377" lon="8.03219574013705"><ele>565.0</ele><time>2026-05-03T09:38:47Z</time></trkpt><trkpt lat="45.587051924205475" lon="8.032269963516562"><ele>565.0</ele><time>2026-05-03T09:38:48Z</time></trkpt><trkpt lat="45.586973007781566" lon="8.032341620946948"><ele>565.0</ele><time>2026-05-03T09:38:49Z</time></trkpt><trkpt lat="45.586903379218484" lon="8.032409419168252"><ele>565.0</ele><time>2026-05-03T09:38:50Z</time></trkpt><trkpt lat="45.58683202827711" lon="8.032470034911121"><ele>565.0</ele><time>2026-05-03T09:38:51Z</time></trkpt><trkpt lat="45.58675938051154" lon="8.032542707895445"><ele>565.0</ele><time>2026-05-03T09:38:52Z</time></trkpt><trkpt lat="45.586696039733596" lon="8.032615944414015"><ele>564.3333333333334</ele><time>2026-05-03T09:38:53Z</time></trkpt><trkpt lat="45.58663412903285" lon="8.032696111639185"><ele>563.6666666666667</ele><time>2026-05-03T09:38:54Z</time></trkpt><trkpt lat="45.586571388726064" lon="8.032772990383423"><ele>563.0</ele><time>2026-05-03T09:38:55Z</time></trkpt><trkpt lat="45.58652362992252" lon="8.032867834477566"><ele>562.3333333333334</ele><time>2026-05-03T09:38:56Z</time></trkpt><trkpt lat="45.58647339772376" lon="8.032968578530074"><ele>561.6666666666666</ele><time>2026-05-03T09:38:57Z</time></trkpt><trkpt lat="45.586431215952494" lon="8.033063566163094"><ele>561.0</ele><time>2026-05-03T09:38:58Z</time></trkpt><trkpt lat="45.586399085617145" lon="8.033168887368564"><ele>561.0</ele><time>2026-05-03T09:38:59Z</time></trkpt><trkpt lat="45.58636423272353" lon="8.033272573849903"><ele>561.0</ele><time>2026-05-03T09:39:00Z</time></trkpt><trkpt lat="45.58631297772416" lon="8.03335904503367"><ele>561.0</ele><time>2026-05-03T09:39:01Z</time></trkpt><trkpt lat="45.58626341044084" lon="8.033440751025173"><ele>561.0</ele><time>2026-05-03T09:39:02Z</time></trkpt><trkpt lat="45.58620197488652" lon="8.033512573325414"><ele>561.0</ele><time>2026-05-03T09:39:03Z</time></trkpt><trkpt lat="45.586134761234014" lon="8.033587247241703"><ele>561.0</ele><time>2026-05-03T09:39:04Z</time></trkpt><trkpt lat="45.58607854024038" lon="8.033668648185865"><ele>559.8333333333334</ele><time>2026-05-03T09:39:05Z</time></trkpt><trkpt lat="45.58600935654435" lon="8.033732423779949"><ele>558.6666666666666</ele><time>2026-05-03T09:39:06Z</time></trkpt><trkpt lat="45.5859381757866" lon="8.03382450679962"><ele>557.5</ele><time>2026-05-03T09:39:07Z</time></trkpt><trkpt lat="45.58586770749196" lon="8.033899010729364"><ele>556.3333333333333</ele><time>2026-05-03T09:39:08Z</time></trkpt><trkpt lat="45.58579397010867" lon="8.033978256715644"><ele>555.1666666666666</ele><time>2026-05-03T09:39:09Z</time></trkpt><trkpt lat="45.58571996162194" lon="8.034051047096762"><ele>554.0</ele><time>2026-05-03T09:39:10Z</time></trkpt><trkpt lat="45.58564059214694" lon="8.034128927631583"><ele>553.8333333333333</ele><time>2026-05-03T09:39:11Z</time></trkpt><trkpt lat="45.58557212817937" lon="8.034213773361246"><ele>553.6666666666666</ele><time>2026-05-03T09:39:12Z</time></trkpt><trkpt lat="45.585499587426696" lon="8.034289658489945"><ele>553.5</ele><time>2026-05-03T09:39:13Z</time></trkpt><trkpt lat="45.58543397402119" lon="8.034371586187437"><ele>553.3333333333334</ele><time>2026-05-03T09:39:14Z</time></trkpt><trkpt lat="45.585367201054765" lon="8.034456869636283"><ele>553.1666666666667</ele><time>2026-05-03T09:39:15Z</time></trkpt><trkpt lat="45.58529342370272" lon="8.034533995854403"><ele>553.0</ele><time>2026-05-03T09:39:16Z</time></trkpt><trkpt lat="45.58521912634949" lon="8.034607972635161"><ele>553.0</ele><time>2026-05-03T09:39:17Z</time></trkpt><trkpt lat="45.58514915888236" lon="8.034692341256907"><ele>553.0</ele><time>2026-05-03T09:39:18Z</time></trkpt><trkpt lat="45.585081137509825" lon="8.03477153126868"><ele>553.0</ele><time>2026-05-03T09:39:19Z</time></trkpt><trkpt lat="45.585003979708986" lon="8.034846531700728"><ele>553.0</ele><time>2026-05-03T09:39:20Z</time></trkpt><trkpt lat="45.584936031267695" lon="8.034930290351502"><ele>553.0</ele><time>2026-05-03T09:39:21Z</time></trkpt><trkpt lat="45.58486281838886" lon="8.035009844558143"><ele>553.0</ele><time>2026-05-03T09:39:22Z</time></trkpt><trkpt lat="45.58478285422613" lon="8.035094676171893"><ele>553.0</ele><time>2026-05-03T09:39:23Z</time></trkpt><trkpt lat="45.58470187081744" lon="8.035176376950925"><ele>553.0</ele><time>2026-05-03T09:39:24Z</time></trkpt><trkpt lat="45.58461964207775" lon="8.0352575957085"><ele>553.0</ele><time>2026-05-03T09:39:25Z</time></trkpt><trkpt lat="45.58453978789867" lon="8.03533387064297"><ele>553.0</ele><time>2026-05-03T09:39:26Z</time></trkpt><trkpt lat="45.584455508938376" lon="8.035414533268053"><ele>551.8</ele><time>2026-05-03T09:39:27Z</time></trkpt><trkpt lat="45.584378688398125" lon="8.035500447361656"><ele>550.5999999999999</ele><time>2026-05-03T09:39:28Z</time></trkpt><trkpt lat="45.58429939977352" lon="8.035584660408949"><ele>549.4000000000001</ele><time>2026-05-03T09:39:29Z</time></trkpt><trkpt lat="45.58422201544371" lon="8.03566375437022"><ele>548.2</ele><time>2026-05-03T09:39:30Z</time></trkpt><trkpt lat="45.58414229787791" lon="8.03574786470511"><ele>547.0</ele><time>2026-05-03T09:39:31Z</time></trkpt><trkpt lat="45.58406328764814" lon="8.035827796548533"><ele>547.0</ele><time>2026-05-03T09:39:32Z</time></trkpt><trkpt lat="45.5839814867815" lon="8.035907324342897"><ele>547.0</ele><time>2026-05-03T09:39:33Z</time></trkpt><trkpt lat="45.58389814008368" lon="8.035987161254141"><ele>547.0</ele><time>2026-05-03T09:39:34Z</time></trkpt><trkpt lat="45.583819559751916" lon="8.036070749657718"><ele>547.0</ele><time>2026-05-03T09:39:35Z</time></trkpt><trkpt lat="45.58373886758878" lon="8.03615210408166"><ele>547.0</ele><time>2026-05-03T09:39:36Z</time></trkpt><trkpt lat="45.583656985248844" lon="8.036230602713168"><ele>546.2</ele><time>2026-05-03T09:39:37Z</time></trkpt><trkpt lat="45.58357915625149" lon="8.036327876961595"><ele>545.4000000000001</ele><time>2026-05-03T09:39:38Z</time></trkpt><trkpt lat="45.58349886969568" lon="8.036422671628674"><ele>544.5999999999999</ele><time>2026-05-03T09:39:39Z</time></trkpt><trkpt lat="45.58341076347441" lon="8.036521533040894"><ele>543.8</ele><time>2026-05-03T09:39:40Z</time></trkpt><trkpt lat="45.58333356538914" lon="8.036605505782143"><ele>543.0</ele><time>2026-05-03T09:39:41Z</time></trkpt><trkpt lat="45.58324914583916" lon="8.036688410054898"><ele>543.0</ele><time>2026-05-03T09:39:42Z</time></trkpt><trkpt lat="45.58318534569796" lon="8.036797550628624"><ele>543.0</ele><time>2026-05-03T09:39:43Z</time></trkpt><trkpt lat="45.58311153354978" lon="8.03689919389578"><ele>543.0</ele><time>2026-05-03T09:39:44Z</time></trkpt><trkpt lat="45.58306444200572" lon="8.03703982911186"><ele>543.0</ele><time>2026-05-03T09:39:45Z</time></trkpt><trkpt lat="45.58300982381482" lon="8.037167481199466"><ele>543.0</ele><time>2026-05-03T09:39:46Z</time></trkpt><trkpt lat="45.58295088228259" lon="8.037294618900408"><ele>543.0</ele><time>2026-05-03T09:39:47Z</time></trkpt><trkpt lat="45.582887373809136" lon="8.037421377660193"><ele>543.0</ele><time>2026-05-03T09:39:48Z</time></trkpt><trkpt lat="45.58283069502993" lon="8.037549913139815"><ele>543.0</ele><time>2026-05-03T09:39:49Z</time></trkpt><trkpt lat="45.58275405714086" lon="8.03765562612152"><ele>543.0</ele><time>2026-05-03T09:39:50Z</time></trkpt><trkpt lat="45.58265324680343" lon="8.03771020454652"><ele>543.0</ele><time>2026-05-03T09:39:51Z</time></trkpt><trkpt lat="45.5825452774498" lon="8.037756774920405"><ele>541.0</ele><time>2026-05-03T09:39:52Z</time></trkpt><trkpt lat="45.58244465432574" lon="8.037773599739932"><ele>539.0</ele><time>2026-05-03T09:39:53Z</time></trkpt><trkpt lat="45.58235042000697" lon="8.037801727683396"><ele>537.0</ele><time>2026-05-03T09:39:54Z</time></trkpt><trkpt lat="45.58225439676767" lon="8.037834252506006"><ele>535.0</ele><time>2026-05-03T09:39:55Z</time></trkpt><trkpt lat="45.582159044980735" lon="8.037864325981953"><ele>533.0</ele><time>2026-05-03T09:39:56Z</time></trkpt><trkpt lat="45.58206967814218" lon="8.037885624954871"><ele>532.6666666666666</ele><time>2026-05-03T09:39:57Z</time></trkpt><trkpt lat="45.58198560379728" lon="8.03791278640271"><ele>532.3333333333333</ele><time>2026-05-03T09:39:58Z</time></trkpt><trkpt lat="45.58189938374219" lon="8.037926397379385"><ele>532.0</ele><time>2026-05-03T09:39:59Z</time></trkpt><trkpt lat="45.58181808926998" lon="8.037942876110565"><ele>531.6666666666666</ele><time>2026-05-03T09:40:00Z</time></trkpt><trkpt lat="45.581744468621764" lon="8.037982084552"><ele>531.3333333333334</ele><time>2026-05-03T09:40:01Z</time></trkpt><trkpt lat="45.58166510656051" lon="8.03800662062759"><ele>531.0</ele><time>2026-05-03T09:40:02Z</time></trkpt><trkpt lat="45.58158629496624" lon="8.038032417381704"><ele>531.0</ele><time>2026-05-03T09:40:03Z</time></trkpt><trkpt lat="45.58151505857506" lon="8.038096946249498"><ele>531.0</ele><time>2026-05-03T09:40:04Z</time></trkpt><trkpt lat="45.581440924795444" lon="8.038158252775414"><ele>531.0</ele><time>2026-05-03T09:40:05Z</time></trkpt><trkpt lat="45.5813715933665" lon="8.038226136234785"><ele>531.0</ele><time>2026-05-03T09:40:06Z</time></trkpt><trkpt lat="45.58130515004535" lon="8.038271500111271"><ele>531.0</ele><time>2026-05-03T09:40:07Z</time></trkpt><trkpt lat="45.58124091021808" lon="8.03833057402631"><ele>531.0</ele><time>2026-05-03T09:40:08Z</time></trkpt><trkpt lat="45.58116941795961" lon="8.038405990576951"><ele>532.3333333333334</ele><time>2026-05-03T09:40:09Z</time></trkpt><trkpt lat="45.58109856777195" lon="8.038467668683703"><ele>533.6666666666666</ele><time>2026-05-03T09:40:10Z</time></trkpt><trkpt lat="45.58102838225382" lon="8.038534848261882"><ele>535.0</ele><time>2026-05-03T09:40:11Z</time></trkpt><trkpt lat="45.58095962452974" lon="8.03857745173026"><ele>536.3333333333333</ele><time>2026-05-03T09:40:12Z</time></trkpt><trkpt lat="45.58089271216481" lon="8.038645135061092"><ele>537.6666666666666</ele><time>2026-05-03T09:40:13Z</time></trkpt><trkpt lat="45.580827846723714" lon="8.038705288679951"><ele>539.0</ele><time>2026-05-03T09:40:14Z</time></trkpt><trkpt lat="45.58075919365924" lon="8.038758432234484"><ele>539.0</ele><time>2026-05-03T09:40:15Z</time></trkpt><trkpt lat="45.58067285008694" lon="8.038796653544031"><ele>539.0</ele><time>2026-05-03T09:40:16Z</time></trkpt><trkpt lat="45.580608675966026" lon="8.038848776103634"><ele>539.0</ele><time>2026-05-03T09:40:17Z</time></trkpt><trkpt lat="45.58055359940265" lon="8.03891359425847"><ele>539.0</ele><time>2026-05-03T09:40:18Z</time></trkpt><trkpt lat="45.580490412316806" lon="8.038979066949464"><ele>539.0</ele><time>2026-05-03T09:40:19Z</time></trkpt><trkpt lat="45.58042895203328" lon="8.039046240899166"><ele>539.0</ele><time>2026-05-03T09:40:20Z</time></trkpt><trkpt lat="45.58036783696552" lon="8.039108834911406"><ele>539.0</ele><time>2026-05-03T09:40:21Z</time></trkpt><trkpt lat="45.580306773632614" lon="8.039172452423138"><ele>539.0</ele><time>2026-05-03T09:40:22Z</time></trkpt><trkpt lat="45.5802482700315" lon="8.039234676814072"><ele>539.0</ele><time>2026-05-03T09:40:23Z</time></trkpt><trkpt lat="45.58019619500559" lon="8.03929554823898"><ele>539.0</ele><time>2026-05-03T09:40:24Z</time></trkpt><trkpt lat="45.58014023257295" lon="8.039349153202846"><ele>539.0</ele><time>2026-05-03T09:40:25Z</time></trkpt><trkpt lat="45.580084848568305" lon="8.039405870046345"><ele>539.0</ele><time>2026-05-03T09:40:26Z</time></trkpt><trkpt lat="45.58002360697765" lon="8.039439685499186"><ele>539.0</ele><time>2026-05-03T09:40:27Z</time></trkpt><trkpt lat="45.57995853194122" lon="8.039464600217363"><ele>539.0</ele><time>2026-05-03T09:40:28Z</time></trkpt><trkpt lat="45.579887671325444" lon="8.03948147452537"><ele>539.0</ele><time>2026-05-03T09:40:29Z</time></trkpt><trkpt lat="45.579818161498714" lon="8.039442537821065"><ele>539.0</ele><time>2026-05-03T09:40:30Z</time></trkpt><trkpt lat="45.5797553479426" lon="8.039428407851151"><ele>539.0</ele><time>2026-05-03T09:40:31Z</time></trkpt><trkpt lat="45.57968813570173" lon="8.039414639409646"><ele>539.0</ele><time>2026-05-03T09:40:32Z</time></trkpt><trkpt lat="45.57962366125834" lon="8.039381052449523"><ele>539.0</ele><time>2026-05-03T09:40:33Z</time></trkpt><trkpt lat="45.57956308091453" lon="8.039347310799636"><ele>539.0</ele><time>2026-05-03T09:40:34Z</time></trkpt><trkpt lat="45.5794961016778" lon="8.039342020213518"><ele>538.1666666666666</ele><time>2026-05-03T09:40:35Z</time></trkpt><trkpt lat="45.5794292053173" lon="8.039326930451088"><ele>537.3333333333333</ele><time>2026-05-03T09:40:36Z</time></trkpt><trkpt lat="45.579362421568106" lon="8.039348537493451"><ele>536.5</ele><time>2026-05-03T09:40:37Z</time></trkpt><trkpt lat="45.579239171844115" lon="8.039409426261715"><ele>535.6666666666666</ele><time>2026-05-03T09:40:39Z</time></trkpt><trkpt lat="45.57918214197996" lon="8.039478819308219"><ele>534.8333333333334</ele><time>2026-05-03T09:40:40Z</time></trkpt><trkpt lat="45.57911844497821" lon="8.039519021420887"><ele>534.0</ele><time>2026-05-03T09:40:41Z</time></trkpt><trkpt lat="45.57905305468423" lon="8.039565872479175"><ele>534.0000000000001</ele><time>2026-05-03T09:40:42Z</time></trkpt><trkpt lat="45.57897979527543" lon="8.0396059332711"><ele>534.0</ele><time>2026-05-03T09:40:43Z</time></trkpt><trkpt lat="45.57890735969244" lon="8.039612039542355"><ele>534.0</ele><time>2026-05-03T09:40:44Z</time></trkpt><trkpt lat="45.578839879196416" lon="8.039595503231327"><ele>534.0</ele><time>2026-05-03T09:40:45Z</time></trkpt><trkpt lat="45.578769888831566" lon="8.039574732743137"><ele>534.0</ele><time>2026-05-03T09:40:46Z</time></trkpt><trkpt lat="45.57871348397945" lon="8.039531837957622"><ele>534.0000000000001</ele><time>2026-05-03T09:40:47Z</time></trkpt><trkpt lat="45.5786594158726" lon="8.039478835477588"><ele>534.0</ele><time>2026-05-03T09:40:48Z</time></trkpt><trkpt lat="45.57856124167871" lon="8.039354062093299"><ele>534.4</ele><time>2026-05-03T09:40:50Z</time></trkpt><trkpt lat="45.57850156830311" lon="8.039307470982369"><ele>534.8</ele><time>2026-05-03T09:40:51Z</time></trkpt><trkpt lat="45.57840719150254" lon="8.039197932871714"><ele>535.2</ele><time>2026-05-03T09:40:53Z</time></trkpt><trkpt lat="45.578287290530795" lon="8.039133237137415"><ele>535.6</ele><time>2026-05-03T09:40:55Z</time></trkpt><trkpt lat="45.57821614859031" lon="8.039120252506448"><ele>536.0</ele><time>2026-05-03T09:40:56Z</time></trkpt><trkpt lat="45.578146626458306" lon="8.03911211346154"><ele>536.0</ele><time>2026-05-03T09:40:57Z</time></trkpt><trkpt lat="45.57807044280589" lon="8.039114920281149"><ele>536.0</ele><time>2026-05-03T09:40:58Z</time></trkpt><trkpt lat="45.577996943091804" lon="8.039133966422161"><ele>536.0</ele><time>2026-05-03T09:40:59Z</time></trkpt><trkpt lat="45.577925224391194" lon="8.039179755019799"><ele>536.0</ele><time>2026-05-03T09:41:00Z</time></trkpt><trkpt lat="45.57786309423631" lon="8.039236709163712"><ele>536.0</ele><time>2026-05-03T09:41:01Z</time></trkpt><trkpt lat="45.57780318936684" lon="8.039298409672346"><ele>536.0</ele><time>2026-05-03T09:41:02Z</time></trkpt><trkpt lat="45.57774752959853" lon="8.03936071289964"><ele>536.0</ele><time>2026-05-03T09:41:03Z</time></trkpt><trkpt lat="45.57768948223095" lon="8.039432685783286"><ele>534.6666666666666</ele><time>2026-05-03T09:41:04Z</time></trkpt><trkpt lat="45.57763055999651" lon="8.039502413372782"><ele>533.3333333333333</ele><time>2026-05-03T09:41:05Z</time></trkpt><trkpt lat="45.57756073843135" lon="8.03954645525609"><ele>532.0</ele><time>2026-05-03T09:41:06Z</time></trkpt><trkpt lat="45.577501762718995" lon="8.039607344089891"><ele>530.6666666666666</ele><time>2026-05-03T09:41:07Z</time></trkpt><trkpt lat="45.577441930824534" lon="8.039668491353542"><ele>529.3333333333334</ele><time>2026-05-03T09:41:08Z</time></trkpt><trkpt lat="45.57737907368137" lon="8.039732730682081"><ele>528.0</ele><time>2026-05-03T09:41:09Z</time></trkpt><trkpt lat="45.57731646636418" lon="8.039796714634814"><ele>528.0</ele><time>2026-05-03T09:41:10Z</time></trkpt><trkpt lat="45.57725350912576" lon="8.03986105604275"><ele>528.0</ele><time>2026-05-03T09:41:11Z</time></trkpt><trkpt lat="45.5771879312071" lon="8.039928072535606"><ele>528.0</ele><time>2026-05-03T09:41:12Z</time></trkpt><trkpt lat="45.57711937206905" lon="8.039997482896517"><ele>528.0</ele><time>2026-05-03T09:41:13Z</time></trkpt><trkpt lat="45.577060099124225" lon="8.040079113681875"><ele>528.0</ele><time>2026-05-03T09:41:14Z</time></trkpt><trkpt lat="45.57698106565583" lon="8.040120150248772"><ele>528.0</ele><time>2026-05-03T09:41:15Z</time></trkpt><trkpt lat="45.576906869139464" lon="8.040179562095668"><ele>527.6</ele><time>2026-05-03T09:41:16Z</time></trkpt><trkpt lat="45.57682041892204" lon="8.040246983107691"><ele>527.1999999999999</ele><time>2026-05-03T09:41:17Z</time></trkpt><trkpt lat="45.57674412198302" lon="8.040303784808254"><ele>526.8</ele><time>2026-05-03T09:41:18Z</time></trkpt><trkpt lat="45.57665663873224" lon="8.040366334531047"><ele>526.4</ele><time>2026-05-03T09:41:19Z</time></trkpt><trkpt lat="45.57657420778891" lon="8.040424634227838"><ele>526.0</ele><time>2026-05-03T09:41:20Z</time></trkpt><trkpt lat="45.57647707265124" lon="8.04049392242324"><ele>526.0</ele><time>2026-05-03T09:41:21Z</time></trkpt><trkpt lat="45.57638738059069" lon="8.040558663456787"><ele>526.0</ele><time>2026-05-03T09:41:22Z</time></trkpt><trkpt lat="45.57630351664723" lon="8.040619197526755"><ele>526.0</ele><time>2026-05-03T09:41:23Z</time></trkpt><trkpt lat="45.576205853152025" lon="8.040688702739168"><ele>526.0</ele><time>2026-05-03T09:41:24Z</time></trkpt><trkpt lat="45.57610766381292" lon="8.040772618351676"><ele>526.0</ele><time>2026-05-03T09:41:25Z</time></trkpt><trkpt lat="45.57601604589701" lon="8.040828506678276"><ele>524.8</ele><time>2026-05-03T09:41:26Z</time></trkpt><trkpt lat="45.575940914652385" lon="8.040915200719093"><ele>523.6</ele><time>2026-05-03T09:41:27Z</time></trkpt><trkpt lat="45.575850743590806" lon="8.041015352079397"><ele>522.4</ele><time>2026-05-03T09:41:28Z</time></trkpt><trkpt lat="45.57575685092186" lon="8.041104516293597"><ele>521.2</ele><time>2026-05-03T09:41:29Z</time></trkpt><trkpt lat="45.57567199730649" lon="8.041199933213802"><ele>520.0</ele><time>2026-05-03T09:41:30Z</time></trkpt><trkpt lat="45.57559857076673" lon="8.041314459504703"><ele>520.0</ele><time>2026-05-03T09:41:31Z</time></trkpt><trkpt lat="45.575513903024856" lon="8.041422554414298"><ele>520.0</ele><time>2026-05-03T09:41:32Z</time></trkpt><trkpt lat="45.575432307406274" lon="8.041525899887365"><ele>520.0</ele><time>2026-05-03T09:41:33Z</time></trkpt><trkpt lat="45.57534854933609" lon="8.041632902537252"><ele>520.0</ele><time>2026-05-03T09:41:34Z</time></trkpt><trkpt lat="45.57526366884741" lon="8.041740201475013"><ele>520.0</ele><time>2026-05-03T09:41:35Z</time></trkpt><trkpt lat="45.575178032996625" lon="8.04184580042491"><ele>518.75</ele><time>2026-05-03T09:41:36Z</time></trkpt><trkpt lat="45.5750879526952" lon="8.04194660765144"><ele>517.5</ele><time>2026-05-03T09:41:37Z</time></trkpt><trkpt lat="45.5749901764625" lon="8.042039665545618"><ele>516.25</ele><time>2026-05-03T09:41:38Z</time></trkpt><trkpt lat="45.5748850246114" lon="8.04211347098852"><ele>515.0</ele><time>2026-05-03T09:41:39Z</time></trkpt><trkpt lat="45.57477853676829" lon="8.042180760828613"><ele>515.0</ele><time>2026-05-03T09:41:40Z</time></trkpt><trkpt lat="45.57466129913575" lon="8.042217451910423"><ele>515.0</ele><time>2026-05-03T09:41:41Z</time></trkpt><trkpt lat="45.57454296925203" lon="8.04224416632675"><ele>515.0</ele><time>2026-05-03T09:41:42Z</time></trkpt><trkpt lat="45.57442080277201" lon="8.042258973329487"><ele>515.0</ele><time>2026-05-03T09:41:43Z</time></trkpt><trkpt lat="45.57430039605203" lon="8.04227544598962"><ele>513.0</ele><time>2026-05-03T09:41:44Z</time></trkpt><trkpt lat="45.574175625925534" lon="8.042317611379872"><ele>511.0</ele><time>2026-05-03T09:41:45Z</time></trkpt><trkpt lat="45.57405929112331" lon="8.042366877571375"><ele>509.0</ele><time>2026-05-03T09:41:46Z</time></trkpt><trkpt lat="45.5739516133106" lon="8.04247036624123"><ele>507.0</ele><time>2026-05-03T09:41:47Z</time></trkpt><trkpt lat="45.57386398543942" lon="8.04259215403959"><ele>506.75</ele><time>2026-05-03T09:41:48Z</time></trkpt><trkpt lat="45.57378339441732" lon="8.042717901587467"><ele>506.5</ele><time>2026-05-03T09:41:49Z</time></trkpt><trkpt lat="45.57371620858926" lon="8.042862760751879"><ele>506.25</ele><time>2026-05-03T09:41:50Z</time></trkpt><trkpt lat="45.57363277342425" lon="8.04300919346576"><ele>506.0</ele><time>2026-05-03T09:41:51Z</time></trkpt><trkpt lat="45.573540579189846" lon="8.043158139821113"><ele>505.25</ele><time>2026-05-03T09:41:52Z</time></trkpt><trkpt lat="45.57344618005098" lon="8.043269390163438"><ele>504.5</ele><time>2026-05-03T09:41:53Z</time></trkpt><trkpt lat="45.57333843719656" lon="8.043380425510675"><ele>503.75</ele><time>2026-05-03T09:41:54Z</time></trkpt><trkpt lat="45.573217761243114" lon="8.043443248931693"><ele>503.0</ele><time>2026-05-03T09:41:55Z</time></trkpt><trkpt lat="45.57310801779612" lon="8.043537541877644"><ele>502.0</ele><time>2026-05-03T09:41:56Z</time></trkpt><trkpt lat="45.5729920925397" lon="8.043619991903315"><ele>501.0</ele><time>2026-05-03T09:41:57Z</time></trkpt><trkpt lat="45.57287735191365" lon="8.043703669368735"><ele>500.0</ele><time>2026-05-03T09:41:58Z</time></trkpt><trkpt lat="45.57276137707139" lon="8.04379197743965"><ele>499.0</ele><time>2026-05-03T09:41:59Z</time></trkpt><trkpt lat="45.57264658263075" lon="8.043871740971593"><ele>497.5</ele><time>2026-05-03T09:42:00Z</time></trkpt><trkpt lat="45.57252438242821" lon="8.043942826409744"><ele>496.0</ele><time>2026-05-03T09:42:01Z</time></trkpt><trkpt lat="45.57241238432232" lon="8.044031427521606"><ele>494.5</ele><time>2026-05-03T09:42:02Z</time></trkpt><trkpt lat="45.57228938061136" lon="8.044084233670398"><ele>493.0</ele><time>2026-05-03T09:42:03Z</time></trkpt><trkpt lat="45.572173752797006" lon="8.044160446057589"><ele>492.2</ele><time>2026-05-03T09:42:04Z</time></trkpt><trkpt lat="45.572072230006086" lon="8.044227406597285"><ele>491.4</ele><time>2026-05-03T09:42:05Z</time></trkpt><trkpt lat="45.57200828507108" lon="8.044270429786621"><ele>490.59999999999997</ele><time>2026-05-03T09:42:06Z</time></trkpt><trkpt lat="45.5719115666485" lon="8.04440541880118"><ele>489.79999999999995</ele><time>2026-05-03T09:42:08Z</time></trkpt><trkpt lat="45.57188182540872" lon="8.044515200184618"><ele>489.0</ele><time>2026-05-03T09:42:09Z</time></trkpt><trkpt lat="45.57186028330955" lon="8.044630422942523"><ele>488.2</ele><time>2026-05-03T09:42:10Z</time></trkpt><trkpt lat="45.57183565622799" lon="8.04473299304041"><ele>487.4</ele><time>2026-05-03T09:42:11Z</time></trkpt><trkpt lat="45.57189983065865" lon="8.04467795203402"><ele>486.6</ele><time>2026-05-03T09:42:15Z</time></trkpt><trkpt lat="45.57195887924786" lon="8.044600175798855"><ele>485.8</ele><time>2026-05-03T09:42:16Z</time></trkpt><trkpt lat="45.57197032794126" lon="8.044445146885794"><ele>485.0</ele><time>2026-05-03T09:42:18Z</time></trkpt><trkpt lat="45.57195609654437" lon="8.044277472316713"><ele>484.99999999999994</ele><time>2026-05-03T09:42:20Z</time></trkpt><trkpt lat="45.571930747799065" lon="8.04419471820066"><ele>485.0</ele><time>2026-05-03T09:42:21Z</time></trkpt><trkpt lat="45.57187398212808" lon="8.04406676316544"><ele>485.0</ele><time>2026-05-03T09:42:23Z</time></trkpt><trkpt lat="45.57182322764844" lon="8.043969408296876"><ele>485.0</ele><time>2026-05-03T09:42:24Z</time></trkpt><trkpt lat="45.57173828886409" lon="8.043872235051492"><ele>484.99999999999994</ele><time>2026-05-03T09:42:26Z</time></trkpt><trkpt lat="45.5716862342802" lon="8.043815315308194"><ele>485.0</ele><time>2026-05-03T09:42:27Z</time></trkpt><trkpt lat="45.571627786633094" lon="8.0437604930672"><ele>487.0</ele><time>2026-05-03T09:42:29Z</time></trkpt><trkpt lat="45.57155227073741" lon="8.043689662988802"><ele>489.0</ele><time>2026-05-03T09:42:31Z</time></trkpt><trkpt lat="45.571455534475675" lon="8.043645894861053"><ele>491.0</ele><time>2026-05-03T09:42:34Z</time></trkpt><trkpt lat="45.570943345064826" lon="8.043607218067502"><ele>491.4</ele><time>2026-05-03T09:42:35Z</time></trkpt><trkpt lat="45.57085536142378" lon="8.04362349986189"><ele>491.8</ele><time>2026-05-03T09:42:36Z</time></trkpt><trkpt lat="45.57074912532979" lon="8.043663103288113"><ele>492.19999999999993</ele><time>2026-05-03T09:42:38Z</time></trkpt><trkpt lat="45.57066144730439" lon="8.04369319924445"><ele>492.59999999999997</ele><time>2026-05-03T09:42:40Z</time></trkpt><trkpt lat="45.57056131584959" lon="8.043719671840146"><ele>493.0</ele><time>2026-05-03T09:42:42Z</time></trkpt><trkpt lat="45.57046547641416" lon="8.043732638141135"><ele>493.0</ele><time>2026-05-03T09:42:44Z</time></trkpt><trkpt lat="45.57037851077879" lon="8.043720106027308"><ele>493.0</ele><time>2026-05-03T09:42:46Z</time></trkpt><trkpt lat="45.57021322937114" lon="8.043703956456778"><ele>493.0</ele><time>2026-05-03T09:42:48Z</time></trkpt><trkpt lat="45.57007895753039" lon="8.043621351755032"><ele>493.0</ele><time>2026-05-03T09:42:51Z</time></trkpt><trkpt lat="45.56966122963498" lon="8.043493280250015"><ele>492.59999999999997</ele><time>2026-05-03T09:42:52Z</time></trkpt><trkpt lat="45.56956131180098" lon="8.043483705306217"><ele>492.19999999999993</ele><time>2026-05-03T09:42:53Z</time></trkpt><trkpt lat="45.56945708782551" lon="8.043495891910704"><ele>491.8</ele><time>2026-05-03T09:42:54Z</time></trkpt><trkpt lat="45.569374010547094" lon="8.043568213633847"><ele>491.4</ele><time>2026-05-03T09:42:55Z</time></trkpt><trkpt lat="45.56926501908682" lon="8.043640097980674"><ele>491.0</ele><time>2026-05-03T09:42:56Z</time></trkpt><trkpt lat="45.569236126353886" lon="8.044656428351368"><ele>488.20000000000005</ele><time>2026-05-03T09:42:57Z</time></trkpt><trkpt lat="45.56914990927103" lon="8.04462974987651"><ele>485.40000000000003</ele><time>2026-05-03T09:42:58Z</time></trkpt><trkpt lat="45.569089516072424" lon="8.044589630655803"><ele>482.6</ele><time>2026-05-03T09:42:59Z</time></trkpt><trkpt lat="45.56896069114295" lon="8.044572401098517"><ele>479.8</ele><time>2026-05-03T09:43:01Z</time></trkpt><trkpt lat="45.56888924990118" lon="8.044574314593758"><ele>477.0</ele><time>2026-05-03T09:43:02Z</time></trkpt><trkpt lat="45.56876295646473" lon="8.044546208753586"><ele>474.8</ele><time>2026-05-03T09:43:04Z</time></trkpt><trkpt lat="45.56863867718262" lon="8.044516836668652"><ele>472.6</ele><time>2026-05-03T09:43:06Z</time></trkpt><trkpt lat="45.5685644592612" lon="8.04451481279673"><ele>470.40000000000003</ele><time>2026-05-03T09:43:07Z</time></trkpt><trkpt lat="45.568484975328275" lon="8.044531623024305"><ele>468.20000000000005</ele><time>2026-05-03T09:43:08Z</time></trkpt><trkpt lat="45.56841829171613" lon="8.044517324488227"><ele>466.0</ele><time>2026-05-03T09:43:09Z</time></trkpt><trkpt lat="45.56829069888873" lon="8.044490097037809"><ele>466.00000000000006</ele><time>2026-05-03T09:43:11Z</time></trkpt><trkpt lat="45.56815985526519" lon="8.044481309239178"><ele>466.0</ele><time>2026-05-03T09:43:13Z</time></trkpt><trkpt lat="45.56808792204594" lon="8.04446567099824"><ele>466.0</ele><time>2026-05-03T09:43:14Z</time></trkpt><trkpt lat="45.56802244252317" lon="8.044425296290106"><ele>466.0</ele><time>2026-05-03T09:43:15Z</time></trkpt><trkpt lat="45.56796111867844" lon="8.044381372674879"><ele>466.00000000000006</ele><time>2026-05-03T09:43:16Z</time></trkpt><trkpt lat="45.56790222147736" lon="8.044329137089548"><ele>466.0</ele><time>2026-05-03T09:43:17Z</time></trkpt><trkpt lat="45.56783826400448" lon="8.044290778258418"><ele>465.57142857142856</ele><time>2026-05-03T09:43:18Z</time></trkpt><trkpt lat="45.56777375888548" lon="8.04424984081157"><ele>465.1428571428571</ele><time>2026-05-03T09:43:19Z</time></trkpt><trkpt lat="45.56770937297192" lon="8.0442236448186"><ele>464.71428571428567</ele><time>2026-05-03T09:43:20Z</time></trkpt><trkpt lat="45.56764279063879" lon="8.044191566278277"><ele>464.2857142857143</ele><time>2026-05-03T09:43:21Z</time></trkpt><trkpt lat="45.56758216157351" lon="8.044151506703479"><ele>463.8571428571428</ele><time>2026-05-03T09:43:22Z</time></trkpt><trkpt lat="45.56751403222557" lon="8.044126059363284"><ele>463.4285714285714</ele><time>2026-05-03T09:43:23Z</time></trkpt><trkpt lat="45.5674500024803" lon="8.044095097209736"><ele>463.0</ele><time>2026-05-03T09:43:24Z</time></trkpt><trkpt lat="45.56738826979412" lon="8.044053895147158"><ele>462.2857142857143</ele><time>2026-05-03T09:43:25Z</time></trkpt><trkpt lat="45.56732775704856" lon="8.044018223410957"><ele>461.57142857142856</ele><time>2026-05-03T09:43:26Z</time></trkpt><trkpt lat="45.56726617927635" lon="8.043977307393089"><ele>460.85714285714283</ele><time>2026-05-03T09:43:27Z</time></trkpt><trkpt lat="45.56720447923971" lon="8.043940456406244"><ele>460.1428571428571</ele><time>2026-05-03T09:43:28Z</time></trkpt><trkpt lat="45.567141307595854" lon="8.043905408830081"><ele>459.42857142857144</ele><time>2026-05-03T09:43:29Z</time></trkpt><trkpt lat="45.567079786388774" lon="8.043877482733215"><ele>458.71428571428567</ele><time>2026-05-03T09:43:30Z</time></trkpt><trkpt lat="45.56701376037844" lon="8.043860473374297"><ele>458.0</ele><time>2026-05-03T09:43:31Z</time></trkpt><trkpt lat="45.56694699152299" lon="8.043849361619351"><ele>458.0</ele><time>2026-05-03T09:43:32Z</time></trkpt><trkpt lat="45.56687958384796" lon="8.043830605406418"><ele>458.0</ele><time>2026-05-03T09:43:33Z</time></trkpt><trkpt lat="45.566814053710495" lon="8.043796635208945"><ele>458.0</ele><time>2026-05-03T09:43:34Z</time></trkpt><trkpt lat="45.566754061231414" lon="8.04375324360179"><ele>458.0</ele><time>2026-05-03T09:43:35Z</time></trkpt><trkpt lat="45.56669763822545" lon="8.043704370537005"><ele>458.0</ele><time>2026-05-03T09:43:36Z</time></trkpt><trkpt lat="45.56664073200783" lon="8.043661101754559"><ele>458.0</ele><time>2026-05-03T09:43:37Z</time></trkpt><trkpt lat="45.56658059316647" lon="8.043632181819952"><ele>458.0</ele><time>2026-05-03T09:43:38Z</time></trkpt><trkpt lat="45.56648937892754" lon="8.043585341415085"><ele>458.0</ele><time>2026-05-03T09:43:40Z</time></trkpt><trkpt lat="45.56639937909704" lon="8.043603338461956"><ele>457.99999999999994</ele><time>2026-05-03T09:43:42Z</time></trkpt><trkpt lat="45.56628120668533" lon="8.043590641609994"><ele>457.99999999999994</ele><time>2026-05-03T09:43:44Z</time></trkpt><trkpt lat="45.56621186352097" lon="8.043557604662741"><ele>458.0</ele><time>2026-05-03T09:43:45Z</time></trkpt><trkpt lat="45.566137486303234" lon="8.043482725706825"><ele>458.0</ele><time>2026-05-03T09:43:46Z</time></trkpt><trkpt lat="45.56606997411798" lon="8.043420123496636"><ele>457.8333333333333</ele><time>2026-05-03T09:43:47Z</time></trkpt><trkpt lat="45.5660189627236" lon="8.043329936051693"><ele>457.66666666666663</ele><time>2026-05-03T09:43:48Z</time></trkpt><trkpt lat="45.56594643458361" lon="8.043270686853461"><ele>457.5</ele><time>2026-05-03T09:43:49Z</time></trkpt><trkpt lat="45.56589567734563" lon="8.043213722192567"><ele>457.33333333333337</ele><time>2026-05-03T09:43:50Z</time></trkpt><trkpt lat="45.565839806194724" lon="8.043153306732137"><ele>457.1666666666667</ele><time>2026-05-03T09:43:51Z</time></trkpt><trkpt lat="45.565794051028355" lon="8.0430648635647"><ele>457.0</ele><time>2026-05-03T09:43:52Z</time></trkpt><trkpt lat="45.565750916831675" lon="8.042974075629767"><ele>457.00000000000006</ele><time>2026-05-03T09:43:53Z</time></trkpt><trkpt lat="45.56571573107056" lon="8.042872582022532"><ele>457.0</ele><time>2026-05-03T09:43:54Z</time></trkpt><trkpt lat="45.56567173775425" lon="8.042803998919153"><ele>457.0</ele><time>2026-05-03T09:43:55Z</time></trkpt><trkpt lat="45.56556075099569" lon="8.042757384932282"><ele>457.0</ele><time>2026-05-03T09:43:57Z</time></trkpt><trkpt lat="45.56548985048035" lon="8.042778024646825"><ele>457.00000000000006</ele><time>2026-05-03T09:43:58Z</time></trkpt><trkpt lat="45.56542870057192" lon="8.042811872643936"><ele>457.0</ele><time>2026-05-03T09:43:59Z</time></trkpt><trkpt lat="45.56530519376279" lon="8.042894191769578"><ele>456.1666666666667</ele><time>2026-05-03T09:44:01Z</time></trkpt><trkpt lat="45.56523569064366" lon="8.042939132700752"><ele>455.33333333333337</ele><time>2026-05-03T09:44:02Z</time></trkpt><trkpt lat="45.56516963222319" lon="8.042976564727539"><ele>454.5</ele><time>2026-05-03T09:44:03Z</time></trkpt><trkpt lat="45.56508140105767" lon="8.043028129720131"><ele>453.66666666666663</ele><time>2026-05-03T09:44:05Z</time></trkpt><trkpt lat="45.5649847111076" lon="8.043030825506223"><ele>452.8333333333333</ele><time>2026-05-03T09:44:07Z</time></trkpt><trkpt lat="45.5648945193827" lon="8.042971861034852"><ele>452.0</ele><time>2026-05-03T09:44:09Z</time></trkpt><trkpt lat="45.56482486121632" lon="8.042903340811861"><ele>451.99999999999994</ele><time>2026-05-03T09:44:11Z</time></trkpt><trkpt lat="45.564721440086025" lon="8.042824080726863"><ele>452.0</ele><time>2026-05-03T09:44:13Z</time></trkpt><trkpt lat="45.564665218932404" lon="8.042770597428646"><ele>452.0</ele><time>2026-05-03T09:44:14Z</time></trkpt><trkpt lat="45.5646015553884" lon="8.042722079300608"><ele>452.0</ele><time>2026-05-03T09:44:15Z</time></trkpt><trkpt lat="45.56455262838742" lon="8.042639604203307"><ele>451.99999999999994</ele><time>2026-05-03T09:44:16Z</time></trkpt><trkpt lat="45.56448966487483" lon="8.04253130906391"><ele>452.0</ele><time>2026-05-03T09:44:18Z</time></trkpt><trkpt lat="45.56439857981187" lon="8.04251965239313"><ele>450.0</ele><time>2026-05-03T09:44:21Z</time></trkpt><trkpt lat="45.564272900339546" lon="8.042548396065364"><ele>448.00000000000006</ele><time>2026-05-03T09:44:23Z</time></trkpt><trkpt lat="45.56420373774949" lon="8.042593303154229"><ele>446.00000000000006</ele><time>2026-05-03T09:44:24Z</time></trkpt><trkpt lat="45.564071047783365" lon="8.04263480694153"><ele>444.0</ele><time>2026-05-03T09:44:26Z</time></trkpt><trkpt lat="45.563991633135316" lon="8.042644448300006"><ele>442.0</ele><time>2026-05-03T09:44:27Z</time></trkpt><trkpt lat="45.56389072329793" lon="8.042609319778721"><ele>442.00000000000006</ele><time>2026-05-03T09:44:28Z</time></trkpt><trkpt lat="45.563810585018786" lon="8.042552932461888"><ele>442.0</ele><time>2026-05-03T09:44:29Z</time></trkpt><trkpt lat="45.56374487450448" lon="8.042490468382924"><ele>442.0</ele><time>2026-05-03T09:44:30Z</time></trkpt><trkpt lat="45.56367681163107" lon="8.0424297961224"><ele>442.0</ele><time>2026-05-03T09:44:31Z</time></trkpt><trkpt lat="45.56360242101528" lon="8.042355783739577"><ele>442.00000000000006</ele><time>2026-05-03T09:44:32Z</time></trkpt><trkpt lat="45.56353625087445" lon="8.0422890684838"><ele>442.0</ele><time>2026-05-03T09:44:33Z</time></trkpt><trkpt lat="45.563451865625545" lon="8.042274295931094"><ele>442.50000000000006</ele><time>2026-05-03T09:44:34Z</time></trkpt><trkpt lat="45.56337643674205" lon="8.04228440674452"><ele>443.0</ele><time>2026-05-03T09:44:35Z</time></trkpt><trkpt lat="45.563289902719774" lon="8.042310052266199"><ele>443.5</ele><time>2026-05-03T09:44:36Z</time></trkpt><trkpt lat="45.56321014283974" lon="8.042365745974093"><ele>444.0</ele><time>2026-05-03T09:44:37Z</time></trkpt><trkpt lat="45.563134563890294" lon="8.042436361495026"><ele>444.50000000000006</ele><time>2026-05-03T09:44:38Z</time></trkpt><trkpt lat="45.56305741351424" lon="8.042446923830754"><ele>445.0</ele><time>2026-05-03T09:44:39Z</time></trkpt><trkpt lat="45.562970554780584" lon="8.042421272718325"><ele>445.00000000000006</ele><time>2026-05-03T09:44:40Z</time></trkpt><trkpt lat="45.5629011497179" lon="8.042366589489466"><ele>445.0</ele><time>2026-05-03T09:44:41Z</time></trkpt><trkpt lat="45.56283857580037" lon="8.042303433735283"><ele>445.0</ele><time>2026-05-03T09:44:42Z</time></trkpt><trkpt lat="45.56271770414029" lon="8.04228064284621"><ele>445.0</ele><time>2026-05-03T09:44:44Z</time></trkpt><trkpt lat="45.56264510298439" lon="8.042332167195998"><ele>445.00000000000006</ele><time>2026-05-03T09:44:45Z</time></trkpt><trkpt lat="45.56257879858122" lon="8.042388023505637"><ele>445.0</ele><time>2026-05-03T09:44:46Z</time></trkpt><trkpt lat="45.56252442205793" lon="8.042463084544273"><ele>441.6</ele><time>2026-05-03T09:44:47Z</time></trkpt><trkpt lat="45.562453292282946" lon="8.04253716119586"><ele>438.2</ele><time>2026-05-03T09:44:48Z</time></trkpt><trkpt lat="45.562363175980735" lon="8.042604578710158"><ele>434.79999999999995</ele><time>2026-05-03T09:44:49Z</time></trkpt><trkpt lat="45.56226964903652" lon="8.042656440280007"><ele>431.4</ele><time>2026-05-03T09:44:50Z</time></trkpt><trkpt lat="45.562170319837826" lon="8.04266803196191"><ele>428.0</ele><time>2026-05-03T09:44:51Z</time></trkpt><trkpt lat="45.56208797658868" lon="8.042676972211108"><ele>426.8333333333333</ele><time>2026-05-03T09:44:52Z</time></trkpt><trkpt lat="45.562013267931086" lon="8.042669454343734"><ele>425.66666666666663</ele><time>2026-05-03T09:44:53Z</time></trkpt><trkpt lat="45.56194540816104" lon="8.042652479067153"><ele>424.5</ele><time>2026-05-03T09:44:54Z</time></trkpt><trkpt lat="45.56188806888192" lon="8.042599050570155"><ele>423.33333333333337</ele><time>2026-05-03T09:44:55Z</time></trkpt><trkpt lat="45.561840692303704" lon="8.04252525881861"><ele>422.1666666666667</ele><time>2026-05-03T09:44:56Z</time></trkpt><trkpt lat="45.56179429938061" lon="8.042458192773255"><ele>421.0</ele><time>2026-05-03T09:44:57Z</time></trkpt><trkpt lat="45.56169830386846" lon="8.042383520328231"><ele>423.33333333333337</ele><time>2026-05-03T09:44:59Z</time></trkpt><trkpt lat="45.561605182594874" lon="8.042326435459357"><ele>425.6666666666667</ele><time>2026-05-03T09:45:01Z</time></trkpt><trkpt lat="45.56151272986781" lon="8.042328175125789"><ele>428.0</ele><time>2026-05-03T09:45:03Z</time></trkpt><trkpt lat="45.561430316453276" lon="8.04227102935159"><ele>430.33333333333337</ele><time>2026-05-03T09:45:05Z</time></trkpt><trkpt lat="45.56136218079813" lon="8.042261537269004"><ele>432.6666666666667</ele><time>2026-05-03T09:45:07Z</time></trkpt><trkpt lat="45.561283863128125" lon="8.042235761924738"><ele>435.0</ele><time>2026-05-03T09:45:10Z</time></trkpt><trkpt lat="45.56121761675785" lon="8.042240490585014"><ele>434.1666666666667</ele><time>2026-05-03T09:45:12Z</time></trkpt><trkpt lat="45.561149098591926" lon="8.042212409985005"><ele>433.33333333333337</ele><time>2026-05-03T09:45:14Z</time></trkpt><trkpt lat="45.56108824371721" lon="8.042170141321245"><ele>432.5</ele><time>2026-05-03T09:45:16Z</time></trkpt><trkpt lat="45.56097284862762" lon="8.042189160249539"><ele>431.6666666666667</ele><time>2026-05-03T09:45:18Z</time></trkpt><trkpt lat="45.56091635921822" lon="8.042241169606076"><ele>430.83333333333337</ele><time>2026-05-03T09:45:19Z</time></trkpt><trkpt lat="45.56084587784548" lon="8.042276194578905"><ele>430.0</ele><time>2026-05-03T09:45:20Z</time></trkpt><trkpt lat="45.560751625271784" lon="8.042264718878927"><ele>430.0</ele><time>2026-05-03T09:45:21Z</time></trkpt><trkpt lat="45.56066587631317" lon="8.04233467291921"><ele>430.0</ele><time>2026-05-03T09:45:22Z</time></trkpt><trkpt lat="45.560592584202865" lon="8.04243645454646"><ele>430.0</ele><time>2026-05-03T09:45:23Z</time></trkpt><trkpt lat="45.560550664745406" lon="8.042594193544002"><ele>430.0</ele><time>2026-05-03T09:45:24Z</time></trkpt><trkpt lat="45.56058673679663" lon="8.042777482621231"><ele>427.2</ele><time>2026-05-03T09:45:25Z</time></trkpt><trkpt lat="45.56058745045983" lon="8.04292659125143"><ele>424.4</ele><time>2026-05-03T09:45:26Z</time></trkpt><trkpt lat="45.56057667939093" lon="8.04306730311329"><ele>421.6</ele><time>2026-05-03T09:45:27Z</time></trkpt><trkpt lat="45.56057759634622" lon="8.043205703368024"><ele>418.8</ele><time>2026-05-03T09:45:28Z</time></trkpt><trkpt lat="45.560573463578166" lon="8.043333174565891"><ele>416.0</ele><time>2026-05-03T09:45:29Z</time></trkpt><trkpt lat="45.560513592767414" lon="8.043476713642256"><ele>415.66666666666663</ele><time>2026-05-03T09:45:31Z</time></trkpt><trkpt lat="45.560436948318696" lon="8.043489700171454"><ele>415.3333333333333</ele><time>2026-05-03T09:45:32Z</time></trkpt><trkpt lat="45.5603627422081" lon="8.043542384952689"><ele>415.0</ele><time>2026-05-03T09:45:33Z</time></trkpt><trkpt lat="45.560279693474264" lon="8.04360477951825"><ele>414.66666666666663</ele><time>2026-05-03T09:45:34Z</time></trkpt><trkpt lat="45.56020814831488" lon="8.043660154381266"><ele>414.3333333333333</ele><time>2026-05-03T09:45:35Z</time></trkpt><trkpt lat="45.56015796734153" lon="8.043724592949495"><ele>414.0</ele><time>2026-05-03T09:45:36Z</time></trkpt><trkpt lat="45.56007501189749" lon="8.043767670849734"><ele>413.6666666666667</ele><time>2026-05-03T09:45:37Z</time></trkpt><trkpt lat="45.56000909446041" lon="8.043829751914561"><ele>413.33333333333337</ele><time>2026-05-03T09:45:38Z</time></trkpt><trkpt lat="45.55994140669941" lon="8.043887883408768"><ele>413.0</ele><time>2026-05-03T09:45:39Z</time></trkpt><trkpt lat="45.559878195977625" lon="8.043949583564059"><ele>412.6666666666667</ele><time>2026-05-03T09:45:40Z</time></trkpt><trkpt lat="45.559821448277674" lon="8.043991119922913"><ele>412.33333333333337</ele><time>2026-05-03T09:45:41Z</time></trkpt><trkpt lat="45.5597473247129" lon="8.04405796818874"><ele>412.0</ele><time>2026-05-03T09:45:43Z</time></trkpt><trkpt lat="45.55978489745532" lon="8.044189582382648"><ele>412.00000000000006</ele><time>2026-05-03T09:45:49Z</time></trkpt><trkpt lat="45.5598474592053" lon="8.04416662653533"><ele>412.0</ele><time>2026-05-03T09:45:51Z</time></trkpt><trkpt lat="45.559908178494396" lon="8.044131057686466"><ele>412.0</ele><time>2026-05-03T09:45:53Z</time></trkpt><trkpt lat="45.55998799183382" lon="8.044128421376506"><ele>412.0</ele><time>2026-05-03T09:45:55Z</time></trkpt><trkpt lat="45.560073650563425" lon="8.044105103723767"><ele>412.00000000000006</ele><time>2026-05-03T09:45:57Z</time></trkpt><trkpt lat="45.56016286961125" lon="8.044068273137297"><ele>412.0</ele><time>2026-05-03T09:45:59Z</time></trkpt><trkpt lat="45.56025233961433" lon="8.044053024257048"><ele>412.33333333333337</ele><time>2026-05-03T09:46:01Z</time></trkpt><trkpt lat="45.560335792502656" lon="8.044012538251009"><ele>412.6666666666667</ele><time>2026-05-03T09:46:03Z</time></trkpt><trkpt lat="45.5603867118945" lon="8.043906898164503"><ele>413.0</ele><time>2026-05-03T09:46:05Z</time></trkpt><trkpt lat="45.56045840788407" lon="8.043859291689413"><ele>413.33333333333337</ele><time>2026-05-03T09:46:07Z</time></trkpt><trkpt lat="45.560524565495925" lon="8.043873413404578"><ele>413.6666666666667</ele><time>2026-05-03T09:46:09Z</time></trkpt><trkpt lat="45.56054432098056" lon="8.043994339331782"><ele>414.0</ele><time>2026-05-03T09:46:11Z</time></trkpt><trkpt lat="45.5605198180185" lon="8.044108216027086"><ele>414.8333333333333</ele><time>2026-05-03T09:46:13Z</time></trkpt><trkpt lat="45.560466333687295" lon="8.04419887188717"><ele>415.66666666666663</ele><time>2026-05-03T09:46:15Z</time></trkpt><trkpt lat="45.56049882613894" lon="8.044335736260747"><ele>416.5</ele><time>2026-05-03T09:46:17Z</time></trkpt><trkpt lat="45.56051659063516" lon="8.044464376690474"><ele>417.3333333333333</ele><time>2026-05-03T09:46:19Z</time></trkpt><trkpt lat="45.56053996994115" lon="8.044581360807467"><ele>418.16666666666663</ele><time>2026-05-03T09:46:21Z</time></trkpt><trkpt lat="45.560559608744946" lon="8.044690725487284"><ele>419.0</ele><time>2026-05-03T09:46:23Z</time></trkpt><trkpt lat="45.56056864698416" lon="8.044795095796411"><ele>418.99999999999994</ele><time>2026-05-03T09:46:26Z</time></trkpt><trkpt lat="45.5605169850564" lon="8.04492100130897"><ele>419.0</ele><time>2026-05-03T09:46:29Z</time></trkpt><trkpt lat="45.56042243036002" lon="8.044940956635411"><ele>419.0</ele><time>2026-05-03T09:46:30Z</time></trkpt><trkpt lat="45.56035044639719" lon="8.04497546560877"><ele>419.0</ele><time>2026-05-03T09:46:31Z</time></trkpt><trkpt lat="45.56028356660827" lon="8.04496387839032"><ele>418.99999999999994</ele><time>2026-05-03T09:46:32Z</time></trkpt><trkpt lat="45.56020377802979" lon="8.045011542219044"><ele>419.0</ele><time>2026-05-03T09:46:34Z</time></trkpt><trkpt lat="45.56020769992934" lon="8.045129543842346"><ele>419.2</ele><time>2026-05-03T09:46:38Z</time></trkpt><trkpt lat="45.56024950471782" lon="8.045210297231039"><ele>419.4</ele><time>2026-05-03T09:46:40Z</time></trkpt><trkpt lat="45.56029877985953" lon="8.04530903217725"><ele>419.6</ele><time>2026-05-03T09:46:42Z</time></trkpt><trkpt lat="45.56032843015019" lon="8.0454289559673"><ele>419.8</ele><time>2026-05-03T09:46:44Z</time></trkpt><trkpt lat="45.56035533873747" lon="8.045576187773182"><ele>420.0</ele><time>2026-05-03T09:46:46Z</time></trkpt><trkpt lat="45.560404843800235" lon="8.045707964972287"><ele>419.4</ele><time>2026-05-03T09:46:48Z</time></trkpt><trkpt lat="45.560445356809026" lon="8.04583057995717"><ele>418.8</ele><time>2026-05-03T09:46:50Z</time></trkpt><trkpt lat="45.560485389966914" lon="8.045963574961963"><ele>418.20000000000005</ele><time>2026-05-03T09:46:52Z</time></trkpt><trkpt lat="45.560498197837966" lon="8.046113528134875"><ele>417.6</ele><time>2026-05-03T09:46:54Z</time></trkpt><trkpt lat="45.56054491919011" lon="8.046249203681603"><ele>417.0</ele><time>2026-05-03T09:46:56Z</time></trkpt><trkpt lat="45.560586349124904" lon="8.046370420552288"><ele>417.0</ele><time>2026-05-03T09:46:58Z</time></trkpt><trkpt lat="45.56062475968038" lon="8.046509832256044"><ele>417.0</ele><time>2026-05-03T09:47:00Z</time></trkpt><trkpt lat="45.56065533333941" lon="8.046644616479668"><ele>417.0</ele><time>2026-05-03T09:47:02Z</time></trkpt><trkpt lat="45.56068012084727" lon="8.046774632684608"><ele>417.0</ele><time>2026-05-03T09:47:04Z</time></trkpt><trkpt lat="45.56070711766042" lon="8.046904287291822"><ele>417.0</ele><time>2026-05-03T09:47:06Z</time></trkpt><trkpt lat="45.56073016597774" lon="8.047008751646583"><ele>416.8333333333333</ele><time>2026-05-03T09:47:08Z</time></trkpt><trkpt lat="45.56076734973313" lon="8.047103373026738"><ele>416.66666666666663</ele><time>2026-05-03T09:47:10Z</time></trkpt><trkpt lat="45.560754642258985" lon="8.047193415922898"><ele>416.5</ele><time>2026-05-03T09:47:13Z</time></trkpt><trkpt lat="45.56061923358333" lon="8.047237269444572"><ele>416.3333333333333</ele><time>2026-05-03T09:47:17Z</time></trkpt><trkpt lat="45.56053606838376" lon="8.047318196286028"><ele>416.16666666666663</ele><time>2026-05-03T09:47:19Z</time></trkpt><trkpt lat="45.56047833245821" lon="8.04736807805212"><ele>416.0</ele><time>2026-05-03T09:47:20Z</time></trkpt><trkpt lat="45.56040346424807" lon="8.047408546225668"><ele>415.4</ele><time>2026-05-03T09:47:22Z</time></trkpt><trkpt lat="45.56031405775341" lon="8.047447132111506"><ele>414.8</ele><time>2026-05-03T09:47:24Z</time></trkpt><trkpt lat="45.560218598031774" lon="8.04747255503522"><ele>414.2</ele><time>2026-05-03T09:47:26Z</time></trkpt><trkpt lat="45.56009937188212" lon="8.04750537157224"><ele>413.59999999999997</ele><time>2026-05-03T09:47:28Z</time></trkpt><trkpt lat="45.55999746703974" lon="8.04754385647505"><ele>413.0</ele><time>2026-05-03T09:47:30Z</time></trkpt><trkpt lat="45.55990655689276" lon="8.04758330194323"><ele>413.0</ele><time>2026-05-03T09:47:32Z</time></trkpt><trkpt lat="45.55983564023765" lon="8.047602470491542"><ele>413.0</ele><time>2026-05-03T09:47:34Z</time></trkpt><trkpt lat="45.55977389672994" lon="8.04758047066169"><ele>413.0</ele><time>2026-05-03T09:47:35Z</time></trkpt><trkpt lat="45.55977401856618" lon="8.047407590180713"><ele>413.0</ele><time>2026-05-03T09:47:36Z</time></trkpt><trkpt lat="45.55962150392343" lon="8.047594869668194"><ele>413.0</ele><time>2026-05-03T09:47:38Z</time></trkpt><trkpt lat="45.559538360998864" lon="8.047694694081132"><ele>413.0</ele><time>2026-05-03T09:47:40Z</time></trkpt><trkpt lat="45.55941702139298" lon="8.04772946837934"><ele>413.0</ele><time>2026-05-03T09:47:42Z</time></trkpt><trkpt lat="45.55935671160499" lon="8.047779930156072"><ele>413.0</ele><time>2026-05-03T09:47:43Z</time></trkpt><trkpt lat="45.55926961184069" lon="8.04776394414752"><ele>413.0</ele><time>2026-05-03T09:47:44Z</time></trkpt><trkpt lat="45.55919833935641" lon="8.04777627735101"><ele>412.3333333333333</ele><time>2026-05-03T09:47:45Z</time></trkpt><trkpt lat="45.55912579973698" lon="8.047820511029858"><ele>411.66666666666663</ele><time>2026-05-03T09:47:46Z</time></trkpt><trkpt lat="45.55904834864329" lon="8.04783800791966"><ele>411.0</ele><time>2026-05-03T09:47:47Z</time></trkpt><trkpt lat="45.55897600759727" lon="8.047861891947234"><ele>410.33333333333337</ele><time>2026-05-03T09:47:48Z</time></trkpt><trkpt lat="45.558910559589464" lon="8.04790116795636"><ele>409.6666666666667</ele><time>2026-05-03T09:47:49Z</time></trkpt><trkpt lat="45.5588461423464" lon="8.047909465110807"><ele>409.0</ele><time>2026-05-03T09:47:50Z</time></trkpt><trkpt lat="45.55872283345423" lon="8.047973096226281"><ele>408.75</ele><time>2026-05-03T09:47:52Z</time></trkpt><trkpt lat="45.55861236363779" lon="8.04803203035135"><ele>408.5</ele><time>2026-05-03T09:47:54Z</time></trkpt><trkpt lat="45.55852613826992" lon="8.048074662494127"><ele>408.25</ele><time>2026-05-03T09:47:56Z</time></trkpt><trkpt lat="45.55856962704556" lon="8.04839663922888"><ele>408.0</ele><time>2026-05-03T09:47:57Z</time></trkpt><trkpt lat="45.55860017706341" lon="8.048507592460581"><ele>408.0</ele><time>2026-05-03T09:47:58Z</time></trkpt><trkpt lat="45.558648470105645" lon="8.048597560199191"><ele>408.0</ele><time>2026-05-03T09:47:59Z</time></trkpt><trkpt lat="45.55868055285651" lon="8.048691294521491"><ele>408.0</ele><time>2026-05-03T09:48:00Z</time></trkpt><trkpt lat="45.558705620080524" lon="8.048784913348994"><ele>408.0</ele><time>2026-05-03T09:48:01Z</time></trkpt><trkpt lat="45.55872962581042" lon="8.048879520170686"><ele>408.0</ele><time>2026-05-03T09:48:02Z</time></trkpt><trkpt lat="45.558755805853416" lon="8.048970059273953"><ele>408.0</ele><time>2026-05-03T09:48:03Z</time></trkpt><trkpt lat="45.55877884823" lon="8.049061292311084"><ele>408.0</ele><time>2026-05-03T09:48:04Z</time></trkpt><trkpt lat="45.55880732363924" lon="8.049158196662047"><ele>408.1666666666667</ele><time>2026-05-03T09:48:05Z</time></trkpt><trkpt lat="45.55884313587064" lon="8.0492468459076"><ele>408.33333333333337</ele><time>2026-05-03T09:48:06Z</time></trkpt><trkpt lat="45.55887795534288" lon="8.04933120733839"><ele>408.5</ele><time>2026-05-03T09:48:07Z</time></trkpt><trkpt lat="45.55890240832643" lon="8.049420607001265"><ele>408.6666666666667</ele><time>2026-05-03T09:48:08Z</time></trkpt><trkpt lat="45.5589157691318" lon="8.049511674356038"><ele>408.83333333333337</ele><time>2026-05-03T09:48:09Z</time></trkpt><trkpt lat="45.55897014823572" lon="8.049665404475979"><ele>409.0</ele><time>2026-05-03T09:48:11Z</time></trkpt><trkpt lat="45.559006942651756" lon="8.049805603728823"><ele>409.0</ele><time>2026-05-03T09:48:13Z</time></trkpt><trkpt lat="45.55902426808102" lon="8.049946818723262"><ele>409.0</ele><time>2026-05-03T09:48:15Z</time></trkpt><trkpt lat="45.55904442863231" lon="8.050069281018587"><ele>409.0</ele><time>2026-05-03T09:48:17Z</time></trkpt><trkpt lat="45.55906598233405" lon="8.05016578826697"><ele>409.0</ele><time>2026-05-03T09:48:19Z</time></trkpt><trkpt lat="45.558798848297734" lon="8.05018950086163"><ele>409.25</ele><time>2026-05-03T09:49:23.417Z</time></trkpt><trkpt lat="45.55902762324436" lon="8.050149580500731"><ele>409.5</ele><time>2026-05-03T09:50:11Z</time></trkpt><trkpt lat="45.55913497358524" lon="8.050147227005562"><ele>409.75</ele><time>2026-05-03T09:50:12Z</time></trkpt><trkpt lat="45.55913053126143" lon="8.050044795756538"><ele>410.0</ele><time>2026-05-03T09:50:31Z</time></trkpt><trkpt lat="45.55895096412403" lon="8.050274849430872"><ele>410.0</ele><time>2026-05-03T09:51:33Z</time></trkpt><trkpt lat="45.558874139622716" lon="8.050291801417028"><ele>410.0</ele><time>2026-05-03T09:51:47.595Z</time></trkpt><trkpt lat="45.558934847456705" lon="8.050441511601418"><ele>410.0</ele><time>2026-05-03T09:52:06.018Z</time></trkpt><trkpt lat="45.55889699314606" lon="8.050336204583166"><ele>410.0</ele><time>2026-05-03T09:52:31.843Z</time></trkpt></trkseg></trk></gpx>